BA1496 / G-NEOY 7700 Squawk Report (22nd of May, 2022)

Time Lat Lon Altitude Heading Speed Vertical Rate
2022-05-22 22:35:15 GMT 55.866554 -4.434190 0 98 0 0
2022-05-22 22:35:13 GMT 55.866554 -4.434169 0 98 0 0
2022-05-22 22:35:11 GMT 55.866550 -4.434185 0 98 0 0
2022-05-22 22:35:10 GMT 55.866554 -4.434169 0 98 0 0
2022-05-22 22:34:53 GMT 55.866512 -4.434228 0 98 0 0
2022-05-22 22:34:51 GMT 55.866520 -4.434253 0 98 1 0
2022-05-22 22:34:47 GMT 55.866528 -4.434271 0 98 2 0
2022-05-22 22:34:46 GMT 55.866520 -4.434273 0 98 2 0
2022-05-22 22:34:45 GMT 55.866528 -4.434292 0 98 2 0
2022-05-22 22:34:44 GMT 55.866520 -4.434294 0 98 2 0
2022-05-22 22:34:42 GMT 55.866528 -4.434335 0 98 2 0
2022-05-22 22:34:41 GMT 55.866528 -4.434357 0 98 2 0
2022-05-22 22:34:39 GMT 55.866528 -4.434378 0 98 2 0
2022-05-22 22:34:37 GMT 55.866531 -4.434398 0 98 2 0
2022-05-22 22:34:35 GMT 55.866531 -4.434419 0 98 2 0
2022-05-22 22:34:33 GMT 55.866531 -4.434461 0 98 3 0
2022-05-22 22:34:32 GMT 55.866539 -4.434550 0 98 4 0
2022-05-22 22:34:29 GMT 55.866539 -4.434550 0 98 4 0
2022-05-22 22:34:27 GMT 55.866539 -4.434614 0 98 4 0
2022-05-22 22:34:25 GMT 55.866543 -4.434669 0 98 5 0
2022-05-22 22:34:23 GMT 55.866550 -4.434721 0 98 5 0
2022-05-22 22:34:21 GMT 55.866554 -4.434773 0 98 5 0
2022-05-22 22:34:20 GMT 55.866554 -4.434877 0 98 5 0
2022-05-22 22:34:18 GMT 55.866566 -4.434898 0 98 6 0
2022-05-22 22:34:15 GMT 55.866577 -4.435023 0 101 6 0
2022-05-22 22:34:14 GMT 55.866577 -4.435085 0 101 6 0
2022-05-22 22:34:12 GMT 55.866585 -4.435172 0 101 6 0
2022-05-22 22:34:10 GMT 55.866585 -4.435258 0 104 6 0
2022-05-22 22:34:08 GMT 55.866596 -4.435344 0 109 6 0
2022-05-22 22:34:06 GMT 55.866596 -4.435451 0 115 6 0
2022-05-22 22:34:04 GMT 55.866596 -4.435537 0 123 6 0
2022-05-22 22:34:03 GMT 55.866608 -4.435687 0 137 6 0
2022-05-22 22:34:01 GMT 55.866608 -4.435687 0 137 6 0
2022-05-22 22:34:00 GMT 55.866619 -4.435730 0 143 6 0
2022-05-22 22:33:58 GMT 55.866646 -4.435813 0 151 5 0
2022-05-22 22:33:57 GMT 55.866665 -4.435837 0 157 5 0
2022-05-22 22:33:56 GMT 55.866676 -4.435880 0 160 5 0
2022-05-22 22:33:55 GMT 55.866703 -4.435896 0 163 5 0
2022-05-22 22:33:53 GMT 55.866726 -4.435917 0 163 6 0
2022-05-22 22:33:52 GMT 55.866737 -4.435938 0 163 7 0
2022-05-22 22:33:51 GMT 55.866783 -4.435938 0 163 8 0
2022-05-22 22:33:48 GMT 55.866829 -4.435966 0 160 8 0
2022-05-22 22:33:47 GMT 55.866875 -4.435980 0 157 9 0
2022-05-22 22:33:45 GMT 55.866966 -4.436021 0 154 9 0
2022-05-22 22:33:43 GMT 55.867039 -4.436052 0 146 8 0
2022-05-22 22:33:41 GMT 55.867165 -4.436138 0 129 8 0
2022-05-22 22:33:39 GMT 55.867165 -4.436138 0 129 8 0
2022-05-22 22:33:37 GMT 55.867287 -4.436292 0 112 8 0
2022-05-22 22:33:35 GMT 55.867287 -4.436292 0 109 8 0
2022-05-22 22:33:33 GMT 55.867317 -4.436352 0 98 8 0
2022-05-22 22:33:31 GMT 55.867374 -4.436674 0 84 9 0
2022-05-22 22:33:28 GMT 55.867374 -4.436674 0 84 9 0
2022-05-22 22:33:26 GMT 55.867386 -4.436803 0 75 10 0
2022-05-22 22:33:25 GMT 55.867367 -4.436958 0 73 10 0
2022-05-22 22:33:23 GMT 55.867363 -4.437039 0 67 11 0
2022-05-22 22:33:21 GMT 55.867332 -4.437207 0 67 11 0
2022-05-22 22:33:20 GMT 55.867317 -4.437318 0 61 12 0
2022-05-22 22:33:19 GMT 55.867306 -4.437361 0 61 12 0
2022-05-22 22:33:17 GMT 55.867271 -4.437532 0 56 12 0
2022-05-22 22:33:15 GMT 55.867172 -4.437790 0 47 13 0
2022-05-22 22:33:12 GMT 55.867119 -4.437897 0 47 13 0
2022-05-22 22:33:11 GMT 55.867058 -4.437998 0 45 13 0
2022-05-22 22:33:10 GMT 55.867027 -4.438069 0 45 14 0
2022-05-22 22:33:09 GMT 55.866982 -4.438155 0 45 14 0
2022-05-22 22:33:08 GMT 55.866943 -4.438198 0 45 15 0
2022-05-22 22:33:07 GMT 55.866795 -4.438497 0 45 14 0
2022-05-22 22:33:05 GMT 55.866795 -4.438497 0 45 14 0
2022-05-22 22:33:04 GMT 55.866772 -4.438541 0 45 14 0
2022-05-22 22:33:02 GMT 55.866653 -4.438734 0 47 14 0
2022-05-22 22:33:01 GMT 55.866611 -4.438809 0 47 13 0
2022-05-22 22:33:00 GMT 55.866589 -4.438872 0 47 13 0
2022-05-22 22:32:59 GMT 55.866505 -4.439034 0 50 13 0
2022-05-22 22:32:57 GMT 55.866455 -4.439099 0 50 13 0
2022-05-22 22:32:56 GMT 55.866421 -4.439163 0 53 13 0
2022-05-22 22:32:54 GMT 55.866341 -4.439313 0 61 12 0
2022-05-22 22:32:53 GMT 55.866306 -4.439399 0 64 12 0
2022-05-22 22:32:52 GMT 55.866245 -4.439579 0 73 11 0
2022-05-22 22:32:50 GMT 55.866222 -4.439642 0 75 11 0
2022-05-22 22:32:48 GMT 55.866177 -4.439914 0 87 11 0
2022-05-22 22:32:46 GMT 55.866177 -4.439996 0 87 11 0
2022-05-22 22:32:45 GMT 55.866177 -4.440100 0 87 11 0
2022-05-22 22:32:43 GMT 55.866165 -4.440266 0 90 11 0
2022-05-22 22:32:42 GMT 55.866165 -4.440349 0 90 11 0
2022-05-22 22:32:41 GMT 55.866165 -4.440429 0 90 11 0
2022-05-22 22:32:39 GMT 55.866165 -4.440620 0 90 11 0
2022-05-22 22:32:38 GMT 55.866165 -4.440687 0 90 10 0
2022-05-22 22:32:36 GMT 55.866165 -4.440880 0 90 10 0
2022-05-22 22:32:35 GMT 55.866165 -4.440973 0 90 10 0
2022-05-22 22:32:34 GMT 55.866165 -4.441051 0 90 10 0
2022-05-22 22:32:32 GMT 55.866165 -4.441223 0 92 10 0
2022-05-22 22:32:30 GMT 55.866165 -4.441348 0 92 10 0
2022-05-22 22:32:29 GMT 55.866165 -4.441431 0 95 10 0
2022-05-22 22:32:28 GMT 55.866165 -4.441494 0 98 10 0
2022-05-22 22:32:27 GMT 55.866165 -4.441577 0 98 10 0
2022-05-22 22:32:26 GMT 55.866177 -4.441803 0 104 10 0
2022-05-22 22:32:24 GMT 55.866177 -4.441803 0 106 10 0
2022-05-22 22:32:23 GMT 55.866177 -4.441888 0 109 10 0
2022-05-22 22:32:22 GMT 55.866188 -4.442039 0 120 10 0
2022-05-22 22:32:20 GMT 55.866188 -4.442097 0 123 10 0
2022-05-22 22:32:17 GMT 55.866245 -4.442326 0 140 10 0
2022-05-22 22:32:16 GMT 55.866302 -4.442451 0 151 10 0
2022-05-22 22:32:14 GMT 55.866341 -4.442511 0 157 10 0
2022-05-22 22:32:12 GMT 55.866371 -4.442555 0 163 10 0
2022-05-22 22:32:10 GMT 55.866467 -4.442661 0 177 11 0
2022-05-22 22:32:08 GMT 55.866585 -4.442725 0 191 10 0
2022-05-22 22:32:06 GMT 55.866634 -4.442721 0 196 10 0
2022-05-22 22:32:05 GMT 55.866699 -4.442725 0 202 10 0
2022-05-22 22:32:03 GMT 55.866760 -4.442704 0 210 10 0
2022-05-22 22:32:02 GMT 55.866817 -4.442659 0 213 10 0
2022-05-22 22:32:00 GMT 55.866898 -4.442596 0 219 11 0
2022-05-22 22:31:59 GMT 55.866932 -4.442554 0 222 11 0
2022-05-22 22:31:58 GMT 55.866966 -4.442513 0 222 11 0
2022-05-22 22:31:56 GMT 55.867039 -4.442403 0 225 11 0
2022-05-22 22:31:55 GMT 55.867081 -4.442347 0 225 12 0
2022-05-22 22:31:54 GMT 55.867149 -4.442222 0 225 13 0
2022-05-22 22:31:52 GMT 55.867188 -4.442146 0 225 13 0
2022-05-22 22:31:51 GMT 55.867271 -4.441996 0 225 14 0
2022-05-22 22:31:49 GMT 55.867306 -4.441931 0 225 15 0
2022-05-22 22:31:48 GMT 55.867352 -4.441845 0 225 15 0
2022-05-22 22:31:47 GMT 55.867390 -4.441764 0 227 15 0
2022-05-22 22:31:45 GMT 55.867481 -4.441598 0 227 15 0
2022-05-22 22:31:44 GMT 55.867527 -4.441514 0 227 15 0
2022-05-22 22:31:41 GMT 55.867657 -4.441266 0 225 14 0
2022-05-22 22:31:40 GMT 55.867722 -4.441140 0 225 14 0
2022-05-22 22:31:39 GMT 55.867813 -4.440994 0 225 13 0
2022-05-22 22:31:37 GMT 55.867828 -4.440944 0 227 13 0
2022-05-22 22:31:36 GMT 55.867935 -4.440751 0 227 11 0
2022-05-22 22:31:33 GMT 55.868004 -4.440622 0 227 11 0
2022-05-22 22:31:32 GMT 55.868065 -4.440495 0 227 11 0
2022-05-22 22:31:30 GMT 55.868134 -4.440370 0 227 10 0
2022-05-22 22:31:28 GMT 55.868259 -4.440141 0 225 8 0
2022-05-22 22:31:26 GMT 55.868259 -4.440141 0 225 8 0
2022-05-22 22:31:24 GMT 55.868317 -4.440037 0 225 8 0
2022-05-22 22:31:23 GMT 55.868340 -4.439996 0 225 7 0
2022-05-22 22:31:21 GMT 55.868366 -4.439936 0 225 7 0
2022-05-22 22:31:20 GMT 55.868420 -4.439850 0 225 6 0
2022-05-22 22:31:18 GMT 55.868431 -4.439808 0 225 6 0
2022-05-22 22:31:16 GMT 55.868465 -4.439746 0 225 5 0
2022-05-22 22:31:12 GMT 55.868565 -4.439571 0 225 0 0
2022-05-22 22:31:07 GMT 55.868565 -4.439571 0 225 0 0
2022-05-22 22:31:02 GMT 55.868568 -4.439559 0 225 0 0
2022-05-22 22:30:52 GMT 55.868565 -4.439571 0 225 0 0
2022-05-22 22:30:47 GMT 55.868568 -4.439559 0 225 0 0
2022-05-22 22:30:42 GMT 55.868565 -4.439571 0 225 0 0
2022-05-22 22:30:07 GMT 55.868568 -4.439559 0 225 0 0
2022-05-22 22:30:02 GMT 55.868568 -4.439559 0 225 0 0
2022-05-22 22:29:57 GMT 55.868568 -4.439559 0 225 0 0
2022-05-22 22:29:52 GMT 55.868565 -4.439571 0 225 0 0
2022-05-22 22:29:47 GMT 55.868568 -4.439559 0 225 0 0
2022-05-22 22:29:32 GMT 55.868565 -4.439571 0 225 0 0
2022-05-22 22:29:27 GMT 55.868565 -4.439571 0 225 0 0
2022-05-22 22:29:22 GMT 55.868568 -4.439559 0 225 0 0
2022-05-22 22:29:17 GMT 55.868568 -4.439559 0 225 0 0
2022-05-22 22:29:12 GMT 55.868568 -4.439559 0 225 0 0
2022-05-22 22:29:02 GMT 55.868568 -4.439559 0 225 0 0
2022-05-22 22:28:52 GMT 55.868565 -4.439571 0 225 0 0
2022-05-22 22:28:32 GMT 55.868568 -4.439579 0 225 0 0
2022-05-22 22:28:27 GMT 55.868565 -4.439571 0 225 0 0
2022-05-22 22:28:22 GMT 55.868568 -4.439579 0 225 0 0
2022-05-22 22:28:17 GMT 55.868565 -4.439571 0 225 0 0
2022-05-22 22:28:02 GMT 55.868568 -4.439559 0 225 0 0
2022-05-22 22:27:52 GMT 55.868565 -4.439571 0 225 0 0
2022-05-22 22:27:47 GMT 55.868568 -4.439559 0 225 0 0
2022-05-22 22:27:27 GMT 55.868565 -4.439571 0 225 0 0
2022-05-22 22:27:22 GMT 55.868568 -4.439559 0 225 0 0
2022-05-22 22:27:17 GMT 55.868565 -4.439571 0 225 0 0
2022-05-22 22:27:07 GMT 55.868568 -4.439559 0 225 0 0
2022-05-22 22:26:42 GMT 55.868565 -4.439571 0 225 0 0
2022-05-22 22:26:27 GMT 55.868565 -4.439571 0 225 0 0
2022-05-22 22:26:22 GMT 55.868565 -4.439571 0 225 0 0
2022-05-22 22:26:17 GMT 55.868565 -4.439571 0 225 0 0
2022-05-22 22:26:12 GMT 55.868565 -4.439571 0 225 0 0
2022-05-22 22:26:06 GMT 55.868568 -4.439579 0 225 0 0
2022-05-22 22:25:56 GMT 55.868565 -4.439571 0 225 0 0
2022-05-22 22:25:37 GMT 55.868568 -4.439579 0 225 0 0
2022-05-22 22:25:32 GMT 55.868565 -4.439571 0 225 0 0
2022-05-22 22:25:27 GMT 55.868568 -4.439579 0 225 0 0
2022-05-22 22:25:22 GMT 55.868565 -4.439571 0 225 0 0
2022-05-22 22:25:17 GMT 55.868565 -4.439571 0 225 0 0
2022-05-22 22:25:12 GMT 55.868565 -4.439571 0 225 0 0
2022-05-22 22:25:02 GMT 55.868568 -4.439579 0 225 0 0
2022-05-22 22:24:57 GMT 55.868565 -4.439571 0 225 0 0
2022-05-22 22:24:47 GMT 55.868568 -4.439579 0 225 0 0
2022-05-22 22:24:41 GMT 55.868565 -4.439571 0 225 0 0
2022-05-22 22:24:28 GMT 55.868568 -4.439559 0 225 0 0
2022-05-22 22:24:26 GMT 55.868568 -4.439559 0 225 0 0
2022-05-22 22:24:25 GMT 55.868568 -4.439559 0 225 0 0
2022-05-22 22:24:23 GMT 55.868565 -4.439571 0 225 0 0
2022-05-22 22:24:21 GMT 55.868568 -4.439559 0 225 0 0
2022-05-22 22:24:17 GMT 55.868565 -4.439571 0 225 0 0
2022-05-22 22:24:14 GMT 55.868568 -4.439559 0 225 0 0
2022-05-22 22:24:11 GMT 55.868565 -4.439571 0 225 0 0
2022-05-22 22:24:08 GMT 55.868568 -4.439559 0 225 0 0
2022-05-22 22:24:06 GMT 55.868565 -4.439571 0 225 2 0
2022-05-22 22:24:04 GMT 55.868557 -4.439579 0 225 6 0
2022-05-22 22:24:03 GMT 55.868549 -4.439614 0 225 14 0
2022-05-22 22:24:02 GMT 55.868587 -4.439528 0 227 17 0
2022-05-22 22:24:00 GMT 55.868633 -4.439464 0 227 21 0
2022-05-22 22:23:59 GMT 55.868679 -4.439356 0 225 28 0
2022-05-22 22:23:57 GMT 55.868820 -4.439099 0 225 32 0
2022-05-22 22:23:56 GMT 55.868912 -4.438934 0 225 35 0
2022-05-22 22:23:55 GMT 55.869003 -4.438756 0 225 42 0
2022-05-22 22:23:54 GMT 55.869221 -4.438352 0 225 46 0
2022-05-22 22:23:52 GMT 55.869370 -4.438081 0 225 51 0
2022-05-22 22:23:51 GMT 55.869667 -4.437519 0 227 61 0
2022-05-22 22:23:49 GMT 55.869843 -4.437189 0 227 67 0
2022-05-22 22:23:48 GMT 55.870010 -4.436874 0 227 78 0
2022-05-22 22:23:46 GMT 55.870461 -4.436030 0 227 88 0
2022-05-22 22:23:45 GMT 55.870686 -4.435605 0 227 98 0
2022-05-22 22:23:43 GMT 55.871624 -4.433842 325 228 108 -64
2022-05-22 22:23:41 GMT 55.871979 -4.433233 325 227 113 -64
2022-05-22 22:23:40 GMT 55.872345 -4.432567 325 227 119 -64
2022-05-22 22:23:38 GMT 55.873032 -4.431236 325 227 128 -64
2022-05-22 22:23:36 GMT 55.873627 -4.430070 325 227 130 -64
2022-05-22 22:23:35 GMT 55.874184 -4.429035 325 227 133 -192
2022-05-22 22:23:34 GMT 55.874634 -4.428156 300 227 135 -128
2022-05-22 22:23:33 GMT 55.875023 -4.427404 300 227 135 -192
2022-05-22 22:23:30 GMT 55.876099 -4.425493 325 227 137 -192
2022-05-22 22:23:29 GMT 55.876789 -4.424229 325 227 137 -384
2022-05-22 22:23:27 GMT 55.877628 -4.422684 350 227 136 -640
2022-05-22 22:23:24 GMT 55.878983 -4.420083 400 227 136 -768
2022-05-22 22:23:22 GMT 55.879864 -4.418392 425 227 135 -704
2022-05-22 22:23:21 GMT 55.880749 -4.416761 450 227 135 -704
2022-05-22 22:23:19 GMT 55.881168 -4.415989 450 227 135 -704
2022-05-22 22:23:18 GMT 55.881538 -4.415216 475 227 135 -704
2022-05-22 22:23:15 GMT 55.882919 -4.412592 500 227 134 -704
2022-05-22 22:23:13 GMT 55.883606 -4.411344 525 226 133 -704
2022-05-22 22:23:12 GMT 55.884239 -4.410238 550 226 132 -704
2022-05-22 22:23:10 GMT 55.885757 -4.407432 575 227 131 -704
2022-05-22 22:23:08 GMT 55.885757 -4.407432 575 227 131 -704
2022-05-22 22:23:07 GMT 55.886379 -4.406290 600 227 130 -704
2022-05-22 22:23:06 GMT 55.886765 -4.405518 625 227 129 -704
2022-05-22 22:23:05 GMT 55.887543 -4.404058 625 227 129 -640
2022-05-22 22:23:03 GMT 55.887962 -4.403286 650 227 129 -640
2022-05-22 22:23:02 GMT 55.888412 -4.402438 650 227 128 -576
2022-05-22 22:23:01 GMT 55.889282 -4.400857 675 226 128 -640
2022-05-22 22:22:59 GMT 55.889500 -4.400368 675 227 127 -704
2022-05-22 22:22:58 GMT 55.890057 -4.399338 700 227 127 -704
2022-05-22 22:22:56 GMT 55.890884 -4.397860 725 227 127 -768
2022-05-22 22:22:55 GMT 55.891296 -4.397111 725 227 127 -768
2022-05-22 22:22:54 GMT 55.891685 -4.396334 750 227 127 -768
2022-05-22 22:22:52 GMT 55.892433 -4.394960 775 227 127 -768
2022-05-22 22:22:50 GMT 55.893036 -4.393845 775 227 127 -704
2022-05-22 22:22:49 GMT 55.893456 -4.393072 800 227 128 -704
2022-05-22 22:22:48 GMT 55.894249 -4.391527 825 227 128 -704
2022-05-22 22:22:46 GMT 55.894684 -4.390703 850 227 128 -704
2022-05-22 22:22:45 GMT 55.895599 -4.389038 850 227 128 -704
2022-05-22 22:22:43 GMT 55.896015 -4.388266 875 227 128 -704
2022-05-22 22:22:42 GMT 55.896332 -4.387623 875 227 128 -704
2022-05-22 22:22:41 GMT 55.897133 -4.386120 900 227 128 -768
2022-05-22 22:22:39 GMT 55.897568 -4.385293 925 227 128 -768
2022-05-22 22:22:38 GMT 55.898026 -4.384460 925 227 128 -704
2022-05-22 22:22:36 GMT 55.898811 -4.383030 950 227 128 -704
2022-05-22 22:22:35 GMT 55.899628 -4.381464 975 227 128 -640
2022-05-22 22:22:29 GMT 55.901649 -4.377623 1,025 227 129 -704
2022-05-22 22:22:27 GMT 55.902439 -4.376163 1,050 227 128 -704
2022-05-22 22:22:25 GMT 55.903244 -4.374639 1,075 227 128 -704
2022-05-22 22:22:24 GMT 55.903702 -4.373807 1,100 227 128 -704
2022-05-22 22:22:23 GMT 55.904118 -4.372988 1,100 227 128 -704
2022-05-22 22:22:22 GMT 55.904537 -4.372301 1,125 227 128 -640
2022-05-22 22:22:20 GMT 55.905327 -4.370756 1,150 227 128 -640
2022-05-22 22:22:19 GMT 55.906677 -4.368181 1,175 227 128 -640
2022-05-22 22:22:17 GMT 55.906677 -4.368181 1,175 227 127 -640
2022-05-22 22:22:16 GMT 55.907516 -4.366636 1,200 227 127 -704
2022-05-22 22:22:14 GMT 55.907982 -4.365864 1,200 227 126 -704
2022-05-22 22:22:11 GMT 55.908772 -4.364319 1,225 227 125 -640
2022-05-22 22:22:09 GMT 55.909561 -4.362821 1,275 227 125 -704
2022-05-22 22:22:08 GMT 55.909935 -4.362173 1,275 227 125 -640
2022-05-22 22:22:07 GMT 55.910339 -4.361323 1,300 227 125 -704
2022-05-22 22:22:05 GMT 55.911392 -4.359408 1,300 227 125 -704
2022-05-22 22:22:03 GMT 55.912357 -4.357624 1,325 227 125 -768
2022-05-22 22:22:02 GMT 55.912727 -4.356852 1,350 227 125 -768
2022-05-22 22:22:01 GMT 55.913147 -4.356165 1,350 227 125 -768
2022-05-22 22:21:59 GMT 55.914310 -4.353933 1,400 227 125 -704
2022-05-22 22:21:58 GMT 55.914310 -4.353933 1,400 227 125 -640
2022-05-22 22:21:56 GMT 55.914871 -4.352916 1,400 227 125 -576
2022-05-22 22:21:54 GMT 55.915787 -4.351169 1,425 227 126 -576
2022-05-22 22:21:52 GMT 55.916824 -4.349213 1,450 227 125 -640
2022-05-22 22:21:50 GMT 55.917206 -4.348505 1,475 227 124 -704
2022-05-22 22:21:48 GMT 55.918175 -4.346638 1,525 227 124 -704
2022-05-22 22:21:45 GMT 55.919037 -4.345093 1,525 227 123 -768
2022-05-22 22:21:44 GMT 55.919434 -4.344320 1,550 227 124 -704
2022-05-22 22:21:43 GMT 55.921204 -4.340973 1,575 227 124 -704
2022-05-22 22:21:40 GMT 55.921204 -4.340973 1,575 226 123 -640
2022-05-22 22:21:39 GMT 55.921619 -4.340200 1,600 226 123 -640
2022-05-22 22:21:38 GMT 55.921993 -4.339514 1,600 226 123 -640
2022-05-22 22:21:37 GMT 55.922928 -4.337769 1,625 226 123 -640
2022-05-22 22:21:34 GMT 55.923389 -4.336939 1,650 226 123 -640
2022-05-22 22:21:33 GMT 55.923981 -4.335854 1,650 226 123 -640
2022-05-22 22:21:32 GMT 55.924393 -4.335105 1,675 227 123 -640
2022-05-22 22:21:31 GMT 55.924831 -4.334278 1,675 227 123 -640
2022-05-22 22:21:30 GMT 55.925995 -4.332132 1,700 227 123 -640
2022-05-22 22:21:28 GMT 55.925995 -4.332132 1,725 227 123 -640
2022-05-22 22:21:27 GMT 55.926315 -4.331443 1,725 227 123 -640
2022-05-22 22:21:25 GMT 55.927067 -4.330072 1,750 227 123 -640
2022-05-22 22:21:24 GMT 55.927505 -4.329279 1,750 226 123 -640
2022-05-22 22:21:23 GMT 55.928238 -4.327864 1,775 227 123 -704
2022-05-22 22:21:21 GMT 55.928650 -4.327115 1,800 227 123 -704
2022-05-22 22:21:19 GMT 55.929428 -4.325700 1,825 227 122 -704
2022-05-22 22:21:17 GMT 55.930389 -4.323869 1,850 227 123 -640
2022-05-22 22:21:15 GMT 55.931301 -4.322176 1,875 227 123 -640
2022-05-22 22:21:14 GMT 55.931671 -4.321456 1,875 228 123 -640
2022-05-22 22:21:12 GMT 55.932423 -4.320030 1,900 227 124 -640
2022-05-22 22:21:11 GMT 55.932793 -4.319258 1,900 227 124 -640
2022-05-22 22:21:09 GMT 55.933582 -4.317799 1,925 227 125 -640
2022-05-22 22:21:08 GMT 55.933956 -4.317026 1,925 227 125 -704
2022-05-22 22:21:07 GMT 55.934418 -4.316212 1,950 227 126 -704
2022-05-22 22:21:05 GMT 55.935261 -4.314623 1,975 227 128 -704
2022-05-22 22:21:03 GMT 55.936478 -4.312300 2,000 227 129 -768
2022-05-22 22:21:01 GMT 55.936844 -4.311619 2,025 227 130 -704
2022-05-22 22:21:00 GMT 55.937302 -4.310802 2,025 227 130 -768
2022-05-22 22:20:58 GMT 55.938080 -4.309304 2,050 227 131 -768
2022-05-22 22:20:57 GMT 55.938473 -4.308615 2,075 227 132 -768
2022-05-22 22:20:56 GMT 55.938858 -4.307806 2,075 227 133 -832
2022-05-22 22:20:55 GMT 55.939777 -4.306126 2,125 227 135 -832
2022-05-22 22:20:53 GMT 55.940186 -4.305392 2,125 227 135 -832
2022-05-22 22:20:52 GMT 55.940643 -4.304477 2,150 227 137 -832
2022-05-22 22:20:51 GMT 55.941498 -4.302950 2,175 228 139 -768
2022-05-22 22:20:49 GMT 55.941872 -4.302177 2,175 228 140 -704
2022-05-22 22:20:47 GMT 55.942802 -4.300461 2,200 227 143 -640
2022-05-22 22:20:46 GMT 55.943253 -4.299566 2,225 227 143 -576
2022-05-22 22:20:45 GMT 55.944057 -4.298058 2,225 227 144 -640
2022-05-22 22:20:42 GMT 55.945221 -4.295826 2,275 227 144 -640
2022-05-22 22:20:40 GMT 55.945641 -4.294968 2,275 227 144 -704
2022-05-22 22:20:38 GMT 55.946617 -4.293165 2,300 227 144 -768
2022-05-22 22:20:36 GMT 55.947876 -4.290827 2,325 227 143 -768
2022-05-22 22:20:34 GMT 55.948483 -4.289646 2,350 227 142 -768
2022-05-22 22:20:33 GMT 55.949368 -4.288015 2,375 227 143 -768
2022-05-22 22:20:31 GMT 55.949844 -4.287082 2,400 227 143 -768
2022-05-22 22:20:29 GMT 55.950764 -4.285355 2,425 227 143 -768
2022-05-22 22:20:28 GMT 55.951218 -4.284502 2,425 227 143 -768
2022-05-22 22:20:26 GMT 55.952160 -4.282694 2,450 227 145 -768
2022-05-22 22:20:24 GMT 55.953369 -4.280506 2,500 227 145 -832
2022-05-22 22:20:21 GMT 55.954468 -4.278426 2,525 227 145 -896
2022-05-22 22:20:18 GMT 55.956024 -4.275513 2,575 227 145 -768
2022-05-22 22:20:17 GMT 55.956482 -4.274680 2,575 227 145 -768
2022-05-22 22:20:16 GMT 55.956940 -4.273765 2,600 227 143 -768
2022-05-22 22:20:15 GMT 55.957886 -4.272051 2,625 227 143 -768
2022-05-22 22:20:13 GMT 55.958313 -4.271185 2,625 227 143 -768
2022-05-22 22:20:11 GMT 55.959236 -4.269562 2,650 227 143 -768
2022-05-22 22:20:10 GMT 55.959656 -4.268789 2,675 227 143 -768
2022-05-22 22:20:08 GMT 55.960537 -4.267073 2,700 227 142 -768
2022-05-22 22:20:07 GMT 55.961014 -4.266191 2,700 227 142 -768
2022-05-22 22:20:06 GMT 55.961517 -4.265270 2,725 227 142 -768
2022-05-22 22:20:04 GMT 55.962433 -4.263528 2,750 227 142 -768
2022-05-22 22:20:03 GMT 55.962868 -4.262695 2,750 227 141 -768
2022-05-22 22:20:01 GMT 55.963516 -4.261494 2,775 227 141 -768
2022-05-22 22:20:00 GMT 55.964451 -4.259777 2,800 227 141 -768
2022-05-22 22:19:58 GMT 55.964859 -4.258950 2,800 227 140 -768
2022-05-22 22:19:57 GMT 55.965363 -4.258034 2,825 227 140 -768
2022-05-22 22:19:56 GMT 55.966263 -4.256430 2,850 227 140 -704
2022-05-22 22:19:54 GMT 55.966690 -4.255621 2,875 227 140 -768
2022-05-22 22:19:53 GMT 55.967056 -4.254885 2,875 227 140 -768
2022-05-22 22:19:51 GMT 55.967941 -4.253254 2,900 227 140 -768
2022-05-22 22:19:50 GMT 55.968430 -4.252375 2,925 227 139 -768
2022-05-22 22:19:48 GMT 55.969437 -4.250461 2,950 227 139 -768
2022-05-22 22:19:47 GMT 55.969894 -4.249628 2,950 227 139 -768
2022-05-22 22:19:46 GMT 55.970764 -4.247964 2,975 227 140 -768
2022-05-22 22:19:44 GMT 55.971176 -4.247215 3,000 227 140 -768
2022-05-22 22:19:42 GMT 55.972038 -4.245529 3,025 227 140 -768
2022-05-22 22:19:41 GMT 55.972458 -4.244801 3,025 227 140 -768
2022-05-22 22:19:40 GMT 55.972961 -4.243885 3,050 227 140 -768
2022-05-22 22:19:38 GMT 55.973900 -4.242010 3,075 227 140 -768
2022-05-22 22:19:37 GMT 55.974319 -4.241238 3,075 227 140 -768
2022-05-22 22:19:34 GMT 55.975479 -4.239058 3,125 228 140 -768
2022-05-22 22:19:33 GMT 55.977016 -4.236174 3,150 227 141 -768
2022-05-22 22:19:31 GMT 55.977016 -4.236174 3,150 227 141 -768
2022-05-22 22:19:29 GMT 55.978321 -4.233685 3,200 227 142 -832
2022-05-22 22:19:27 GMT 55.978821 -4.232733 3,225 227 142 -832
2022-05-22 22:19:25 GMT 55.979717 -4.231024 3,250 227 143 -896
2022-05-22 22:19:24 GMT 55.980183 -4.230080 3,250 227 143 -896
2022-05-22 22:19:22 GMT 55.981068 -4.228449 3,300 227 144 -896
2022-05-22 22:19:21 GMT 55.981579 -4.227505 3,300 227 145 -896
2022-05-22 22:19:20 GMT 55.982391 -4.225908 3,325 227 145 -896
2022-05-22 22:19:18 GMT 55.982883 -4.225016 3,350 227 145 -896
2022-05-22 22:19:17 GMT 55.983307 -4.224160 3,375 227 145 -896
2022-05-22 22:19:16 GMT 55.984222 -4.222412 3,400 227 146 -896
2022-05-22 22:19:13 GMT 55.985184 -4.220664 3,425 227 147 -896
2022-05-22 22:19:12 GMT 55.985630 -4.219866 3,425 227 147 -832
2022-05-22 22:19:11 GMT 55.986053 -4.219000 3,450 227 147 -832
2022-05-22 22:19:09 GMT 55.987026 -4.217205 3,475 227 149 -896
2022-05-22 22:19:08 GMT 55.987537 -4.216175 3,500 227 149 -896
2022-05-22 22:19:06 GMT 55.988518 -4.214373 3,525 227 149 -832
2022-05-22 22:19:05 GMT 55.988983 -4.213428 3,550 227 150 -832
2022-05-22 22:19:04 GMT 55.989899 -4.211675 3,575 227 152 -832
2022-05-22 22:19:02 GMT 55.990356 -4.210843 3,575 227 152 -832
2022-05-22 22:19:01 GMT 55.990845 -4.209909 3,600 227 152 -832
2022-05-22 22:18:59 GMT 55.991913 -4.207935 3,625 227 153 -896
2022-05-22 22:18:58 GMT 55.992378 -4.206991 3,625 228 154 -896
2022-05-22 22:18:57 GMT 55.992661 -4.206476 3,650 228 154 -832
2022-05-22 22:18:54 GMT 55.994102 -4.203644 3,675 228 156 -640
2022-05-22 22:18:52 GMT 55.995079 -4.201756 3,700 228 158 -512
2022-05-22 22:18:51 GMT 55.995621 -4.200772 3,725 228 159 -512
2022-05-22 22:18:50 GMT 55.996243 -4.199524 3,725 228 160 -512
2022-05-22 22:18:49 GMT 55.997726 -4.196694 3,750 228 161 -576
2022-05-22 22:18:47 GMT 55.997726 -4.196694 3,750 227 162 -512
2022-05-22 22:18:46 GMT 55.998245 -4.195662 3,775 227 163 -512
2022-05-22 22:18:43 GMT 56.000153 -4.192033 3,800 227 167 -320
2022-05-22 22:18:41 GMT 56.000839 -4.190785 3,800 227 169 -256
2022-05-22 22:18:40 GMT 56.001389 -4.189703 3,800 227 170 -128
2022-05-22 22:18:38 GMT 56.002251 -4.188108 3,800 227 173 64
2022-05-22 22:18:37 GMT 56.002945 -4.186790 3,800 227 174 128
2022-05-22 22:18:35 GMT 56.003952 -4.184959 3,800 227 177 64
2022-05-22 22:18:34 GMT 56.004578 -4.183731 3,800 227 178 128
2022-05-22 22:18:33 GMT 56.005096 -4.182712 3,800 227 180 128
2022-05-22 22:18:31 GMT 56.006252 -4.180555 3,800 227 183 64
2022-05-22 22:18:30 GMT 56.006905 -4.179354 3,800 227 183 0
2022-05-22 22:18:29 GMT 56.007889 -4.177551 3,800 227 186 -256
2022-05-22 22:18:27 GMT 56.008438 -4.176469 3,800 227 186 -384
2022-05-22 22:18:26 GMT 56.009262 -4.174888 3,800 227 186 -320
2022-05-22 22:18:24 GMT 56.010452 -4.172641 3,825 226 186 -192
2022-05-22 22:18:23 GMT 56.011093 -4.171543 3,825 226 187 -64
2022-05-22 22:18:22 GMT 56.012302 -4.169312 3,825 226 187 -64
2022-05-22 22:18:19 GMT 56.012924 -4.168146 3,825 226 187 -64
2022-05-22 22:18:17 GMT 56.014492 -4.165363 3,825 226 187 -64
2022-05-22 22:18:16 GMT 56.015717 -4.163069 3,825 226 186 -64
2022-05-22 22:18:14 GMT 56.016312 -4.161987 3,825 226 186 -64
2022-05-22 22:18:13 GMT 56.017147 -4.160471 3,825 227 187 -128
2022-05-22 22:18:12 GMT 56.018234 -4.158408 3,825 227 186 -128
2022-05-22 22:18:10 GMT 56.018829 -4.157326 3,825 227 186 -64
2022-05-22 22:18:09 GMT 56.019474 -4.156179 3,825 227 187 -64
2022-05-22 22:18:08 GMT 56.021240 -4.152746 3,825 227 187 -128
2022-05-22 22:18:06 GMT 56.021240 -4.152746 3,850 227 187 -192
2022-05-22 22:18:05 GMT 56.022491 -4.150502 3,850 227 188 -256
2022-05-22 22:18:03 GMT 56.022964 -4.149570 3,850 227 188 -320
2022-05-22 22:18:02 GMT 56.023521 -4.148540 3,850 227 188 -384
2022-05-22 22:18:00 GMT 56.024734 -4.146309 3,875 227 188 -448
2022-05-22 22:17:59 GMT 56.025375 -4.145092 3,875 227 188 -448
2022-05-22 22:17:58 GMT 56.026611 -4.142761 3,900 227 188 -512
2022-05-22 22:17:56 GMT 56.027206 -4.141596 3,900 227 187 -512
2022-05-22 22:17:55 GMT 56.027802 -4.140514 3,900 228 188 -512
2022-05-22 22:17:54 GMT 56.028946 -4.138350 3,925 228 188 -512
2022-05-22 22:17:51 GMT 56.030136 -4.136103 3,950 228 188 -512
2022-05-22 22:17:50 GMT 56.030777 -4.134854 3,950 229 188 -512
2022-05-22 22:17:49 GMT 56.031345 -4.133692 3,950 229 188 -512
2022-05-22 22:17:48 GMT 56.032471 -4.131442 3,975 229 188 -512
2022-05-22 22:17:46 GMT 56.033020 -4.130277 3,975 230 187 -576
2022-05-22 22:17:45 GMT 56.033615 -4.129112 4,000 230 187 -512
2022-05-22 22:17:44 GMT 56.034714 -4.126948 4,000 230 187 -512
2022-05-22 22:17:42 GMT 56.035263 -4.125782 4,025 230 187 -512
2022-05-22 22:17:41 GMT 56.036091 -4.123993 4,025 230 187 -512
2022-05-22 22:17:39 GMT 56.037163 -4.121761 4,050 230 187 -512
2022-05-22 22:17:38 GMT 56.037689 -4.120705 4,050 230 187 -512
2022-05-22 22:17:36 GMT 56.038834 -4.118292 4,075 230 187 -512
2022-05-22 22:17:35 GMT 56.039352 -4.117212 4,075 230 187 -512
2022-05-22 22:17:34 GMT 56.040482 -4.114879 4,100 230 188 -512
2022-05-22 22:17:32 GMT 56.041073 -4.113607 4,100 230 188 -512
2022-05-22 22:17:30 GMT 56.042236 -4.111118 4,125 231 187 -512
2022-05-22 22:17:29 GMT 56.042843 -4.109831 4,125 231 186 -512
2022-05-22 22:17:28 GMT 56.043365 -4.108720 4,150 231 186 -512
2022-05-22 22:17:25 GMT 56.045013 -4.105141 4,175 232 186 -512
2022-05-22 22:17:23 GMT 56.046112 -4.102728 4,200 232 185 -512
2022-05-22 22:17:22 GMT 56.046661 -4.101505 4,200 233 185 -512
2022-05-22 22:17:21 GMT 56.047173 -4.100389 4,200 233 185 -512
2022-05-22 22:17:19 GMT 56.048218 -4.097900 4,225 234 185 -512
2022-05-22 22:17:18 GMT 56.048767 -4.096735 4,225 234 184 -448
2022-05-22 22:17:16 GMT 56.049820 -4.094155 4,250 235 184 -512
2022-05-22 22:17:14 GMT 56.050552 -4.092407 4,250 235 184 -512
2022-05-22 22:17:13 GMT 56.051102 -4.091076 4,275 235 183 -448
2022-05-22 22:17:12 GMT 56.051548 -4.089918 4,275 236 183 -448
2022-05-22 22:17:11 GMT 56.052013 -4.088802 4,300 236 183 -512
2022-05-22 22:17:10 GMT 56.052933 -4.086331 4,300 237 183 -512
2022-05-22 22:17:07 GMT 56.054108 -4.083309 4,325 238 182 -512
2022-05-22 22:17:06 GMT 56.055038 -4.080672 4,350 240 182 -512
2022-05-22 22:17:03 GMT 56.056389 -4.076700 4,375 242 181 -512
2022-05-22 22:17:01 GMT 56.056808 -4.075413 4,375 242 181 -512
2022-05-22 22:16:59 GMT 56.057648 -4.072666 4,400 244 181 -448
2022-05-22 22:16:58 GMT 56.058014 -4.071433 4,400 245 181 -448
2022-05-22 22:16:56 GMT 56.059479 -4.065940 4,425 250 181 -448
2022-05-22 22:16:54 GMT 56.059479 -4.065940 4,425 252 182 -448
2022-05-22 22:16:52 GMT 56.060394 -4.061337 4,450 259 183 -512
2022-05-22 22:16:49 GMT 56.060715 -4.059199 4,475 265 183 -576
2022-05-22 22:16:47 GMT 56.060989 -4.056202 4,475 270 187 -576
2022-05-22 22:16:46 GMT 56.061081 -4.054454 4,500 271 188 -576
2022-05-22 22:16:42 GMT 56.061127 -4.048462 4,525 272 190 -512
2022-05-22 22:16:41 GMT 56.061127 -4.047047 4,550 272 190 -512
2022-05-22 22:16:39 GMT 56.061035 -4.040638 4,575 273 191 -448
2022-05-22 22:16:36 GMT 56.061035 -4.039806 4,575 273 191 -448
2022-05-22 22:16:35 GMT 56.060951 -4.035759 4,600 274 192 -384
2022-05-22 22:16:34 GMT 56.060951 -4.035759 4,600 275 192 -384
2022-05-22 22:16:33 GMT 56.060860 -4.033613 4,600 276 193 -384
2022-05-22 22:16:30 GMT 56.060719 -4.029408 4,625 279 196 -448
2022-05-22 22:16:27 GMT 56.060345 -4.024086 4,650 285 200 -448
2022-05-22 22:16:26 GMT 56.059982 -4.020913 4,650 289 203 -512
2022-05-22 22:16:24 GMT 56.059708 -4.019331 4,675 292 205 -512
2022-05-22 22:16:22 GMT 56.059067 -4.015753 4,675 294 206 -512
2022-05-22 22:16:21 GMT 56.058903 -4.014902 4,700 299 209 -512
2022-05-22 22:16:20 GMT 56.058437 -4.013186 4,700 301 211 -512
2022-05-22 22:16:19 GMT 56.057831 -4.011092 4,725 303 213 -512
2022-05-22 22:16:17 GMT 56.056915 -4.008179 4,725 307 216 -512
2022-05-22 22:16:16 GMT 56.056320 -4.006514 4,725 310 218 -512
2022-05-22 22:16:14 GMT 56.054760 -4.002800 4,750 314 222 -512
2022-05-22 22:16:13 GMT 56.054760 -4.002800 4,750 316 224 -512
2022-05-22 22:16:12 GMT 56.054077 -4.001354 4,775 318 225 -512
2022-05-22 22:16:11 GMT 56.051781 -3.997393 4,775 322 228 -448
2022-05-22 22:16:09 GMT 56.051781 -3.997393 4,800 324 230 -512
2022-05-22 22:16:08 GMT 56.050987 -3.996191 4,800 327 232 -512
2022-05-22 22:16:06 GMT 56.049267 -3.993874 4,825 331 235 -576
2022-05-22 22:16:05 GMT 56.048035 -3.992448 4,825 333 237 -576
2022-05-22 22:16:03 GMT 56.046333 -3.990612 4,850 339 241 -640
2022-05-22 22:16:02 GMT 56.044189 -3.988786 4,875 341 243 -640
2022-05-22 22:15:59 GMT 56.042702 -3.987522 4,925 343 244 -640
2022-05-22 22:15:56 GMT 56.039429 -3.985623 4,925 350 251 -704
2022-05-22 22:15:54 GMT 56.037369 -3.984874 4,950 352 252 -704
2022-05-22 22:15:53 GMT 56.035080 -3.984125 4,950 355 254 -704
2022-05-22 22:15:51 GMT 56.033859 -3.983831 4,975 356 255 -704
2022-05-22 22:15:49 GMT 56.030228 -3.983316 5,025 0 258 -640
2022-05-22 22:15:47 GMT 56.029064 -3.983231 5,025 1 259 -576
2022-05-22 22:15:45 GMT 56.026245 -3.983293 5,050 2 259 -512
2022-05-22 22:15:42 GMT 56.022453 -3.983574 5,075 2 259 -512
2022-05-22 22:15:41 GMT 56.021347 -3.983709 5,075 2 259 -512
2022-05-22 22:15:40 GMT 56.019009 -3.983917 5,100 2 260 -512
2022-05-22 22:15:38 GMT 56.017937 -3.984003 5,100 2 260 -512
2022-05-22 22:15:35 GMT 56.015514 -3.984261 5,125 2 260 -512
2022-05-22 22:15:34 GMT 56.013233 -3.984432 5,125 2 260 -512
2022-05-22 22:15:33 GMT 56.012024 -3.984518 5,150 2 260 -512
2022-05-22 22:15:32 GMT 56.011002 -3.984625 5,150 2 260 -512
2022-05-22 22:15:31 GMT 56.008579 -3.984861 5,175 2 260 -448
2022-05-22 22:15:28 GMT 56.006161 -3.985033 5,175 2 260 -512
2022-05-22 22:15:27 GMT 56.005089 -3.985119 5,200 2 261 -512
2022-05-22 22:15:26 GMT 56.003952 -3.985207 5,200 2 261 -512
2022-05-22 22:15:24 GMT 56.001389 -3.985457 5,225 2 261 -512
2022-05-22 22:15:22 GMT 55.999466 -3.985623 5,225 3 261 -512
2022-05-22 22:15:20 GMT 55.996384 -3.985891 5,250 3 261 -512
2022-05-22 22:15:19 GMT 55.995220 -3.986063 5,250 3 261 -512
2022-05-22 22:15:17 GMT 55.992798 -3.986235 5,275 3 261 -576
2022-05-22 22:15:16 GMT 55.991589 -3.986406 5,300 3 261 -576
2022-05-22 22:15:15 GMT 55.990379 -3.986492 5,300 3 261 -512
2022-05-22 22:15:14 GMT 55.988098 -3.986750 5,325 3 261 -512
2022-05-22 22:15:12 GMT 55.986832 -3.986872 5,325 3 261 -512
2022-05-22 22:15:11 GMT 55.985641 -3.986955 5,325 3 261 -512
2022-05-22 22:15:09 GMT 55.983124 -3.987205 5,350 3 261 -512
2022-05-22 22:15:07 GMT 55.980698 -3.987455 5,375 3 261 -448
2022-05-22 22:15:06 GMT 55.979530 -3.987608 5,375 3 261 -448
2022-05-22 22:15:05 GMT 55.978271 -3.987704 5,375 3 261 -448
2022-05-22 22:15:03 GMT 55.975983 -3.987954 5,400 3 261 -448
2022-05-22 22:15:01 GMT 55.974224 -3.988123 5,400 3 261 -448
2022-05-22 22:15:00 GMT 55.972504 -3.988287 5,425 3 261 -448
2022-05-22 22:14:59 GMT 55.971268 -3.988453 5,425 3 261 -512
2022-05-22 22:14:58 GMT 55.970078 -3.988536 5,425 3 261 -448
2022-05-22 22:14:56 GMT 55.967651 -3.988786 5,450 3 260 -512
2022-05-22 22:14:55 GMT 55.966404 -3.988981 5,450 3 260 -448
2022-05-22 22:14:54 GMT 55.965134 -3.989036 5,475 3 260 -384
2022-05-22 22:14:53 GMT 55.962616 -3.989369 5,475 3 260 -448
2022-05-22 22:14:51 GMT 55.961426 -3.989452 5,500 3 260 -448
2022-05-22 22:14:50 GMT 55.959095 -3.989754 5,500 3 260 -448
2022-05-22 22:14:48 GMT 55.957809 -3.989868 5,500 3 260 -512
2022-05-22 22:14:46 GMT 55.955463 -3.990183 5,525 3 260 -512
2022-05-22 22:14:44 GMT 55.953003 -3.990451 5,550 3 260 -576
2022-05-22 22:14:42 GMT 55.951649 -3.990612 5,550 3 261 -640
2022-05-22 22:14:41 GMT 55.949226 -3.990870 5,575 3 261 -704
2022-05-22 22:14:40 GMT 55.948105 -3.991033 5,600 3 261 -704
2022-05-22 22:14:38 GMT 55.946182 -3.991200 5,600 3 261 -768
2022-05-22 22:14:36 GMT 55.944351 -3.991450 5,625 3 262 -704
2022-05-22 22:14:35 GMT 55.942062 -3.991699 5,650 3 262 -704
2022-05-22 22:14:34 GMT 55.940891 -3.991814 5,675 3 262 -704
2022-05-22 22:14:33 GMT 55.938519 -3.992071 5,700 3 263 -704
2022-05-22 22:14:31 GMT 55.937210 -3.992199 5,700 3 263 -640
2022-05-22 22:14:30 GMT 55.934750 -3.992414 5,725 3 263 -640
2022-05-22 22:14:27 GMT 55.933399 -3.992586 5,750 3 264 -640
2022-05-22 22:14:26 GMT 55.931072 -3.992844 5,750 3 264 -640
2022-05-22 22:14:25 GMT 55.929932 -3.992948 5,775 3 264 -640
2022-05-22 22:14:24 GMT 55.928791 -3.993015 5,775 3 264 -640
2022-05-22 22:14:22 GMT 55.925171 -3.993364 5,800 3 264 -640
2022-05-22 22:14:20 GMT 55.924072 -3.993447 5,825 3 264 -640
2022-05-22 22:14:19 GMT 55.922783 -3.993616 5,825 3 264 -640
2022-05-22 22:14:18 GMT 55.920410 -3.993863 5,850 3 263 -640
2022-05-22 22:14:16 GMT 55.919151 -3.993959 5,850 3 263 -640
2022-05-22 22:14:13 GMT 55.915787 -3.994279 5,875 3 263 -576
2022-05-22 22:14:12 GMT 55.914459 -3.994446 5,900 3 263 -512
2022-05-22 22:14:10 GMT 55.911613 -3.994732 5,925 3 263 -576
2022-05-22 22:14:09 GMT 55.910496 -3.994818 5,925 3 263 -640
2022-05-22 22:14:08 GMT 55.907913 -3.995112 5,950 3 264 -640
2022-05-22 22:14:06 GMT 55.906723 -3.995161 5,950 3 264 -704
2022-05-22 22:14:05 GMT 55.905487 -3.995361 5,975 3 264 -768
2022-05-22 22:14:04 GMT 55.902954 -3.995590 6,000 3 264 -832
2022-05-22 22:14:02 GMT 55.902348 -3.995676 6,000 3 264 -896
2022-05-22 22:14:01 GMT 55.901093 -3.995777 6,025 3 265 -1024
2022-05-22 22:14:00 GMT 55.897461 -3.996105 6,075 3 265 -1024
2022-05-22 22:13:58 GMT 55.897461 -3.996105 6,075 3 265 -1088
2022-05-22 22:13:57 GMT 55.895782 -3.996277 6,100 3 266 -1088
2022-05-22 22:13:55 GMT 55.893494 -3.996527 6,125 3 266 -1024
2022-05-22 22:13:54 GMT 55.890850 -3.996792 6,175 3 266 -1088
2022-05-22 22:13:52 GMT 55.889641 -3.996964 6,175 3 266 -1088
2022-05-22 22:13:51 GMT 55.888382 -3.997049 6,200 3 267 -1088
2022-05-22 22:13:49 GMT 55.885963 -3.997307 6,250 3 267 -1088
2022-05-22 22:13:48 GMT 55.884750 -3.997442 6,250 3 267 -1088
2022-05-22 22:13:46 GMT 55.882469 -3.997650 6,300 3 268 -1088
2022-05-22 22:13:45 GMT 55.881260 -3.997822 6,300 3 268 -1152
2022-05-22 22:13:44 GMT 55.880081 -3.997941 6,325 3 268 -1152
2022-05-22 22:13:42 GMT 55.877472 -3.998191 6,375 3 268 -1088
2022-05-22 22:13:41 GMT 55.876045 -3.998337 6,400 3 268 -1024
2022-05-22 22:13:39 GMT 55.873627 -3.998607 6,425 3 269 -1024
2022-05-22 22:13:38 GMT 55.871429 -3.998857 6,450 3 269 -960
2022-05-22 22:13:36 GMT 55.869995 -3.999023 6,475 3 269 -960
2022-05-22 22:13:35 GMT 55.868820 -3.999107 6,475 3 269 -896
2022-05-22 22:13:33 GMT 55.866302 -3.999440 6,500 2 269 -768
2022-05-22 22:13:32 GMT 55.865067 -3.999523 6,525 2 269 -704
2022-05-22 22:13:31 GMT 55.863831 -3.999689 6,525 2 269 -640
2022-05-22 22:13:30 GMT 55.861496 -3.999856 6,550 2 269 -576
2022-05-22 22:13:28 GMT 55.860310 -3.999968 6,550 1 269 -576
2022-05-22 22:13:26 GMT 55.857376 -4.000189 6,575 1 269 -512
2022-05-22 22:13:25 GMT 55.854263 -4.000355 6,600 0 269 -512
2022-05-22 22:13:22 GMT 55.853096 -4.000397 6,600 0 269 -512
2022-05-22 22:13:21 GMT 55.851837 -4.000397 6,625 359 268 -512
2022-05-22 22:13:20 GMT 55.850628 -4.000397 6,625 358 268 -576
2022-05-22 22:13:19 GMT 55.848255 -4.000225 6,650 357 267 -640
2022-05-22 22:13:17 GMT 55.846939 -4.000189 6,675 355 266 -640
2022-05-22 22:13:16 GMT 55.845703 -4.000022 6,675 354 265 -640
2022-05-22 22:13:14 GMT 55.843693 -3.999710 6,700 353 265 -640
2022-05-22 22:13:13 GMT 55.842484 -3.999538 6,700 352 264 -640
2022-05-22 22:13:12 GMT 55.839981 -3.998940 6,725 351 263 -576
2022-05-22 22:13:10 GMT 55.838791 -3.998607 6,725 350 263 -576
2022-05-22 22:13:09 GMT 55.837502 -3.998251 6,750 350 262 -512
2022-05-22 22:13:07 GMT 55.835266 -3.997478 6,750 350 262 -576
2022-05-22 22:13:05 GMT 55.832794 -3.996693 6,775 350 261 -576
2022-05-22 22:13:03 GMT 55.830414 -3.995861 6,800 350 261 -512
2022-05-22 22:13:02 GMT 55.828701 -3.995333 6,825 350 261 -512
2022-05-22 22:13:00 GMT 55.826794 -3.994646 6,825 350 261 -448
2022-05-22 22:12:59 GMT 55.825630 -3.994217 6,825 350 261 -448
2022-05-22 22:12:57 GMT 55.823257 -3.993444 6,850 349 261 -384
2022-05-22 22:12:56 GMT 55.822128 -3.993031 6,850 349 261 -384
2022-05-22 22:12:55 GMT 55.819244 -3.992115 6,875 349 261 -320
2022-05-22 22:12:53 GMT 55.818043 -3.991642 6,875 348 261 -320
2022-05-22 22:12:51 GMT 55.815762 -3.990784 6,875 348 261 -320
2022-05-22 22:12:50 GMT 55.814598 -3.990355 6,875 347 261 -256
2022-05-22 22:12:48 GMT 55.811005 -3.989036 6,900 344 260 -256
2022-05-22 22:12:46 GMT 55.809753 -3.988466 6,900 343 261 -256
2022-05-22 22:12:43 GMT 55.806702 -3.986872 6,925 338 259 -512
2022-05-22 22:12:41 GMT 55.804497 -3.985462 6,925 335 258 -576
2022-05-22 22:12:40 GMT 55.803406 -3.984791 6,950 333 258 -576
2022-05-22 22:12:37 GMT 55.799652 -3.981771 6,975 330 257 -640
2022-05-22 22:12:35 GMT 55.797932 -3.979883 7,000 329 256 -640
2022-05-22 22:12:34 GMT 55.796906 -3.978853 7,025 326 255 -704
2022-05-22 22:12:33 GMT 55.794891 -3.976468 7,025 325 254 -640
2022-05-22 22:12:31 GMT 55.793976 -3.975334 7,050 325 254 -576
2022-05-22 22:12:30 GMT 55.792950 -3.974047 7,050 324 253 -576
2022-05-22 22:12:29 GMT 55.792065 -3.972931 7,075 324 253 -576
2022-05-22 22:12:27 GMT 55.790131 -3.970392 7,100 324 253 -576
2022-05-22 22:12:25 GMT 55.786926 -3.966231 7,125 324 253 -576
2022-05-22 22:12:23 GMT 55.785969 -3.964949 7,125 324 252 -576
2022-05-22 22:12:21 GMT 55.784058 -3.962545 7,150 324 252 -512
2022-05-22 22:12:20 GMT 55.782990 -3.961071 7,150 324 252 -512
2022-05-22 22:12:19 GMT 55.782104 -3.959970 7,150 324 252 -512
2022-05-22 22:12:17 GMT 55.780334 -3.957567 7,175 324 252 -512
2022-05-22 22:12:16 GMT 55.779419 -3.956410 7,200 324 252 -576
2022-05-22 22:12:15 GMT 55.775848 -3.951749 7,200 324 253 -448
2022-05-22 22:12:13 GMT 55.775848 -3.951749 7,225 324 253 -448
2022-05-22 22:12:11 GMT 55.774796 -3.950417 7,225 324 253 -448
2022-05-22 22:12:09 GMT 55.772980 -3.948040 7,250 324 252 -384
2022-05-22 22:12:06 GMT 55.770466 -3.944693 7,275 324 252 -448
2022-05-22 22:12:05 GMT 55.768372 -3.942032 7,275 324 252 -448
2022-05-22 22:12:02 GMT 55.766647 -3.939764 7,275 324 253 -448
2022-05-22 22:12:01 GMT 55.765686 -3.938515 7,300 324 253 -448
2022-05-22 22:12:00 GMT 55.763763 -3.935938 7,300 324 253 -448
2022-05-22 22:11:58 GMT 55.762894 -3.934770 7,325 324 253 -448
2022-05-22 22:11:57 GMT 55.761902 -3.933535 7,325 324 253 -448
2022-05-22 22:11:55 GMT 55.760036 -3.931046 7,350 324 253 -512
2022-05-22 22:11:54 GMT 55.759048 -3.929693 7,350 324 253 -512
2022-05-22 22:11:53 GMT 55.757107 -3.927183 7,375 324 253 -512
2022-05-22 22:11:51 GMT 55.756210 -3.926031 7,375 324 253 -576
2022-05-22 22:11:50 GMT 55.755295 -3.924782 7,375 324 252 -576
2022-05-22 22:11:47 GMT 55.752686 -3.921287 7,425 324 253 -576
2022-05-22 22:11:46 GMT 55.750774 -3.918686 7,425 324 252 -512
2022-05-22 22:11:44 GMT 55.749893 -3.917542 7,450 324 253 -512
2022-05-22 22:11:43 GMT 55.748932 -3.916293 7,450 324 252 -512
2022-05-22 22:11:42 GMT 55.746048 -3.912464 7,475 324 252 -512
2022-05-22 22:11:40 GMT 55.746048 -3.912464 7,475 324 253 -512
2022-05-22 22:11:38 GMT 55.743931 -3.909674 7,500 323 253 -576
2022-05-22 22:11:37 GMT 55.742935 -3.908303 7,500 323 253 -576
2022-05-22 22:11:36 GMT 55.742069 -3.907099 7,500 323 253 -512
2022-05-22 22:11:33 GMT 55.739594 -3.903809 7,525 323 254 -512
2022-05-22 22:11:32 GMT 55.738251 -3.902035 7,525 323 254 -512
2022-05-22 22:11:30 GMT 55.736389 -3.899564 7,575 323 254 -640
2022-05-22 22:11:28 GMT 55.734482 -3.896971 7,575 324 255 -448
2022-05-22 22:11:27 GMT 55.733597 -3.895819 7,600 324 255 -448
2022-05-22 22:11:25 GMT 55.731083 -3.892508 7,600 323 255 -448
2022-05-22 22:11:23 GMT 55.729843 -3.890825 7,625 323 255 -512
2022-05-22 22:11:22 GMT 55.728973 -3.889660 7,625 324 255 -512
2022-05-22 22:11:20 GMT 55.727097 -3.887163 7,650 324 255 -448
2022-05-22 22:11:19 GMT 55.726101 -3.885813 7,650 324 254 -448
2022-05-22 22:11:18 GMT 55.725311 -3.884749 7,650 324 254 -448
2022-05-22 22:11:16 GMT 55.723526 -3.882419 7,675 324 253 -448
2022-05-22 22:11:15 GMT 55.721649 -3.879922 7,675 324 253 -448
2022-05-22 22:11:13 GMT 55.720688 -3.878673 7,700 324 253 -448
2022-05-22 22:11:12 GMT 55.719727 -3.877425 7,700 324 253 -448
2022-05-22 22:11:10 GMT 55.717575 -3.874595 7,725 324 253 -448
2022-05-22 22:11:08 GMT 55.716045 -3.872509 7,725 324 253 -448
2022-05-22 22:11:07 GMT 55.714043 -3.869934 7,750 324 252 -448
2022-05-22 22:11:04 GMT 55.712128 -3.867437 7,775 324 253 -512
2022-05-22 22:11:03 GMT 55.711166 -3.866189 7,775 324 253 -512
2022-05-22 22:11:01 GMT 55.709290 -3.863775 7,800 324 253 -576
2022-05-22 22:11:00 GMT 55.707413 -3.861278 7,800 324 253 -576
2022-05-22 22:10:57 GMT 55.705627 -3.858948 7,825 324 253 -512
2022-05-22 22:10:55 GMT 55.703613 -3.856451 7,850 325 254 -512
2022-05-22 22:10:54 GMT 55.702732 -3.855257 7,850 325 254 -576
2022-05-22 22:10:52 GMT 55.700684 -3.852622 7,875 325 254 -512
2022-05-22 22:10:51 GMT 55.699799 -3.851480 7,875 325 255 -512
2022-05-22 22:10:50 GMT 55.698822 -3.850279 7,900 325 255 -512
2022-05-22 22:10:48 GMT 55.697006 -3.847961 7,900 325 255 -640
2022-05-22 22:10:47 GMT 55.696075 -3.846760 7,925 325 256 -640
2022-05-22 22:10:46 GMT 55.694118 -3.844357 7,950 325 256 -576
2022-05-22 22:10:43 GMT 55.692303 -3.842039 7,975 325 257 -512
2022-05-22 22:10:41 GMT 55.689884 -3.838949 7,975 325 257 -384
2022-05-22 22:10:39 GMT 55.687912 -3.836476 8,000 324 257 -384
2022-05-22 22:10:38 GMT 55.687370 -3.835773 8,000 324 257 -320
2022-05-22 22:10:37 GMT 55.686394 -3.834486 8,000 324 257 -320
2022-05-22 22:10:34 GMT 55.683472 -3.830733 8,000 322 256 -64
2022-05-22 22:10:32 GMT 55.681553 -3.828049 8,000 320 255 64
2022-05-22 22:10:31 GMT 55.679810 -3.825489 8,000 317 254 128
2022-05-22 22:10:29 GMT 55.678436 -3.823409 8,000 314 253 64
2022-05-22 22:10:28 GMT 55.677933 -3.822660 8,000 313 253 128
2022-05-22 22:10:27 GMT 55.676151 -3.819466 8,000 309 251 64
2022-05-22 22:10:25 GMT 55.674660 -3.816547 8,000 305 249 -64
2022-05-22 22:10:23 GMT 55.673870 -3.814831 8,000 303 249 -64
2022-05-22 22:10:22 GMT 55.673264 -3.813372 8,000 301 247 -64
2022-05-22 22:10:21 GMT 55.671890 -3.809676 8,000 299 247 0
2022-05-22 22:10:19 GMT 55.671387 -3.808178 8,000 295 245 0
2022-05-22 22:10:18 GMT 55.670883 -3.806596 8,000 293 244 64
2022-05-22 22:10:16 GMT 55.669876 -3.803017 8,000 289 242 64
2022-05-22 22:10:15 GMT 55.669399 -3.801012 8,000 287 242 0
2022-05-22 22:10:14 GMT 55.668320 -3.795194 8,000 283 240 0
2022-05-22 22:10:12 GMT 55.668320 -3.795194 8,000 281 240 -64
2022-05-22 22:10:11 GMT 55.668045 -3.793279 8,000 279 238 -64
2022-05-22 22:10:10 GMT 55.667583 -3.789768 8,000 275 237 -64
2022-05-22 22:10:08 GMT 55.667450 -3.787870 8,000 273 236 64
2022-05-22 22:10:07 GMT 55.667313 -3.785622 8,000 271 236 128
2022-05-22 22:10:05 GMT 55.667175 -3.782127 8,000 267 234 64
2022-05-22 22:10:04 GMT 55.667168 -3.779554 8,000 265 234 0
2022-05-22 22:10:02 GMT 55.667305 -3.775520 8,000 260 232 -64
2022-05-22 22:10:01 GMT 55.667446 -3.773890 8,000 260 232 -64
2022-05-22 22:09:59 GMT 55.667953 -3.768727 8,000 254 230 0
2022-05-22 22:09:58 GMT 55.667953 -3.768727 8,000 252 230 0
2022-05-22 22:09:57 GMT 55.668610 -3.764877 8,000 247 229 64
2022-05-22 22:09:55 GMT 55.668869 -3.763400 8,000 247 229 64
2022-05-22 22:09:54 GMT 55.669647 -3.760071 8,000 241 228 0
2022-05-22 22:09:52 GMT 55.670097 -3.758268 8,000 239 228 0
2022-05-22 22:09:51 GMT 55.670658 -3.756466 8,000 237 228 -64
2022-05-22 22:09:49 GMT 55.671726 -3.753290 8,000 232 227 0
2022-05-22 22:09:48 GMT 55.672302 -3.751831 8,000 230 227 64
2022-05-22 22:09:47 GMT 55.673683 -3.748655 8,000 226 227 0
2022-05-22 22:09:45 GMT 55.674316 -3.747337 8,000 224 227 0
2022-05-22 22:09:44 GMT 55.675873 -3.744507 8,000 217 228 -64
2022-05-22 22:09:41 GMT 55.677246 -3.742260 8,000 215 228 -64
2022-05-22 22:09:40 GMT 55.679363 -3.739557 8,000 211 229 -64
2022-05-22 22:09:37 GMT 55.681133 -3.737583 8,000 207 229 0
2022-05-22 22:09:35 GMT 55.682556 -3.736184 8,000 204 230 -64
2022-05-22 22:09:34 GMT 55.683971 -3.735008 8,000 202 230 -64
2022-05-22 22:09:32 GMT 55.685852 -3.733521 8,000 199 230 0
2022-05-22 22:09:31 GMT 55.687836 -3.732262 8,000 193 231 -64
2022-05-22 22:09:30 GMT 55.689884 -3.731146 8,000 193 231 -64
2022-05-22 22:09:28 GMT 55.689884 -3.731146 8,000 193 231 -64
2022-05-22 22:09:27 GMT 55.690933 -3.730691 8,000 191 232 -64
2022-05-22 22:09:26 GMT 55.692024 -3.730202 8,000 190 232 -64
2022-05-22 22:09:24 GMT 55.694092 -3.729525 8,000 187 233 0
2022-05-22 22:09:23 GMT 55.695145 -3.729193 8,000 185 233 0
2022-05-22 22:09:22 GMT 55.697239 -3.728743 8,000 182 235 0
2022-05-22 22:09:20 GMT 55.698311 -3.728657 8,000 181 236 64
2022-05-22 22:09:19 GMT 55.699520 -3.728485 8,000 178 237 64
2022-05-22 22:09:17 GMT 55.701710 -3.728485 8,000 175 238 0
2022-05-22 22:09:16 GMT 55.702606 -3.728527 8,000 174 240 0
2022-05-22 22:09:15 GMT 55.704849 -3.728776 8,000 170 242 0
2022-05-22 22:09:13 GMT 55.705948 -3.729026 8,000 168 243 0
2022-05-22 22:09:12 GMT 55.706909 -3.729276 8,000 167 245 0
2022-05-22 22:09:09 GMT 55.710571 -3.730607 8,000 162 247 64
2022-05-22 22:09:07 GMT 55.712769 -3.731689 8,000 158 250 64
2022-05-22 22:09:05 GMT 55.713867 -3.732355 8,000 157 251 64
2022-05-22 22:09:04 GMT 55.714966 -3.733021 8,000 155 252 64
2022-05-22 22:09:02 GMT 55.716980 -3.734519 8,000 150 255 64
2022-05-22 22:09:01 GMT 55.718094 -3.735437 8,000 150 255 64
2022-05-22 22:08:59 GMT 55.720322 -3.737599 7,975 146 257 64
2022-05-22 22:08:58 GMT 55.721306 -3.738613 7,975 145 258 64
2022-05-22 22:08:57 GMT 55.723354 -3.741016 7,975 141 260 0
2022-05-22 22:08:55 GMT 55.724331 -3.742218 8,000 139 261 0
2022-05-22 22:08:54 GMT 55.725403 -3.743677 7,975 136 263 64
2022-05-22 22:08:52 GMT 55.727097 -3.746171 7,975 135 263 64
2022-05-22 22:08:51 GMT 55.728008 -3.747711 7,975 132 264 0
2022-05-22 22:08:49 GMT 55.729687 -3.750629 7,975 130 265 0
2022-05-22 22:08:48 GMT 55.730522 -3.752174 7,975 129 266 0
2022-05-22 22:08:47 GMT 55.732132 -3.755576 7,975 126 267 -64
2022-05-22 22:08:44 GMT 55.735474 -3.763650 8,000 121 268 -64
2022-05-22 22:08:42 GMT 55.735474 -3.763650 8,000 121 268 -64
2022-05-22 22:08:41 GMT 55.736111 -3.765392 8,000 120 268 0
2022-05-22 22:08:39 GMT 55.737030 -3.768144 8,000 120 268 0
2022-05-22 22:08:38 GMT 55.737644 -3.769941 8,000 120 268 0
2022-05-22 22:08:36 GMT 55.738861 -3.773554 8,000 120 268 0
2022-05-22 22:08:34 GMT 55.740143 -3.777383 8,000 120 268 0
2022-05-22 22:08:33 GMT 55.740784 -3.779297 8,000 120 268 0
2022-05-22 22:08:32 GMT 55.742069 -3.783159 8,000 120 268 0
2022-05-22 22:08:30 GMT 55.742706 -3.785123 8,000 120 267 0
2022-05-22 22:08:28 GMT 55.744034 -3.789118 8,000 120 267 0
2022-05-22 22:08:27 GMT 55.744995 -3.791948 8,000 120 267 0
2022-05-22 22:08:25 GMT 55.746212 -3.795605 8,000 120 267 0
2022-05-22 22:08:24 GMT 55.746819 -3.797493 8,000 120 267 0
2022-05-22 22:08:21 GMT 55.748383 -3.802102 8,000 120 267 -64
2022-05-22 22:08:20 GMT 55.749798 -3.806334 8,000 120 268 0
2022-05-22 22:08:18 GMT 55.750443 -3.808344 8,000 120 268 0
2022-05-22 22:08:16 GMT 55.752640 -3.814919 8,000 120 269 0
2022-05-22 22:08:15 GMT 55.752640 -3.814919 8,000 121 268 0
2022-05-22 22:08:13 GMT 55.753895 -3.818607 8,000 121 268 -64
2022-05-22 22:08:11 GMT 55.755157 -3.822327 8,000 121 268 -64
2022-05-22 22:08:09 GMT 55.756359 -3.825817 8,000 121 267 64
2022-05-22 22:08:08 GMT 55.757057 -3.827877 8,000 121 267 64
2022-05-22 22:08:07 GMT 55.759094 -3.833729 8,000 121 266 -128
2022-05-22 22:08:05 GMT 55.759094 -3.833729 8,000 121 266 -128
2022-05-22 22:08:04 GMT 55.759712 -3.835516 8,000 121 266 0
2022-05-22 22:08:02 GMT 55.760967 -3.839035 8,000 122 266 64
2022-05-22 22:08:01 GMT 55.761665 -3.841009 8,000 122 266 -128
2022-05-22 22:07:59 GMT 55.762970 -3.844700 8,000 122 265 -128
2022-05-22 22:07:58 GMT 55.763577 -3.846416 8,000 122 264 -64
2022-05-22 22:07:56 GMT 55.764740 -3.849678 8,000 122 264 0
2022-05-22 22:07:55 GMT 55.765503 -3.851790 8,000 121 264 -64
2022-05-22 22:07:53 GMT 55.766739 -3.855286 8,025 121 265 0
2022-05-22 22:07:52 GMT 55.767471 -3.857283 8,025 120 264 64
2022-05-22 22:07:51 GMT 55.768158 -3.859281 8,025 119 265 64
2022-05-22 22:07:49 GMT 55.769531 -3.863442 8,000 117 267 192
2022-05-22 22:07:48 GMT 55.770046 -3.864956 8,000 116 268 256
2022-05-22 22:07:46 GMT 55.771210 -3.868818 8,000 112 269 0
2022-05-22 22:07:45 GMT 55.771721 -3.870792 8,000 111 270 -64
2022-05-22 22:07:44 GMT 55.772278 -3.872930 8,000 109 271 0
2022-05-22 22:07:43 GMT 55.773193 -3.877009 8,000 106 272 0
2022-05-22 22:07:41 GMT 55.773632 -3.879204 8,000 104 273 0
2022-05-22 22:07:40 GMT 55.773956 -3.881350 8,000 102 273 0
2022-05-22 22:07:39 GMT 55.774796 -3.886671 8,000 99 274 0
2022-05-22 22:07:36 GMT 55.775261 -3.892250 8,000 94 276 0
2022-05-22 22:07:34 GMT 55.775436 -3.894320 8,000 92 277 0
2022-05-22 22:07:33 GMT 55.775528 -3.896318 8,000 90 278 64
2022-05-22 22:07:31 GMT 55.775681 -3.900747 8,000 86 279 64
2022-05-22 22:07:29 GMT 55.775635 -3.905296 8,000 83 280 0
2022-05-22 22:07:27 GMT 55.775391 -3.909968 8,000 77 280 -64
2022-05-22 22:07:25 GMT 55.775074 -3.913450 8,000 75 280 -64
2022-05-22 22:07:23 GMT 55.774609 -3.917484 8,000 72 280 0
2022-05-22 22:07:21 GMT 55.773956 -3.921947 8,000 70 280 64
2022-05-22 22:07:20 GMT 55.773167 -3.926239 8,000 66 280 0
2022-05-22 22:07:18 GMT 55.772644 -3.928528 8,000 62 280 -128
2022-05-22 22:07:16 GMT 55.771538 -3.932762 8,000 60 280 -128
2022-05-22 22:07:14 GMT 55.770420 -3.936625 8,000 55 280 0
2022-05-22 22:07:13 GMT 55.769806 -3.938515 8,000 53 280 0
2022-05-22 22:07:11 GMT 55.768295 -3.942510 8,000 50 279 -64
2022-05-22 22:07:09 GMT 55.766785 -3.946256 8,000 44 280 64
2022-05-22 22:07:07 GMT 55.765160 -3.949671 8,000 42 280 64
2022-05-22 22:07:05 GMT 55.763397 -3.952831 8,000 41 279 0
2022-05-22 22:07:04 GMT 55.762505 -3.954391 8,000 39 279 -64
2022-05-22 22:07:03 GMT 55.761475 -3.955994 8,000 35 278 0
2022-05-22 22:07:02 GMT 55.759598 -3.958740 8,000 34 278 64
2022-05-22 22:07:00 GMT 55.758179 -3.960655 8,000 32 278 0
2022-05-22 22:06:59 GMT 55.757172 -3.961737 8,000 30 278 -64
2022-05-22 22:06:58 GMT 55.754974 -3.964150 8,000 26 278 64
2022-05-22 22:06:56 GMT 55.753830 -3.965232 8,000 22 277 0
2022-05-22 22:06:55 GMT 55.752823 -3.966148 8,000 22 277 0
2022-05-22 22:06:54 GMT 55.750401 -3.968039 8,000 19 277 0
2022-05-22 22:06:52 GMT 55.749100 -3.968983 8,000 15 276 64
2022-05-22 22:06:50 GMT 55.746586 -3.970613 8,000 11 275 0
2022-05-22 22:06:48 GMT 55.742020 -3.972390 8,000 7 275 0
2022-05-22 22:06:46 GMT 55.742020 -3.972390 8,000 5 275 0
2022-05-22 22:06:45 GMT 55.740372 -3.972889 8,000 3 275 0
2022-05-22 22:06:43 GMT 55.737785 -3.973360 8,000 0 275 0
2022-05-22 22:06:42 GMT 55.736435 -3.973389 8,000 359 274 64
2022-05-22 22:06:41 GMT 55.733917 -3.973389 8,000 355 273 64
2022-05-22 22:06:39 GMT 55.732773 -3.973222 8,000 352 270 0
2022-05-22 22:06:37 GMT 55.730118 -3.972806 8,000 350 270 0
2022-05-22 22:06:36 GMT 55.729454 -3.972502 8,000 347 268 0
2022-05-22 22:06:34 GMT 55.726379 -3.971558 8,000 343 266 0
2022-05-22 22:06:33 GMT 55.725220 -3.971141 8,000 343 266 0
2022-05-22 22:06:31 GMT 55.722889 -3.969927 8,000 342 266 0
2022-05-22 22:06:30 GMT 55.721867 -3.969240 8,000 338 264 0
2022-05-22 22:06:29 GMT 55.720749 -3.968468 8,000 336 264 0
2022-05-22 22:06:28 GMT 55.718513 -3.966837 8,000 333 262 0
2022-05-22 22:06:26 GMT 55.717300 -3.965981 8,000 331 261 0
2022-05-22 22:06:25 GMT 55.715332 -3.963900 8,000 326 259 64
2022-05-22 22:06:23 GMT 55.714230 -3.962803 8,000 324 258 0
2022-05-22 22:06:22 GMT 55.713207 -3.961687 8,000 323 258 0
2022-05-22 22:06:21 GMT 55.710114 -3.957908 8,000 320 256 0
2022-05-22 22:06:19 GMT 55.710114 -3.957908 8,000 320 256 0
2022-05-22 22:06:18 GMT 55.709198 -3.956576 8,000 318 256 0
2022-05-22 22:06:16 GMT 55.707481 -3.953876 8,000 313 254 64
2022-05-22 22:06:14 GMT 55.705803 -3.950958 8,000 311 253 0
2022-05-22 22:06:13 GMT 55.705013 -3.949413 8,000 310 252 0
2022-05-22 22:06:12 GMT 55.704117 -3.947671 8,000 308 251 0
2022-05-22 22:06:11 GMT 55.702972 -3.945091 8,000 307 251 -64
2022-05-22 22:06:09 GMT 55.702240 -3.943426 8,000 305 249 -64
2022-05-22 22:06:07 GMT 55.700912 -3.940180 8,000 303 249 -64
2022-05-22 22:06:06 GMT 55.699940 -3.937740 8,000 302 249 -64
2022-05-22 22:06:05 GMT 55.699631 -3.936768 8,000 302 248 -64
2022-05-22 22:06:03 GMT 55.698124 -3.932590 8,000 302 248 -64
2022-05-22 22:06:02 GMT 55.697613 -3.930960 8,000 302 248 0
2022-05-22 22:06:00 GMT 55.695747 -3.925638 8,000 301 247 0
2022-05-22 22:05:59 GMT 55.695747 -3.925638 8,000 301 247 0
2022-05-22 22:05:58 GMT 55.694214 -3.921089 8,000 301 247 0
2022-05-22 22:05:56 GMT 55.694214 -3.921089 8,000 301 247 0
2022-05-22 22:05:55 GMT 55.693653 -3.919373 8,000 301 247 0
2022-05-22 22:05:53 GMT 55.692257 -3.915167 8,000 301 247 0
2022-05-22 22:05:51 GMT 55.691326 -3.912420 8,000 301 247 0
2022-05-22 22:05:50 GMT 55.690521 -3.910051 8,000 301 246 0
2022-05-22 22:05:48 GMT 55.689468 -3.906971 8,000 301 246 0
2022-05-22 22:05:47 GMT 55.688812 -3.904953 8,000 301 246 0
2022-05-22 22:05:45 GMT 55.687695 -3.901691 8,000 301 246 64
2022-05-22 22:05:44 GMT 55.687088 -3.899897 8,000 301 246 64
2022-05-22 22:05:42 GMT 55.685806 -3.896068 8,000 301 247 64
2022-05-22 22:05:41 GMT 55.684845 -3.893322 8,000 301 247 64
2022-05-22 22:05:39 GMT 55.684063 -3.890963 8,000 301 247 0
2022-05-22 22:05:38 GMT 55.683506 -3.889246 8,000 302 247 0
2022-05-22 22:05:37 GMT 55.682281 -3.885665 8,000 302 247 0
2022-05-22 22:05:35 GMT 55.681686 -3.883917 8,000 302 247 0
2022-05-22 22:05:34 GMT 55.680481 -3.880405 8,000 302 247 -64
2022-05-22 22:05:31 GMT 55.679260 -3.876842 8,000 302 246 0
2022-05-22 22:05:30 GMT 55.678665 -3.875094 8,000 302 246 -64
2022-05-22 22:05:28 GMT 55.677547 -3.871737 8,000 302 246 0
2022-05-22 22:05:27 GMT 55.676926 -3.869934 8,000 302 246 0
2022-05-22 22:05:26 GMT 55.675823 -3.866758 8,000 302 247 0
2022-05-22 22:05:24 GMT 55.675278 -3.865107 8,000 302 247 0
2022-05-22 22:05:23 GMT 55.674683 -3.863359 8,000 302 247 0
2022-05-22 22:05:21 GMT 55.673447 -3.859947 8,000 302 247 -64
2022-05-22 22:05:19 GMT 55.672241 -3.856373 8,000 302 247 -128
2022-05-22 22:05:18 GMT 55.671661 -3.854786 8,000 302 246 -64
2022-05-22 22:05:16 GMT 55.669327 -3.848045 8,000 302 246 0
2022-05-22 22:05:13 GMT 55.668797 -3.846416 8,000 301 246 0
2022-05-22 22:05:11 GMT 55.666901 -3.840970 8,000 299 246 128
2022-05-22 22:05:09 GMT 55.666351 -3.839306 8,000 298 246 128
2022-05-22 22:05:07 GMT 55.665257 -3.835859 8,000 296 245 64
2022-05-22 22:05:06 GMT 55.664749 -3.834229 8,000 294 244 64
2022-05-22 22:05:05 GMT 55.664246 -3.832397 8,000 292 243 64
2022-05-22 22:05:03 GMT 55.663284 -3.828569 8,000 289 241 -64
2022-05-22 22:05:02 GMT 55.662884 -3.826847 8,000 288 241 -128
2022-05-22 22:05:00 GMT 55.662140 -3.823242 8,000 285 240 -64
2022-05-22 22:04:59 GMT 55.661812 -3.821440 8,000 283 238 0
2022-05-22 22:04:58 GMT 55.661533 -3.819551 8,000 282 238 0
2022-05-22 22:04:56 GMT 55.660927 -3.814831 8,000 278 237 0
2022-05-22 22:04:55 GMT 55.660767 -3.813171 8,000 277 237 0
2022-05-22 22:04:54 GMT 55.660461 -3.809681 8,000 274 236 0
2022-05-22 22:04:52 GMT 55.660309 -3.807678 8,000 273 235 0
2022-05-22 22:04:51 GMT 55.660172 -3.803850 8,000 270 234 0
2022-05-22 22:04:49 GMT 55.660126 -3.801935 8,000 268 234 64
2022-05-22 22:04:48 GMT 55.660126 -3.800188 8,000 267 233 64
2022-05-22 22:04:46 GMT 55.660217 -3.796359 8,000 264 232 64
2022-05-22 22:04:45 GMT 55.660275 -3.794403 8,000 262 232 0
2022-05-22 22:04:44 GMT 55.660557 -3.790455 8,000 259 231 0
2022-05-22 22:04:42 GMT 55.660744 -3.788395 8,000 258 231 0
2022-05-22 22:04:41 GMT 55.660904 -3.786621 8,000 256 231 0
2022-05-22 22:04:39 GMT 55.661407 -3.782793 8,000 253 231 -64
2022-05-22 22:04:38 GMT 55.661636 -3.781128 8,000 252 230 -64
2022-05-22 22:04:36 GMT 55.662277 -3.777549 8,000 249 230 -64
2022-05-22 22:04:35 GMT 55.662651 -3.775692 8,000 247 230 0
2022-05-22 22:04:34 GMT 55.663349 -3.772345 8,000 244 229 0
2022-05-22 22:04:32 GMT 55.663769 -3.770628 8,000 243 229 0
2022-05-22 22:04:31 GMT 55.664745 -3.767109 8,000 240 229 0
2022-05-22 22:04:28 GMT 55.666306 -3.762318 8,000 235 229 0
2022-05-22 22:04:26 GMT 55.666885 -3.760672 8,000 234 229 -64
2022-05-22 22:04:25 GMT 55.667446 -3.759212 8,000 232 230 0
2022-05-22 22:04:23 GMT 55.668686 -3.756325 8,000 229 229 0
2022-05-22 22:04:21 GMT 55.669960 -3.753462 8,000 226 229 -64
2022-05-22 22:04:20 GMT 55.671402 -3.750715 8,000 223 229 -64
2022-05-22 22:04:18 GMT 55.672146 -3.749342 8,000 222 229 -64
2022-05-22 22:04:17 GMT 55.672894 -3.748055 8,000 220 229 0
2022-05-22 22:04:15 GMT 55.674568 -3.745480 8,000 217 230 -64
2022-05-22 22:04:14 GMT 55.675407 -3.744278 8,000 216 230 -64
2022-05-22 22:04:12 GMT 55.677174 -3.741875 8,000 213 230 0
2022-05-22 22:04:11 GMT 55.677967 -3.740931 8,000 211 230 0
2022-05-22 22:04:10 GMT 55.678894 -3.739846 8,000 210 230 0
2022-05-22 22:04:08 GMT 55.680634 -3.737932 8,000 207 231 0
2022-05-22 22:04:07 GMT 55.681641 -3.736933 8,000 205 231 0
2022-05-22 22:04:05 GMT 55.683643 -3.735266 8,000 202 232 0
2022-05-22 22:04:04 GMT 55.686768 -3.732938 8,000 199 232 -64
2022-05-22 22:04:02 GMT 55.686768 -3.732938 8,000 198 233 0
2022-05-22 22:04:00 GMT 55.688278 -3.731939 8,000 195 234 0
2022-05-22 22:03:59 GMT 55.689789 -3.731232 8,000 193 234 0
2022-05-22 22:03:57 GMT 55.690907 -3.730717 8,000 192 235 64
2022-05-22 22:03:56 GMT 55.692909 -3.729858 8,000 189 236 0
2022-05-22 22:03:54 GMT 55.694916 -3.729276 8,000 186 236 0
2022-05-22 22:03:53 GMT 55.696106 -3.728943 8,000 184 237 0
2022-05-22 22:03:51 GMT 55.698303 -3.728610 8,000 181 239 0
2022-05-22 22:03:49 GMT 55.700684 -3.728443 8,000 177 240 0
2022-05-22 22:03:47 GMT 55.702789 -3.728527 8,000 175 240 0
2022-05-22 22:03:46 GMT 55.703850 -3.728657 8,000 172 242 0
2022-05-22 22:03:45 GMT 55.704941 -3.728776 8,000 170 243 0
2022-05-22 22:03:43 GMT 55.707138 -3.729276 8,000 167 245 0
2022-05-22 22:03:42 GMT 55.708179 -3.729601 8,000 165 246 0
2022-05-22 22:03:41 GMT 55.709202 -3.729944 8,000 164 247 0
2022-05-22 22:03:39 GMT 55.711441 -3.730940 8,000 159 249 64
2022-05-22 22:03:38 GMT 55.712509 -3.731489 8,000 159 249 64
2022-05-22 22:03:36 GMT 55.714790 -3.732862 8,000 155 251 64
2022-05-22 22:03:35 GMT 55.716019 -3.733770 8,000 152 253 64
2022-05-22 22:03:33 GMT 55.717770 -3.735094 8,000 150 254 64
2022-05-22 22:03:32 GMT 55.719116 -3.736296 8,000 148 255 64
2022-05-22 22:03:31 GMT 55.720184 -3.737349 8,000 145 257 0
2022-05-22 22:03:30 GMT 55.722191 -3.739386 8,000 143 258 64
2022-05-22 22:03:28 GMT 55.723263 -3.740673 8,000 141 259 0
2022-05-22 22:03:26 GMT 55.725170 -3.743162 8,000 138 260 0
2022-05-22 22:03:25 GMT 55.726044 -3.744424 8,000 137 261 0
2022-05-22 22:03:23 GMT 55.727554 -3.746588 8,000 133 263 0
2022-05-22 22:03:22 GMT 55.728474 -3.748140 8,000 132 264 0
2022-05-22 22:03:19 GMT 55.730576 -3.752164 8,000 129 265 0
2022-05-22 22:03:18 GMT 55.731216 -3.753412 8,000 127 265 0
2022-05-22 22:03:17 GMT 55.732040 -3.755077 8,000 126 266 -64
2022-05-22 22:03:15 GMT 55.733410 -3.758183 8,000 123 267 -64
2022-05-22 22:03:14 GMT 55.734192 -3.760071 8,000 122 267 -64
2022-05-22 22:03:13 GMT 55.734924 -3.762068 8,000 122 267 -64
2022-05-22 22:03:11 GMT 55.736252 -3.765730 8,000 121 267 -64
2022-05-22 22:03:10 GMT 55.736847 -3.767395 8,000 120 266 0
2022-05-22 22:03:08 GMT 55.738159 -3.771229 8,000 120 266 0
2022-05-22 22:03:07 GMT 55.738678 -3.772888 8,000 120 266 -64
2022-05-22 22:03:06 GMT 55.739273 -3.774719 8,000 120 265 -64
2022-05-22 22:03:05 GMT 55.740486 -3.778439 8,000 120 265 0
2022-05-22 22:03:03 GMT 55.741150 -3.780379 8,000 120 265 -64
2022-05-22 22:03:01 GMT 55.742523 -3.784540 8,000 120 265 -64
2022-05-22 22:02:59 GMT 55.743744 -3.788137 8,000 120 264 0
2022-05-22 22:02:58 GMT 55.744862 -3.791571 8,000 120 265 0
2022-05-22 22:02:56 GMT 55.745544 -3.793696 8,000 120 265 0
2022-05-22 22:02:54 GMT 55.746819 -3.797579 8,000 120 266 0
2022-05-22 22:02:53 GMT 55.747375 -3.799210 8,000 120 266 0
2022-05-22 22:02:51 GMT 55.749115 -3.804599 8,000 120 266 0
2022-05-22 22:02:49 GMT 55.750351 -3.808344 8,000 120 266 0
2022-05-22 22:02:47 GMT 55.751846 -3.812771 8,000 120 266 -128
2022-05-22 22:02:45 GMT 55.752731 -3.815502 8,000 120 266 -64
2022-05-22 22:02:44 GMT 55.753426 -3.817492 8,000 121 267 0
2022-05-22 22:02:43 GMT 55.754654 -3.821161 8,000 121 267 0
2022-05-22 22:02:41 GMT 55.755295 -3.822992 8,000 121 267 0
2022-05-22 22:02:40 GMT 55.755894 -3.824787 8,000 121 266 0
2022-05-22 22:02:39 GMT 55.756531 -3.826571 8,000 121 267 0
2022-05-22 22:02:37 GMT 55.757851 -3.830366 8,000 122 268 64
2022-05-22 22:02:35 GMT 55.759201 -3.834314 8,000 122 267 64
2022-05-22 22:02:33 GMT 55.760284 -3.837308 8,000 122 267 0
2022-05-22 22:02:31 GMT 55.761620 -3.840923 8,000 122 268 -192
2022-05-22 22:02:30 GMT 55.762299 -3.842884 8,000 122 268 -128
2022-05-22 22:02:28 GMT 55.763947 -3.847361 8,025 122 268 -64
2022-05-22 22:02:27 GMT 55.764645 -3.849249 8,000 122 268 0
2022-05-22 22:02:26 GMT 55.765903 -3.852682 8,000 122 268 0
2022-05-22 22:02:24 GMT 55.766602 -3.854620 8,025 121 268 0
2022-05-22 22:02:23 GMT 55.767288 -3.856534 8,025 121 269 0
2022-05-22 22:02:21 GMT 55.768341 -3.859530 8,000 119 269 128
2022-05-22 22:02:20 GMT 55.769955 -3.864098 8,000 118 270 128
2022-05-22 22:02:18 GMT 55.770264 -3.865190 8,000 115 271 128
2022-05-22 22:02:17 GMT 55.771133 -3.867770 8,000 113 272 64
2022-05-22 22:02:15 GMT 55.772186 -3.871651 8,000 110 273 0
2022-05-22 22:02:14 GMT 55.772736 -3.873846 8,000 108 274 64
2022-05-22 22:02:13 GMT 55.773605 -3.877758 8,000 106 275 -64
2022-05-22 22:02:11 GMT 55.773972 -3.879922 8,000 104 275 -128
2022-05-22 22:02:10 GMT 55.774658 -3.884250 8,000 99 276 0
2022-05-22 22:02:08 GMT 55.774933 -3.886499 8,000 97 276 0
2022-05-22 22:02:06 GMT 55.775208 -3.889743 8,000 95 277 -64
2022-05-22 22:02:05 GMT 55.775539 -3.893452 8,000 92 278 64
2022-05-22 22:02:04 GMT 55.775539 -3.894825 8,000 90 278 128
2022-05-22 22:02:03 GMT 55.775711 -3.897816 8,000 88 278 0
2022-05-22 22:02:02 GMT 55.775757 -3.902643 8,000 85 279 -64
2022-05-22 22:01:59 GMT 55.775635 -3.907013 8,000 81 279 0
2022-05-22 22:01:55 GMT 55.775074 -3.914223 8,000 76 278 0
2022-05-22 22:01:54 GMT 55.774513 -3.918686 8,000 72 278 64
2022-05-22 22:01:52 GMT 55.774235 -3.920660 8,000 70 278 64
2022-05-22 22:01:50 GMT 55.773468 -3.925115 8,000 66 279 0
2022-05-22 22:01:49 GMT 55.772964 -3.927446 8,000 65 280 0
2022-05-22 22:01:48 GMT 55.772423 -3.929672 8,000 63 280 -64
2022-05-22 22:01:47 GMT 55.771488 -3.933449 8,000 57 281 0
2022-05-22 22:01:46 GMT 55.770931 -3.935251 8,000 57 281 0
2022-05-22 22:01:43 GMT 55.768387 -3.942427 8,000 52 281 0
2022-05-22 22:01:41 GMT 55.767609 -3.944508 8,000 50 281 -64
2022-05-22 22:01:40 GMT 55.766788 -3.946152 8,000 46 280 -64
2022-05-22 22:01:38 GMT 55.765205 -3.949499 8,000 45 280 0
2022-05-22 22:01:37 GMT 55.764267 -3.951250 8,000 41 279 0
2022-05-22 22:01:36 GMT 55.763351 -3.952914 8,000 39 279 -64
2022-05-22 22:01:34 GMT 55.761108 -3.956659 8,000 35 278 0
2022-05-22 22:01:33 GMT 55.760223 -3.957911 8,000 34 277 0
2022-05-22 22:01:31 GMT 55.758083 -3.960743 8,000 30 277 64
2022-05-22 22:01:30 GMT 55.757034 -3.961903 8,000 28 277 64
2022-05-22 22:01:29 GMT 55.755894 -3.963146 8,000 26 277 0
2022-05-22 22:01:28 GMT 55.754013 -3.964982 8,000 24 277 64
2022-05-22 22:01:26 GMT 55.752823 -3.966064 8,000 22 276 0
2022-05-22 22:01:25 GMT 55.751495 -3.967230 8,000 21 276 -64
2022-05-22 22:01:23 GMT 55.749283 -3.968725 8,000 15 276 0
2022-05-22 22:01:22 GMT 55.748074 -3.969498 8,000 13 275 64
2022-05-22 22:01:20 GMT 55.745590 -3.970975 8,000 10 275 64
2022-05-22 22:01:19 GMT 55.744396 -3.971300 8,000 8 273 0
2022-05-22 22:01:17 GMT 55.741837 -3.972390 8,000 2 272 0
2022-05-22 22:01:16 GMT 55.740601 -3.972723 8,000 2 272 0
2022-05-22 22:01:15 GMT 55.739277 -3.972931 8,000 1 272 0
2022-05-22 22:01:14 GMT 55.736710 -3.973305 8,000 358 271 0
2022-05-22 22:01:12 GMT 55.735504 -3.973360 8,000 356 270 0
2022-05-22 22:01:11 GMT 55.733131 -3.973103 8,000 355 269 64
2022-05-22 22:01:09 GMT 55.731361 -3.973017 8,000 351 268 64
2022-05-22 22:01:07 GMT 55.728973 -3.972473 8,000 347 268 64
2022-05-22 22:01:06 GMT 55.727646 -3.972057 8,000 345 268 64
2022-05-22 22:01:04 GMT 55.725170 -3.971043 8,000 342 267 128
2022-05-22 22:01:03 GMT 55.724052 -3.970528 8,000 340 267 64
2022-05-22 22:01:02 GMT 55.722797 -3.969841 8,000 336 265 0
2022-05-22 22:01:00 GMT 55.720734 -3.968561 8,000 335 264 64
2022-05-22 22:00:59 GMT 55.719589 -3.967729 8,000 333 263 64
2022-05-22 22:00:58 GMT 55.718468 -3.966837 8,000 331 262 0
2022-05-22 22:00:56 GMT 55.716278 -3.964863 8,000 328 259 0
2022-05-22 22:00:54 GMT 55.713997 -3.962460 8,000 324 258 0
2022-05-22 22:00:52 GMT 55.712082 -3.960155 8,000 321 256 0
2022-05-22 22:00:51 GMT 55.711250 -3.959112 8,000 320 255 0
2022-05-22 22:00:50 GMT 55.709335 -3.956410 8,000 317 254 0
2022-05-22 22:00:48 GMT 55.708504 -3.955164 8,000 315 253 0
2022-05-22 22:00:47 GMT 55.707504 -3.953497 8,000 314 253 -64
2022-05-22 22:00:46 GMT 55.705902 -3.950750 8,000 311 251 0
2022-05-22 22:00:44 GMT 55.705154 -3.949327 8,000 310 251 0
2022-05-22 22:00:42 GMT 55.703709 -3.946409 8,000 307 250 0
2022-05-22 22:00:41 GMT 55.702965 -3.944778 8,000 306 248 0
2022-05-22 22:00:40 GMT 55.702240 -3.943093 8,000 305 249 -64
2022-05-22 22:00:38 GMT 55.700729 -3.939264 8,000 303 248 -64
2022-05-22 22:00:37 GMT 55.700089 -3.937600 8,000 302 248 -64
2022-05-22 22:00:36 GMT 55.698357 -3.932762 8,000 302 247 -64
2022-05-22 22:00:34 GMT 55.698357 -3.932762 8,000 302 247 0
2022-05-22 22:00:32 GMT 55.697205 -3.929360 8,000 302 248 0
2022-05-22 22:00:31 GMT 55.696632 -3.927698 8,000 302 248 0
2022-05-22 22:00:30 GMT 55.695332 -3.923836 8,000 302 248 0
2022-05-22 22:00:27 GMT 55.694118 -3.920231 8,000 302 248 0
2022-05-22 22:00:25 GMT 55.692909 -3.916712 8,000 302 248 0
2022-05-22 22:00:24 GMT 55.692307 -3.914878 8,000 301 247 0
2022-05-22 22:00:23 GMT 55.690582 -3.909760 8,000 301 248 0
2022-05-22 22:00:21 GMT 55.690582 -3.909760 8,000 301 248 0
2022-05-22 22:00:20 GMT 55.690018 -3.908053 8,000 301 248 0
2022-05-22 22:00:18 GMT 55.688919 -3.904807 8,000 301 248 0
2022-05-22 22:00:17 GMT 55.688210 -3.902721 8,000 301 248 0
2022-05-22 22:00:16 GMT 55.687042 -3.899288 8,000 301 248 64
2022-05-22 22:00:14 GMT 55.686447 -3.897400 8,000 301 248 0
2022-05-22 22:00:13 GMT 55.686111 -3.896456 8,000 301 248 0
2022-05-22 22:00:12 GMT 55.684345 -3.891220 8,000 301 247 0
2022-05-22 22:00:10 GMT 55.684345 -3.891220 8,000 301 247 0
2022-05-22 22:00:08 GMT 55.683014 -3.887163 8,000 301 247 0
2022-05-22 22:00:07 GMT 55.682434 -3.885469 8,000 301 247 -64
2022-05-22 22:00:06 GMT 55.681877 -3.883753 8,000 301 247 -64
2022-05-22 22:00:05 GMT 55.681229 -3.881919 8,000 301 247 0
2022-05-22 22:00:03 GMT 55.680084 -3.878424 8,000 302 246 0
2022-05-22 22:00:02 GMT 55.678940 -3.875178 8,000 302 246 0
2022-05-22 22:00:00 GMT 55.678337 -3.873367 8,000 302 245 0
2022-05-22 21:59:59 GMT 55.677795 -3.871682 8,000 302 245 0
2022-05-22 21:59:58 GMT 55.675873 -3.866189 8,000 302 246 0
2022-05-22 21:59:56 GMT 55.675873 -3.866189 8,000 302 246 0
2022-05-22 21:59:55 GMT 55.674706 -3.862896 8,000 302 245 0
2022-05-22 21:59:53 GMT 55.674149 -3.861179 8,000 302 245 0
2022-05-22 21:59:51 GMT 55.672939 -3.857746 8,000 302 246 -64
2022-05-22 21:59:50 GMT 55.672333 -3.856030 8,000 302 246 -64
2022-05-22 21:59:49 GMT 55.671661 -3.854037 8,000 302 246 -64
2022-05-22 21:59:45 GMT 55.669556 -3.848128 8,000 301 244 64
2022-05-22 21:59:42 GMT 55.667725 -3.842801 8,000 300 244 64
2022-05-22 21:59:40 GMT 55.664978 -3.834400 8,000 295 243 64
2022-05-22 21:59:37 GMT 55.664978 -3.834400 8,000 295 243 64
2022-05-22 21:59:35 GMT 55.663956 -3.830881 8,000 293 243 0
2022-05-22 21:59:32 GMT 55.662186 -3.823414 8,000 287 241 0
2022-05-22 21:59:29 GMT 55.661114 -3.817577 8,000 284 240 -64
2022-05-22 21:59:26 GMT 55.660557 -3.813457 8,000 279 238 -64
2022-05-22 21:59:23 GMT 55.659626 -3.802729 8,000 271 237 64
2022-05-22 21:59:20 GMT 55.659626 -3.802729 8,000 271 237 64
2022-05-22 21:59:17 GMT 55.659576 -3.799522 8,000 269 236 0
2022-05-22 21:59:13 GMT 55.659672 -3.790026 8,000 263 234 0
2022-05-22 21:59:10 GMT 55.659996 -3.785219 8,000 259 233 0
2022-05-22 21:59:07 GMT 55.660603 -3.779383 8,000 256 232 64
2022-05-22 21:59:05 GMT 55.661316 -3.774719 8,000 248 230 0
2022-05-22 21:59:02 GMT 55.662418 -3.768740 8,000 247 229 0
2022-05-22 21:58:58 GMT 55.664093 -3.761873 8,000 240 228 -64
2022-05-22 21:58:54 GMT 55.665848 -3.756242 8,000 236 227 64
2022-05-22 21:58:51 GMT 55.669682 -3.746510 8,000 230 227 0
2022-05-22 21:58:48 GMT 55.669682 -3.746510 8,000 228 228 0
2022-05-22 21:58:44 GMT 55.672661 -3.740759 8,000 222 228 0
2022-05-22 21:58:41 GMT 55.677406 -3.733549 8,000 218 228 64
2022-05-22 21:58:38 GMT 55.677406 -3.733549 8,000 214 229 0
2022-05-22 21:58:33 GMT 55.682110 -3.728056 8,000 202 231 0
2022-05-22 21:58:30 GMT 55.684433 -3.725947 8,000 203 231 0
2022-05-22 21:58:27 GMT 55.687183 -3.723679 8,000 196 232 0
2022-05-22 21:58:23 GMT 55.694492 -3.719645 8,000 192 234 0
2022-05-22 21:58:20 GMT 55.694492 -3.719645 8,000 191 234 0
2022-05-22 21:58:17 GMT 55.697754 -3.718622 8,000 188 235 0
2022-05-22 21:58:14 GMT 55.702034 -3.717928 8,000 180 240 0
2022-05-22 21:58:11 GMT 55.704849 -3.717790 8,000 174 242 0
2022-05-22 21:58:08 GMT 55.708134 -3.718100 8,000 169 244 0
2022-05-22 21:58:05 GMT 55.712135 -3.719130 8,000 166 245 0
2022-05-22 21:58:01 GMT 55.714874 -3.720204 8,000 160 247 64
2022-05-22 21:57:58 GMT 55.719086 -3.722451 8,000 156 249 0
2022-05-22 21:57:55 GMT 55.722290 -3.724781 8,000 151 252 0
2022-05-22 21:57:51 GMT 55.725357 -3.727541 8,000 147 254 64
2022-05-22 21:57:49 GMT 55.730850 -3.734103 8,000 140 258 0
2022-05-22 21:57:46 GMT 55.730850 -3.734103 8,000 136 261 0
2022-05-22 21:57:43 GMT 55.733597 -3.738181 8,000 131 263 0
2022-05-22 21:57:40 GMT 55.736389 -3.742925 8,000 127 265 0
2022-05-22 21:57:38 GMT 55.738358 -3.747004 8,000 125 267 -64
2022-05-22 21:57:35 GMT 55.740208 -3.751230 8,000 122 269 -128
2022-05-22 21:57:32 GMT 55.742256 -3.756638 8,000 120 269 -64
2022-05-22 21:57:29 GMT 55.744125 -3.762235 8,000 120 268 -64
2022-05-22 21:57:27 GMT 55.745407 -3.765980 8,000 120 268 -128
2022-05-22 21:57:24 GMT 55.747421 -3.772056 8,000 120 268 0
2022-05-22 21:57:21 GMT 55.749889 -3.779554 8,000 121 268 64
2022-05-22 21:57:18 GMT 55.751358 -3.783791 8,000 121 268 64
2022-05-22 21:57:16 GMT 55.752319 -3.786621 8,000 121 269 -64
2022-05-22 21:57:13 GMT 55.754242 -3.792281 8,000 121 270 -64
2022-05-22 21:57:10 GMT 55.756348 -3.798523 8,000 121 270 -128
2022-05-22 21:57:07 GMT 55.758224 -3.804016 8,025 122 271 -64
2022-05-22 21:57:04 GMT 55.760551 -3.810711 8,000 121 270 0
2022-05-22 21:57:00 GMT 55.762833 -3.817320 8,000 121 271 -64
2022-05-22 21:56:57 GMT 55.764954 -3.823242 8,025 121 273 0
2022-05-22 21:56:54 GMT 55.766743 -3.828478 8,025 120 272 0
2022-05-22 21:56:51 GMT 55.768341 -3.833147 8,025 118 274 64
2022-05-22 21:56:48 GMT 55.770584 -3.840221 8,025 112 276 -64
2022-05-22 21:56:46 GMT 55.771637 -3.844216 8,000 104 278 -64
2022-05-22 21:56:43 GMT 55.772839 -3.850107 8,025 104 278 -64
2022-05-22 21:56:40 GMT 55.774155 -3.858032 8,025 99 278 -256
2022-05-22 21:56:37 GMT 55.774796 -3.863609 8,025 96 278 -64
2022-05-22 21:56:34 GMT 55.775215 -3.872595 8,050 88 279 -128
2022-05-22 21:56:30 GMT 55.775261 -3.879375 8,075 82 278 -384
2022-05-22 21:56:27 GMT 55.774796 -3.888216 8,075 78 279 -384
2022-05-22 21:56:23 GMT 55.774097 -3.894739 8,100 72 281 -768
2022-05-22 21:56:20 GMT 55.772469 -3.904352 8,175 65 281 -1472
2022-05-22 21:56:17 GMT 55.771488 -3.908386 8,225 63 282 -1600
2022-05-22 21:56:14 GMT 55.769806 -3.914545 8,325 55 283 -1024
2022-05-22 21:56:10 GMT 55.766785 -3.922951 8,375 47 286 -704
2022-05-22 21:56:07 GMT 55.761749 -3.933438 8,400 43 287 -704
2022-05-22 21:56:04 GMT 55.757710 -3.939457 8,500 35 286 -1408
2022-05-22 21:56:00 GMT 55.754242 -3.943509 8,575 9 283 -1152
2022-05-22 21:55:57 GMT 55.750820 -3.946838 8,625 25 284 -1408
2022-05-22 21:55:54 GMT 55.750820 -3.946838 8,675 22 284 -1216
2022-05-22 21:55:51 GMT 55.742981 -3.951999 8,775 14 284 -1216
2022-05-22 21:55:48 GMT 55.742981 -3.951999 8,800 11 283 -1216
2022-05-22 21:55:46 GMT 55.741138 -3.952932 8,850 6 283 -1152
2022-05-22 21:55:43 GMT 55.737213 -3.954079 8,875 2 282 -1152
2022-05-22 21:55:40 GMT 55.733734 -3.954477 8,950 350 278 -1600
2022-05-22 21:55:37 GMT 55.729248 -3.954496 9,000 355 280 -1344
2022-05-22 21:55:34 GMT 55.725403 -3.953746 9,075 349 277 -1600
2022-05-22 21:55:30 GMT 55.720051 -3.951817 9,200 344 273 -1792
2022-05-22 21:55:27 GMT 55.717072 -3.950334 9,275 341 271 -1792
2022-05-22 21:55:24 GMT 55.712906 -3.947837 9,400 338 270 -1408
2022-05-22 21:55:21 GMT 55.710087 -3.945723 9,450 337 269 -1344
2022-05-22 21:55:19 GMT 55.706589 -3.943093 9,500 337 269 -1344
2022-05-22 21:55:16 GMT 55.703663 -3.940916 9,625 337 271 -1280
2022-05-22 21:55:13 GMT 55.696541 -3.935509 9,700 337 271 -1216
2022-05-22 21:55:10 GMT 55.696541 -3.935509 9,700 337 271 -1088
2022-05-22 21:55:07 GMT 55.693562 -3.933191 9,750 337 272 -960
2022-05-22 21:55:04 GMT 55.689926 -3.930442 9,775 337 273 -896
2022-05-22 21:55:01 GMT 55.687416 -3.928471 9,850 337 274 -1024
2022-05-22 21:54:59 GMT 55.684708 -3.926364 9,850 337 274 -1024
2022-05-22 21:54:56 GMT 55.675220 -3.919115 9,975 337 275 -1408
2022-05-22 21:54:51 GMT 55.672348 -3.916876 10,050 337 275 -1472
2022-05-22 21:54:49 GMT 55.672348 -3.916876 10,100 337 276 -1472
2022-05-22 21:54:46 GMT 55.666122 -3.912132 10,150 337 276 -1472
2022-05-22 21:54:44 GMT 55.666122 -3.912132 10,225 337 276 -1408
2022-05-22 21:54:41 GMT 55.660789 -3.908043 10,300 337 277 -1344
2022-05-22 21:54:39 GMT 55.660789 -3.908043 10,325 337 278 -1280
2022-05-22 21:54:36 GMT 55.657425 -3.905390 10,375 337 279 -1280
2022-05-22 21:54:33 GMT 55.654449 -3.903143 10,500 337 279 -1216
2022-05-22 21:54:30 GMT 55.650593 -3.900232 10,475 337 279 -1216
2022-05-22 21:54:27 GMT 55.646683 -3.897228 10,575 337 281 -1152
2022-05-22 21:54:25 GMT 55.644310 -3.895426 10,650 337 283 -1280
2022-05-22 21:54:21 GMT 55.640030 -3.892240 10,700 337 283 -1344
2022-05-22 21:54:19 GMT 55.637146 -3.889992 10,725 337 284 -1344
2022-05-22 21:54:16 GMT 55.630249 -3.884783 10,825 337 284 -1280
2022-05-22 21:54:13 GMT 55.630249 -3.884783 10,875 337 284 -1344
2022-05-22 21:54:10 GMT 55.621262 -3.878007 10,975 337 284 -1536
2022-05-22 21:54:06 GMT 55.621262 -3.878007 11,025 337 284 -1664
2022-05-22 21:54:02 GMT 55.617371 -3.875011 11,125 337 283 -1664
2022-05-22 21:53:59 GMT 55.612652 -3.871393 11,250 337 283 -1728
2022-05-22 21:53:56 GMT 55.608994 -3.868602 11,300 337 283 -1728
2022-05-22 21:53:52 GMT 55.605515 -3.865856 11,425 337 282 -1920
2022-05-22 21:53:50 GMT 55.602402 -3.863442 11,550 337 281 -1856
2022-05-22 21:53:47 GMT 55.595352 -3.858032 11,650 337 281 -1792
2022-05-22 21:53:44 GMT 55.595352 -3.858032 11,700 337 281 -1792
2022-05-22 21:53:41 GMT 55.591782 -3.855286 11,775 337 279 -1728
2022-05-22 21:53:39 GMT 55.586491 -3.851309 11,850 337 280 -1664
2022-05-22 21:53:36 GMT 55.583496 -3.849043 11,950 337 280 -1472
2022-05-22 21:53:34 GMT 55.583496 -3.849043 12,000 337 280 -1344
2022-05-22 21:53:31 GMT 55.579788 -3.846214 12,025 337 281 -1280
2022-05-22 21:53:29 GMT 55.576996 -3.844099 12,075 337 282 -1152
2022-05-22 21:53:26 GMT 55.573875 -3.841696 12,150 337 284 -896
2022-05-22 21:53:23 GMT 55.570129 -3.838806 12,175 337 285 -768
2022-05-22 21:53:20 GMT 55.565872 -3.835560 12,225 337 286 -896
2022-05-22 21:53:17 GMT 55.560467 -3.831482 12,275 337 287 -960
2022-05-22 21:53:15 GMT 55.560467 -3.831482 12,300 337 288 -1024
2022-05-22 21:53:12 GMT 55.557358 -3.829068 12,325 337 288 -1152
2022-05-22 21:53:09 GMT 55.553486 -3.826160 12,400 337 288 -1344
2022-05-22 21:53:06 GMT 55.546875 -3.821096 12,525 337 288 -1536
2022-05-22 21:53:04 GMT 55.546875 -3.821096 12,525 337 288 -1600
2022-05-22 21:53:01 GMT 55.543533 -3.818581 12,600 337 288 -1664
2022-05-22 21:52:59 GMT 55.540466 -3.816251 12,675 337 288 -1600
2022-05-22 21:52:56 GMT 55.537170 -3.813754 12,775 337 288 -1536
2022-05-22 21:52:53 GMT 55.533371 -3.810841 12,825 337 288 -1536
2022-05-22 21:52:50 GMT 55.529743 -3.808136 12,925 337 289 -1408
2022-05-22 21:52:46 GMT 55.525406 -3.804848 12,975 337 289 -1216
2022-05-22 21:52:44 GMT 55.519081 -3.800068 13,075 337 290 -1280
2022-05-22 21:52:41 GMT 55.516850 -3.798437 13,100 337 290 -1280
2022-05-22 21:52:36 GMT 55.512589 -3.795194 13,225 337 290 -1344
2022-05-22 21:52:33 GMT 55.508236 -3.791828 13,275 337 290 -1344
2022-05-22 21:52:30 GMT 55.505165 -3.789511 13,325 337 291 -1280
2022-05-22 21:52:28 GMT 55.502930 -3.787794 13,400 337 292 -1216
2022-05-22 21:52:25 GMT 55.498600 -3.784533 13,450 337 292 -1152
2022-05-22 21:52:22 GMT 55.495853 -3.782473 13,475 337 292 -1152
2022-05-22 21:52:19 GMT 55.491756 -3.779383 13,550 337 294 -1152
2022-05-22 21:52:16 GMT 55.484848 -3.774137 13,600 337 294 -1152
2022-05-22 21:52:13 GMT 55.484848 -3.774137 13,700 337 295 -1280
2022-05-22 21:52:10 GMT 55.480537 -3.770800 13,725 337 297 -1280
2022-05-22 21:52:07 GMT 55.476334 -3.767478 13,800 337 296 -1408
2022-05-22 21:52:05 GMT 55.474594 -3.766147 13,800 337 296 -1408
2022-05-22 21:52:02 GMT 55.470249 -3.762817 13,925 337 296 -1920
2022-05-22 21:51:59 GMT 55.467316 -3.760570 14,000 337 296 -1984
2022-05-22 21:51:56 GMT 55.463223 -3.757410 14,100 337 295 -1984
2022-05-22 21:51:54 GMT 55.460037 -3.754994 14,200 337 296 -1856
2022-05-22 21:51:51 GMT 55.457382 -3.752996 14,250 337 296 -1664
2022-05-22 21:51:49 GMT 55.454468 -3.750715 14,300 337 296 -1536
2022-05-22 21:51:46 GMT 55.450790 -3.747969 14,375 337 295 -1408
2022-05-22 21:51:44 GMT 55.448227 -3.746088 14,425 337 296 -1472
2022-05-22 21:51:41 GMT 55.443695 -3.742622 14,525 337 297 -1408
2022-05-22 21:51:39 GMT 55.441761 -3.741178 14,550 337 297 -1408
2022-05-22 21:51:36 GMT 55.438084 -3.738431 14,650 337 298 -1152
2022-05-22 21:51:32 GMT 55.432545 -3.734270 14,725 337 298 -1088
2022-05-22 21:51:29 GMT 55.428680 -3.731393 14,775 338 299 -1024
2022-05-22 21:51:26 GMT 55.425419 -3.728943 14,800 338 300 -1088
2022-05-22 21:51:22 GMT 55.419510 -3.724615 14,900 338 302 -1152
2022-05-22 21:51:20 GMT 55.417053 -3.722750 14,975 338 302 -1152
2022-05-22 21:51:16 GMT 55.411549 -3.718706 15,025 338 302 -1088
2022-05-22 21:51:12 GMT 55.407078 -3.715293 15,150 337 305 -1280
2022-05-22 21:51:09 GMT 55.403229 -3.712490 15,125 337 305 -1088
2022-05-22 21:51:06 GMT 55.394882 -3.706138 15,250 337 305 -1280
2022-05-22 21:51:03 GMT 55.394882 -3.706138 15,250 337 305 -1472
2022-05-22 21:51:00 GMT 55.391018 -3.703225 15,350 337 305 -1728
2022-05-22 21:50:58 GMT 55.388489 -3.701262 15,400 337 304 -1792
2022-05-22 21:50:55 GMT 55.385925 -3.699323 15,450 337 304 -1792
2022-05-22 21:50:53 GMT 55.381474 -3.695901 15,550 337 304 -1728
2022-05-22 21:50:50 GMT 55.378326 -3.693507 15,625 337 304 -1536
2022-05-22 21:50:48 GMT 55.375488 -3.691325 15,675 337 304 -1472
2022-05-22 21:50:45 GMT 55.372787 -3.689225 15,725 337 304 -1408
2022-05-22 21:50:42 GMT 55.368393 -3.685913 15,850 337 306 -1024
2022-05-22 21:50:39 GMT 55.365227 -3.683499 15,875 337 306 -1024
2022-05-22 21:50:36 GMT 55.360474 -3.679935 15,925 337 307 -1024
2022-05-22 21:50:32 GMT 55.355255 -3.676058 16,000 337 311 -576
2022-05-22 21:50:29 GMT 55.350983 -3.672846 16,075 337 314 -832
2022-05-22 21:50:26 GMT 55.347610 -3.670322 16,050 337 313 -640
2022-05-22 21:50:24 GMT 55.344887 -3.668268 16,100 338 315 -1152
2022-05-22 21:50:21 GMT 55.340508 -3.665022 16,100 338 315 -1408
2022-05-22 21:50:19 GMT 55.338409 -3.663456 16,200 337 312 -2112
2022-05-22 21:50:16 GMT 55.334290 -3.660386 16,300 337 314 -2048
2022-05-22 21:50:13 GMT 55.329521 -3.656783 16,375 337 312 -2112
2022-05-22 21:50:11 GMT 55.327148 -3.655035 16,400 337 313 -2112
2022-05-22 21:50:08 GMT 55.322910 -3.651789 16,550 337 312 -2048
2022-05-22 21:50:05 GMT 55.319138 -3.648996 16,600 337 311 -1984
2022-05-22 21:50:02 GMT 55.315292 -3.646088 16,725 337 310 -1920
2022-05-22 21:50:00 GMT 55.312775 -3.644149 16,800 337 310 -1920
2022-05-22 21:49:58 GMT 55.309551 -3.641718 16,875 337 310 -1920
2022-05-22 21:49:55 GMT 55.306320 -3.639221 16,925 337 310 -1920
2022-05-22 21:49:52 GMT 55.298378 -3.633145 17,075 337 309 -1856
2022-05-22 21:49:49 GMT 55.298378 -3.633145 17,175 337 309 -1856
2022-05-22 21:49:45 GMT 55.293091 -3.629123 17,250 337 309 -1856
2022-05-22 21:49:41 GMT 55.287827 -3.625165 17,475 337 309 -1792
2022-05-22 21:49:38 GMT 55.283947 -3.622242 17,475 337 309 -1792
2022-05-22 21:49:35 GMT 55.279900 -3.619163 17,600 337 309 -1792
2022-05-22 21:49:32 GMT 55.272171 -3.613420 17,675 337 308 -1856
2022-05-22 21:49:29 GMT 55.272171 -3.613420 17,800 337 308 -1792
2022-05-22 21:49:26 GMT 55.264954 -3.608010 17,900 337 308 -1664
2022-05-22 21:49:21 GMT 55.259045 -3.603599 18,000 337 309 -1600
2022-05-22 21:49:19 GMT 55.259045 -3.603599 18,100 337 309 -1600
2022-05-22 21:49:16 GMT 55.255051 -3.600607 18,125 338 310 -1536
2022-05-22 21:49:14 GMT 55.252338 -3.598605 18,175 338 310 -1536
2022-05-22 21:49:11 GMT 55.248459 -3.595761 18,250 338 311 -1408
2022-05-22 21:49:06 GMT 55.241631 -3.590781 18,350 338 312 -1152
2022-05-22 21:49:04 GMT 55.238979 -3.588784 18,400 337 314 -1088
2022-05-22 21:49:02 GMT 55.237488 -3.587702 18,400 337 315 -1024
2022-05-22 21:48:59 GMT 55.233673 -3.584855 18,450 337 315 -1088
2022-05-22 21:48:56 GMT 55.228317 -3.580816 18,550 337 316 -1472
2022-05-22 21:48:54 GMT 55.226131 -3.579213 18,600 337 316 -1664
2022-05-22 21:48:51 GMT 55.218658 -3.573626 18,750 337 316 -1920
2022-05-22 21:48:46 GMT 55.215096 -3.570973 18,850 337 317 -1728
2022-05-22 21:48:44 GMT 55.212341 -3.568860 18,900 337 317 -1472
2022-05-22 21:48:42 GMT 55.208904 -3.566312 18,975 337 318 -1280
2022-05-22 21:48:39 GMT 55.205200 -3.563529 19,000 337 318 -1344
2022-05-22 21:48:35 GMT 55.197128 -3.557490 19,125 337 322 -1024
2022-05-22 21:48:33 GMT 55.197128 -3.557490 19,125 337 322 -1024
2022-05-22 21:48:30 GMT 55.193665 -3.554885 19,175 337 325 -1344
2022-05-22 21:48:26 GMT 55.187347 -3.550200 19,300 337 324 -1344
2022-05-22 21:48:23 GMT 55.184837 -3.548251 19,300 337 324 -1344
2022-05-22 21:48:20 GMT 55.179520 -3.544303 19,525 337 325 -1344
2022-05-22 21:48:16 GMT 55.175217 -3.541071 19,500 337 327 -1344
2022-05-22 21:48:14 GMT 55.169952 -3.537113 19,575 337 328 -1472
2022-05-22 21:48:11 GMT 55.167149 -3.535018 19,675 337 328 -1472
2022-05-22 21:48:08 GMT 55.163589 -3.532347 19,675 337 328 -1472
2022-05-22 21:48:05 GMT 55.159378 -3.529277 19,725 337 328 -1472
2022-05-22 21:48:03 GMT 55.156036 -3.526773 19,800 337 329 -1408
2022-05-22 21:48:00 GMT 55.151089 -3.523032 19,875 337 330 -1472
2022-05-22 21:47:56 GMT 55.146378 -3.519503 19,975 337 330 -1536
2022-05-22 21:47:54 GMT 55.142899 -3.516918 20,025 337 331 -1536
2022-05-22 21:47:51 GMT 55.140289 -3.514959 20,100 337 331 -1472
2022-05-22 21:47:49 GMT 55.136749 -3.512296 21,250 337 332 -1408
2022-05-22 21:47:46 GMT 55.131912 -3.508678 20,200 337 332 -1344
2022-05-22 21:47:44 GMT 55.129299 -3.506719 20,250 337 333 -1344
2022-05-22 21:47:42 GMT 55.126236 -3.504477 20,325 337 334 -1280
2022-05-22 21:47:39 GMT 55.122505 -3.501726 20,325 337 334 -1280
2022-05-22 21:47:36 GMT 55.118080 -3.498396 20,425 337 335 -1408
2022-05-22 21:47:34 GMT 55.114746 -3.495914 20,475 337 335 -1408
2022-05-22 21:47:31 GMT 55.111240 -3.493236 20,525 337 336 -1472
2022-05-22 21:47:28 GMT 55.102478 -3.486705 20,650 337 336 -1536
2022-05-22 21:47:25 GMT 55.102478 -3.486705 20,675 337 337 -1536
2022-05-22 21:47:23 GMT 55.100327 -3.485089 20,775 337 338 -1536
2022-05-22 21:47:21 GMT 55.096893 -3.482504 20,775 337 338 -1536
2022-05-22 21:47:19 GMT 55.094055 -3.480323 20,850 337 338 -1536
2022-05-22 21:47:16 GMT 55.089081 -3.476673 20,925 337 339 -1408
2022-05-22 21:47:14 GMT 55.085495 -3.473927 21,000 337 341 -1280
2022-05-22 21:47:11 GMT 55.082611 -3.471763 21,050 337 341 -1216
2022-05-22 21:47:08 GMT 55.078766 -3.468933 21,125 337 342 -1088
2022-05-22 21:47:05 GMT 55.073902 -3.465354 21,125 338 344 -1024
2022-05-22 21:47:03 GMT 55.070938 -3.463117 21,175 338 346 -960
2022-05-22 21:47:01 GMT 55.066956 -3.460209 21,275 338 347 -896
2022-05-22 21:46:58 GMT 55.063293 -3.457543 21,275 338 348 -832
2022-05-22 21:46:55 GMT 55.058716 -3.454150 21,300 337 349 -832
2022-05-22 21:46:53 GMT 55.055878 -3.452050 21,350 337 352 -832
2022-05-22 21:46:50 GMT 55.051468 -3.448792 21,350 337 353 -832
2022-05-22 21:46:47 GMT 55.043694 -3.442965 21,450 337 355 -832
2022-05-22 21:46:45 GMT 55.040863 -3.440902 21,450 337 357 -768
2022-05-22 21:46:43 GMT 55.040863 -3.440902 21,450 337 359 -768
2022-05-22 21:46:40 GMT 55.036385 -3.437555 21,525 337 362 -768
2022-05-22 21:46:37 GMT 55.031960 -3.434226 21,550 337 365 -768
2022-05-22 21:46:34 GMT 55.027397 -3.430814 21,575 337 363 -768
2022-05-22 21:46:32 GMT 55.023148 -3.427573 21,600 337 365 -768
2022-05-22 21:46:29 GMT 55.019440 -3.424826 21,625 337 368 -768
2022-05-22 21:46:25 GMT 55.011570 -3.418912 21,725 337 371 -832
2022-05-22 21:46:22 GMT 55.008404 -3.416582 21,725 337 372 -832
2022-05-22 21:46:18 GMT 55.001797 -3.411588 21,900 337 375 -896
2022-05-22 21:46:15 GMT 54.997421 -3.408347 21,825 337 377 -960
2022-05-22 21:46:13 GMT 54.994400 -3.406085 21,875 338 379 -1024
2022-05-22 21:46:11 GMT 54.991791 -3.404227 21,925 338 380 -1024
2022-05-22 21:46:08 GMT 54.981544 -3.396690 21,975 338 382 -1024
2022-05-22 21:46:05 GMT 54.981544 -3.396690 22,000 338 384 -1024
2022-05-22 21:46:02 GMT 54.977509 -3.393806 22,100 338 387 -960
2022-05-22 21:46:00 GMT 54.973251 -3.390736 22,100 338 389 -896
2022-05-22 21:45:58 GMT 54.970699 -3.388866 22,150 338 389 -896
2022-05-22 21:45:55 GMT 54.963318 -3.383547 22,175 337 391 -896
2022-05-22 21:45:52 GMT 54.959839 -3.380962 22,225 334 392 -1024
2022-05-22 21:45:49 GMT 54.954357 -3.376548 22,300 333 392 -1088
2022-05-22 21:45:46 GMT 54.950447 -3.373219 22,375 330 391 -1152
2022-05-22 21:45:44 GMT 54.945740 -3.368925 22,375 330 391 -1152
2022-05-22 21:45:41 GMT 54.939011 -3.362140 22,425 327 391 -1152
2022-05-22 21:45:39 GMT 54.939011 -3.362140 22,450 327 391 -1152
2022-05-22 21:45:36 GMT 54.929779 -3.351496 22,550 326 392 -1152
2022-05-22 21:45:33 GMT 54.929779 -3.351496 22,575 323 391 -1344
2022-05-22 21:45:31 GMT 54.927521 -3.348649 22,950 323 390 -1792
2022-05-22 21:45:28 GMT 54.918934 -3.337347 22,725 323 391 -1984
2022-05-22 21:45:25 GMT 54.915535 -3.332769 22,825 323 392 -2240
2022-05-22 21:45:23 GMT 54.915535 -3.332769 22,925 323 392 -2240
2022-05-22 21:45:21 GMT 54.913254 -3.329690 22,925 323 392 -2240
2022-05-22 21:45:18 GMT 54.903305 -3.316336 23,100 323 392 -2240
2022-05-22 21:45:15 GMT 54.903305 -3.316336 23,175 323 392 -2240
2022-05-22 21:45:12 GMT 54.899754 -3.311629 23,400 323 393 -2112
2022-05-22 21:45:09 GMT 54.891220 -3.300180 23,475 323 394 -1984
2022-05-22 21:45:06 GMT 54.891220 -3.300180 23,550 323 394 -1984
2022-05-22 21:45:03 GMT 54.885910 -3.293071 23,625 323 394 -1920
2022-05-22 21:45:00 GMT 54.883087 -3.289323 23,625 323 394 -1856
2022-05-22 21:44:57 GMT 54.877316 -3.281583 23,800 323 396 -1856
2022-05-22 21:44:54 GMT 54.874287 -3.277421 23,850 323 397 -1856
2022-05-22 21:44:52 GMT 54.871170 -3.273280 24,000 323 398 -1920
2022-05-22 21:44:49 GMT 54.866821 -3.267382 24,000 323 399 -1984
2022-05-22 21:44:46 GMT 54.862335 -3.261324 24,125 323 399 -1920
2022-05-22 21:44:44 GMT 54.856796 -3.253892 24,225 323 400 -2112
2022-05-22 21:44:42 GMT 54.856796 -3.253892 24,300 322 401 -2112
2022-05-22 21:44:39 GMT 54.852364 -3.247875 24,375 322 401 -2176
2022-05-22 21:44:36 GMT 54.847984 -3.241966 24,450 322 401 -2240
2022-05-22 21:44:33 GMT 54.843472 -3.235807 24,575 322 401 -2240
2022-05-22 21:44:31 GMT 54.837185 -3.227317 24,700 322 402 -2240
2022-05-22 21:44:29 GMT 54.837185 -3.227317 24,750 322 402 -2304
2022-05-22 21:44:26 GMT 54.832855 -3.221418 24,800 322 402 -2240
2022-05-22 21:44:24 GMT 54.830482 -3.218162 24,900 322 403 -2048
2022-05-22 21:44:22 GMT 54.827316 -3.213905 25,025 323 404 -1920
2022-05-22 21:44:19 GMT 54.823269 -3.208424 25,150 323 406 -1856
2022-05-22 21:44:16 GMT 54.818707 -3.202265 25,150 323 406 -1920
2022-05-22 21:44:13 GMT 54.814144 -3.196023 25,300 322 407 -2048
2022-05-22 21:44:10 GMT 54.809532 -3.189864 25,425 322 407 -2176
2022-05-22 21:44:07 GMT 54.804646 -3.183205 25,475 322 407 -2304
2022-05-22 21:44:05 GMT 54.802643 -3.180542 25,525 322 407 -2240
2022-05-22 21:44:02 GMT 54.797928 -3.174079 25,650 322 407 -2560
2022-05-22 21:43:59 GMT 54.793488 -3.168102 25,800 322 407 -2624
2022-05-22 21:43:57 GMT 54.790123 -3.163563 25,900 322 407 -2560
2022-05-22 21:43:55 GMT 54.786400 -3.158569 26,000 322 407 -2496
2022-05-22 21:43:52 GMT 54.783325 -3.154325 26,250 323 408 -2368
2022-05-22 21:43:50 GMT 54.780346 -3.150330 26,275 322 408 -2176
2022-05-22 21:43:47 GMT 54.775223 -3.143382 26,300 322 408 -2240
2022-05-22 21:43:44 GMT 54.771378 -3.138212 26,400 322 408 -2176
2022-05-22 21:43:42 GMT 54.765701 -3.130538 26,475 322 410 -1920
2022-05-22 21:43:40 GMT 54.765701 -3.130538 26,525 322 410 -1984
2022-05-22 21:43:37 GMT 54.759888 -3.122621 26,650 322 411 -1856
2022-05-22 21:43:34 GMT 54.757114 -3.118869 26,700 322 412 -1792
2022-05-22 21:43:32 GMT 54.749725 -3.108889 26,800 322 413 -1920
2022-05-22 21:43:30 GMT 54.745972 -3.103799 26,925 323 414 -1920
2022-05-22 21:43:27 GMT 54.745972 -3.103799 26,925 323 414 -1984
2022-05-22 21:43:25 GMT 54.741940 -3.098394 27,050 323 415 -2048
2022-05-22 21:43:22 GMT 54.738876 -3.094267 27,100 323 416 -2048
2022-05-22 21:43:20 GMT 54.730629 -3.083163 27,425 325 423 -2304
2022-05-22 21:43:17 GMT 54.730629 -3.083163 27,275 323 417 -1920
2022-05-22 21:43:15 GMT 54.722061 -3.071677 27,425 323 420 -1920
2022-05-22 21:43:12 GMT 54.722061 -3.071677 27,475 323 419 -1920
2022-05-22 21:43:09 GMT 54.718430 -3.066767 28,275 323 420 -1984
2022-05-22 21:43:06 GMT 54.713821 -3.060608 27,650 324 421 -2048
2022-05-22 21:43:03 GMT 54.707630 -3.052535 27,775 325 423 -2304
2022-05-22 21:43:00 GMT 54.704544 -3.048625 27,900 325 423 -2304
2022-05-22 21:42:58 GMT 54.700607 -3.043617 28,025 326 424 -2304
2022-05-22 21:42:55 GMT 54.690674 -3.031984 28,125 327 426 -2240
2022-05-22 21:42:52 GMT 54.690674 -3.031984 28,200 329 428 -2176
2022-05-22 21:42:49 GMT 54.685684 -3.026572 28,275 330 429 -2176
2022-05-22 21:42:46 GMT 54.682213 -3.022905 28,350 331 430 -2176
2022-05-22 21:42:44 GMT 54.678394 -3.019159 28,475 332 430 -2304
2022-05-22 21:42:41 GMT 54.672344 -3.013250 28,550 333 431 -2304
2022-05-22 21:42:39 GMT 54.669689 -3.010837 28,600 333 431 -2304
2022-05-22 21:42:36 GMT 54.664673 -3.006376 28,800 334 432 -2304
2022-05-22 21:42:34 GMT 54.660233 -3.002418 28,875 334 432 -2240
2022-05-22 21:42:31 GMT 54.654610 -2.997520 28,950 334 432 -2240
2022-05-22 21:42:29 GMT 54.650253 -2.993694 28,950 334 432 -2240
2022-05-22 21:42:26 GMT 54.646866 -2.990705 29,175 334 433 -2176
2022-05-22 21:42:24 GMT 54.642380 -2.986827 29,250 334 434 -2112
2022-05-22 21:42:21 GMT 54.637024 -2.982142 29,300 334 435 -2112
2022-05-22 21:42:19 GMT 54.632721 -2.978426 29,375 334 436 -2048
2022-05-22 21:42:16 GMT 54.623512 -2.970304 29,500 334 436 -1984
2022-05-22 21:42:14 GMT 54.623512 -2.970304 29,550 334 438 -1984
2022-05-22 21:42:11 GMT 54.618896 -2.966309 29,650 334 438 -1984
2022-05-22 21:42:08 GMT 54.612526 -2.960732 29,775 334 439 -1984
2022-05-22 21:42:05 GMT 54.608826 -2.957503 29,825 334 439 -2048
2022-05-22 21:42:02 GMT 54.603195 -2.952656 30,000 334 440 -2112
2022-05-22 21:41:59 GMT 54.598114 -2.948294 30,050 334 440 -2112
2022-05-22 21:41:56 GMT 54.591854 -2.942838 30,125 334 441 -2112
2022-05-22 21:41:54 GMT 54.589005 -2.940378 30,200 334 441 -2112
2022-05-22 21:41:52 GMT 54.582642 -2.934884 30,300 334 442 -2112
2022-05-22 21:41:50 GMT 54.582642 -2.934884 30,425 334 444 -2112
2022-05-22 21:41:48 GMT 54.572937 -2.926564 30,500 334 444 -2112
2022-05-22 21:41:45 GMT 54.572937 -2.926564 30,500 334 444 -2112
2022-05-22 21:41:42 GMT 54.566345 -2.920828 30,700 334 445 -2048
2022-05-22 21:41:39 GMT 54.559937 -2.915335 30,750 334 446 -2048
2022-05-22 21:41:36 GMT 54.555405 -2.911460 30,850 334 446 -2048
2022-05-22 21:41:34 GMT 54.551834 -2.908307 30,925 334 447 -2048
2022-05-22 21:41:32 GMT 54.547306 -2.904386 31,000 334 448 -2048
2022-05-22 21:41:29 GMT 54.542816 -2.900471 31,275 334 448 -2112
2022-05-22 21:41:26 GMT 54.536598 -2.895147 31,200 334 449 -2176
2022-05-22 21:41:24 GMT 54.533852 -2.892733 31,250 334 449 -2240
2022-05-22 21:41:22 GMT 54.528683 -2.888239 31,350 334 450 -2368
2022-05-22 21:41:19 GMT 54.523842 -2.883994 31,475 334 450 -2560
2022-05-22 21:41:16 GMT 54.517933 -2.878917 31,625 334 450 -2752
2022-05-22 21:41:14 GMT 54.514297 -2.875752 31,650 334 449 -2816
2022-05-22 21:41:11 GMT 54.510590 -2.872521 31,800 334 449 -3072
2022-05-22 21:41:09 GMT 54.504944 -2.867598 33,000 334 447 -2880
2022-05-22 21:41:06 GMT 54.499512 -2.862908 32,125 334 449 -3072
2022-05-22 21:41:02 GMT 54.485718 -2.850952 32,375 334 448 -3072
2022-05-22 21:40:59 GMT 54.485718 -2.850952 32,525 334 448 -3008
2022-05-22 21:40:56 GMT 54.481018 -2.846913 32,625 334 447 -2944
2022-05-22 21:40:52 GMT 54.473831 -2.840693 32,800 334 447 -2816
2022-05-22 21:40:50 GMT 54.471146 -2.838384 32,875 334 447 -2816
2022-05-22 21:40:48 GMT 54.466396 -2.834223 33,000 334 447 -2752
2022-05-22 21:40:45 GMT 54.460785 -2.829303 33,475 334 447 -2496
2022-05-22 21:40:42 GMT 54.455364 -2.824652 33,250 334 446 -2112
2022-05-22 21:40:40 GMT 54.452499 -2.822113 33,375 334 446 -2112
2022-05-22 21:40:38 GMT 54.447453 -2.817743 33,425 334 446 -2048
2022-05-22 21:40:35 GMT 54.442841 -2.813832 33,575 334 446 -1728
2022-05-22 21:40:32 GMT 54.438354 -2.809915 33,600 334 446 -1600
2022-05-22 21:40:30 GMT 54.434368 -2.806507 33,625 334 446 -1472
2022-05-22 21:40:28 GMT 54.430134 -2.802845 33,675 334 446 -1408
2022-05-22 21:40:25 GMT 54.418915 -2.793191 33,775 334 447 -896
2022-05-22 21:40:22 GMT 54.416245 -2.790850 33,825 334 447 -896
2022-05-22 21:40:20 GMT 54.416245 -2.790850 33,825 334 447 -896
2022-05-22 21:40:18 GMT 54.405647 -2.781705 33,875 334 447 -768
2022-05-22 21:40:15 GMT 54.405647 -2.781705 33,900 334 447 -640
2022-05-22 21:40:12 GMT 54.400852 -2.777627 33,925 334 447 -448
2022-05-22 21:40:10 GMT 54.397064 -2.774371 33,925 334 447 -384
2022-05-22 21:40:08 GMT 54.393078 -2.770968 33,950 334 447 -384
2022-05-22 21:40:05 GMT 54.388550 -2.767020 33,950 334 447 -256
2022-05-22 21:40:03 GMT 54.383862 -2.762978 33,975 334 447 -64
2022-05-22 21:40:00 GMT 54.379303 -2.759103 33,975 334 447 -64
2022-05-22 21:39:58 GMT 54.373627 -2.754256 33,975 334 446 0
2022-05-22 21:39:55 GMT 54.368820 -2.750136 33,975 334 446 0
2022-05-22 21:39:53 GMT 54.364494 -2.746416 33,975 334 446 0
2022-05-22 21:39:50 GMT 54.361004 -2.743419 33,975 334 446 0
2022-05-22 21:39:48 GMT 54.356277 -2.739392 33,975 334 446 0
2022-05-22 21:39:45 GMT 54.349922 -2.733931 33,975 334 446 0
2022-05-22 21:39:42 GMT 54.344696 -2.729376 33,975 334 446 0
2022-05-22 21:39:40 GMT 54.341869 -2.726940 33,975 334 446 -64
2022-05-22 21:39:37 GMT 54.336143 -2.722029 33,975 334 446 -64
2022-05-22 21:39:34 GMT 54.330650 -2.717285 33,975 334 446 -64
2022-05-22 21:39:31 GMT 54.325195 -2.712654 34,000 334 446 0
2022-05-22 21:39:28 GMT 54.318741 -2.707161 34,000 334 445 0
2022-05-22 21:39:25 GMT 54.309841 -2.699474 34,000 334 446 0
2022-05-22 21:39:20 GMT 54.299133 -2.690402 34,000 334 446 0
2022-05-22 21:39:18 GMT 54.299133 -2.690402 34,000 334 446 0
2022-05-22 21:39:15 GMT 54.295460 -2.687239 34,000 334 446 0
2022-05-22 21:39:13 GMT 54.290150 -2.682662 34,000 334 446 0
2022-05-22 21:39:10 GMT 54.286148 -2.679291 34,000 334 446 0
2022-05-22 21:39:08 GMT 54.283306 -2.676835 34,000 334 446 0
2022-05-22 21:39:05 GMT 54.277679 -2.672032 34,000 334 446 0
2022-05-22 21:39:02 GMT 54.267853 -2.663538 34,000 334 446 0
2022-05-22 21:39:00 GMT 54.267853 -2.663538 34,000 334 446 0
2022-05-22 21:38:57 GMT 54.262207 -2.658770 34,000 334 446 0
2022-05-22 21:38:54 GMT 54.255703 -2.653117 34,000 334 446 0
2022-05-22 21:38:51 GMT 54.251907 -2.649902 34,000 334 446 0
2022-05-22 21:38:49 GMT 54.242157 -2.641584 33,975 334 447 0
2022-05-22 21:38:46 GMT 54.236618 -2.636797 33,975 334 447 0
2022-05-22 21:38:44 GMT 54.236618 -2.636797 34,000 334 447 0
2022-05-22 21:38:41 GMT 54.232727 -2.633501 34,000 334 447 0
2022-05-22 21:38:39 GMT 54.228836 -2.630205 33,975 334 447 0
2022-05-22 21:38:36 GMT 54.219818 -2.622515 34,000 334 447 0
2022-05-22 21:38:34 GMT 54.219818 -2.622515 34,000 334 447 0
2022-05-22 21:38:31 GMT 54.213989 -2.617573 33,975 334 447 0
2022-05-22 21:38:29 GMT 54.211899 -2.615766 33,975 334 447 0
2022-05-22 21:38:27 GMT 54.207275 -2.611843 33,975 334 446 64
2022-05-22 21:38:24 GMT 54.200821 -2.606349 33,975 334 446 64
2022-05-22 21:38:21 GMT 54.191833 -2.598751 33,975 334 446 64
2022-05-22 21:38:19 GMT 54.191833 -2.598751 33,975 334 447 64
2022-05-22 21:38:16 GMT 54.185120 -2.593009 33,975 334 447 0
2022-05-22 21:38:13 GMT 54.174843 -2.584291 33,975 334 447 0
2022-05-22 21:38:10 GMT 54.174843 -2.584291 33,975 334 447 0
2022-05-22 21:38:06 GMT 54.169968 -2.580139 33,975 334 447 0
2022-05-22 21:38:04 GMT 54.164322 -2.575325 33,975 334 447 0
2022-05-22 21:38:01 GMT 54.158409 -2.570316 33,975 334 448 0
2022-05-22 21:37:58 GMT 54.147400 -2.560913 33,975 334 448 -64
2022-05-22 21:37:55 GMT 54.144470 -2.558402 33,975 334 448 -64
2022-05-22 21:37:53 GMT 54.144470 -2.558402 33,975 334 448 -64
2022-05-22 21:37:50 GMT 54.135956 -2.551182 33,975 334 448 -64
2022-05-22 21:37:48 GMT 54.135956 -2.551182 33,975 334 448 -64
2022-05-22 21:37:46 GMT 54.131409 -2.547374 34,000 334 447 -64
2022-05-22 21:37:43 GMT 54.125198 -2.542079 34,000 334 448 -64
2022-05-22 21:37:40 GMT 54.121632 -2.539054 34,000 334 447 -64
2022-05-22 21:37:38 GMT 54.117645 -2.535645 34,000 334 447 -64
2022-05-22 21:37:36 GMT 54.112183 -2.531056 34,000 334 447 -64
2022-05-22 21:37:34 GMT 54.108829 -2.528229 34,000 334 448 -64
2022-05-22 21:37:31 GMT 54.103291 -2.523543 34,000 334 448 -64
2022-05-22 21:37:29 GMT 54.093655 -2.515384 34,000 334 448 -64
2022-05-22 21:37:26 GMT 54.093655 -2.515384 34,000 334 448 -64
2022-05-22 21:37:24 GMT 54.090347 -2.512557 34,000 334 448 -64
2022-05-22 21:37:21 GMT 54.085419 -2.508414 34,025 334 448 -64
2022-05-22 21:37:19 GMT 54.080898 -2.504560 34,000 334 449 -64
2022-05-22 21:37:16 GMT 54.073868 -2.498663 34,000 334 449 -64
2022-05-22 21:37:13 GMT 54.070221 -2.495544 34,025 334 449 -64
2022-05-22 21:37:10 GMT 54.064865 -2.491071 34,025 334 449 -64
2022-05-22 21:37:08 GMT 54.059391 -2.486384 34,025 334 449 -64
2022-05-22 21:37:05 GMT 54.055855 -2.483476 34,025 334 449 -64
2022-05-22 21:37:03 GMT 54.051060 -2.479356 34,025 334 449 -64
2022-05-22 21:37:00 GMT 54.043350 -2.472866 34,025 334 449 -64
2022-05-22 21:36:58 GMT 54.043350 -2.472866 34,025 334 449 -64
2022-05-22 21:36:56 GMT 54.032181 -2.463449 34,025 334 449 -64
2022-05-22 21:36:53 GMT 54.032181 -2.463449 34,050 334 449 -64
2022-05-22 21:36:50 GMT 54.024849 -2.457302 34,025 334 449 -64
2022-05-22 21:36:48 GMT 54.024849 -2.457302 34,050 334 449 -64
2022-05-22 21:36:46 GMT 54.020008 -2.453182 34,050 334 450 -64
2022-05-22 21:36:43 GMT 54.014606 -2.448659 34,050 334 450 0
2022-05-22 21:36:40 GMT 54.009022 -2.443973 34,025 334 450 0
2022-05-22 21:36:38 GMT 54.005486 -2.440984 34,050 334 450 0
2022-05-22 21:36:35 GMT 54.000828 -2.437107 34,025 334 450 0
2022-05-22 21:36:33 GMT 53.995987 -2.433068 34,050 334 450 0
2022-05-22 21:36:30 GMT 53.990215 -2.428140 34,025 334 451 0
2022-05-22 21:36:28 GMT 53.986542 -2.425075 34,050 334 451 0
2022-05-22 21:36:26 GMT 53.983017 -2.422093 34,050 334 451 0
2022-05-22 21:36:23 GMT 53.976017 -2.416265 34,025 334 451 0
2022-05-22 21:36:20 GMT 53.971252 -2.412205 34,050 334 451 0
2022-05-22 21:36:17 GMT 53.965775 -2.407621 34,050 334 451 0
2022-05-22 21:36:14 GMT 53.958389 -2.401376 34,050 334 451 0
2022-05-22 21:36:11 GMT 53.954681 -2.398237 34,050 334 451 0
2022-05-22 21:36:09 GMT 53.947853 -2.392515 34,050 334 452 64
2022-05-22 21:36:07 GMT 53.947853 -2.392515 34,050 334 452 64
2022-05-22 21:36:04 GMT 53.941521 -2.387184 34,050 334 452 64
2022-05-22 21:36:02 GMT 53.936005 -2.382542 34,050 334 452 64
2022-05-22 21:35:59 GMT 53.926949 -2.374905 34,050 334 451 0
2022-05-22 21:35:57 GMT 53.926949 -2.374905 34,050 334 451 0
2022-05-22 21:35:54 GMT 53.923038 -2.371674 34,050 334 451 0
2022-05-22 21:35:52 GMT 53.919827 -2.369008 34,050 334 452 0
2022-05-22 21:35:49 GMT 53.914307 -2.364336 34,050 334 452 0
2022-05-22 21:35:47 GMT 53.910599 -2.361197 34,050 334 452 0
2022-05-22 21:35:45 GMT 53.906746 -2.358021 34,050 334 452 0
2022-05-22 21:35:43 GMT 53.902176 -2.354213 34,050 334 452 0
2022-05-22 21:35:40 GMT 53.896362 -2.349348 34,050 334 452 0
2022-05-22 21:35:37 GMT 53.888218 -2.342592 34,050 334 452 0
2022-05-22 21:35:35 GMT 53.888218 -2.342592 34,050 334 452 0
2022-05-22 21:35:33 GMT 53.879700 -2.335458 34,025 334 452 0
2022-05-22 21:35:31 GMT 53.879700 -2.335458 34,025 334 452 0
2022-05-22 21:35:29 GMT 53.876129 -2.332554 34,025 334 452 0
2022-05-22 21:35:26 GMT 53.868900 -2.326517 34,025 334 452 0
2022-05-22 21:35:23 GMT 53.866104 -2.324174 34,025 334 452 0
2022-05-22 21:35:21 GMT 53.861217 -2.320135 34,025 334 452 0
2022-05-22 21:35:19 GMT 53.857407 -2.316938 34,025 334 452 0
2022-05-22 21:35:17 GMT 53.854614 -2.314584 34,025 334 452 0
2022-05-22 21:35:15 GMT 53.850979 -2.311491 34,025 334 451 0
2022-05-22 21:35:13 GMT 53.846088 -2.307452 34,025 334 451 0
2022-05-22 21:35:10 GMT 53.835388 -2.298340 34,025 334 451 0
2022-05-22 21:35:07 GMT 53.835388 -2.298340 34,025 334 451 64
2022-05-22 21:35:05 GMT 53.831005 -2.294689 34,025 334 452 64
2022-05-22 21:35:02 GMT 53.826305 -2.290730 34,025 335 451 64
2022-05-22 21:34:59 GMT 53.819973 -2.285399 34,025 335 452 64
2022-05-22 21:34:57 GMT 53.817322 -2.283298 34,025 336 453 64
2022-05-22 21:34:55 GMT 53.807358 -2.275301 34,025 336 453 64
2022-05-22 21:34:53 GMT 53.807358 -2.275301 34,025 336 453 64
2022-05-22 21:34:50 GMT 53.803619 -2.272443 34,025 336 453 64
2022-05-22 21:34:47 GMT 53.797897 -2.268049 34,025 336 454 64
2022-05-22 21:34:45 GMT 53.793949 -2.265122 34,025 336 454 64
2022-05-22 21:34:43 GMT 53.788330 -2.260908 34,000 336 453 0
2022-05-22 21:34:40 GMT 53.783428 -2.257206 34,000 336 453 0
2022-05-22 21:34:37 GMT 53.778683 -2.253651 34,025 336 453 0
2022-05-22 21:34:35 GMT 53.775051 -2.250905 34,000 336 453 0
2022-05-22 21:34:33 GMT 53.769279 -2.246543 34,000 337 453 0
2022-05-22 21:34:30 GMT 53.764618 -2.243094 34,000 337 453 0
2022-05-22 21:34:28 GMT 53.759857 -2.239485 34,000 337 453 0
2022-05-22 21:34:25 GMT 53.754009 -2.235072 34,000 337 453 0
2022-05-22 21:34:22 GMT 53.748230 -2.230774 34,000 337 453 0
2022-05-22 21:34:19 GMT 53.738663 -2.223633 34,000 337 451 0
2022-05-22 21:34:16 GMT 53.738663 -2.223633 34,000 337 451 0
2022-05-22 21:34:13 GMT 53.732456 -2.218996 34,000 337 451 64
2022-05-22 21:34:10 GMT 53.726730 -2.214714 34,000 337 451 0
2022-05-22 21:34:07 GMT 53.720818 -2.210271 34,000 337 451 0
2022-05-22 21:34:05 GMT 53.716553 -2.207075 34,000 337 451 0
2022-05-22 21:34:02 GMT 53.711563 -2.203387 34,000 337 451 0
2022-05-22 21:33:59 GMT 53.704803 -2.198316 34,000 337 451 0
2022-05-22 21:33:56 GMT 53.699203 -2.194127 34,000 337 451 0
2022-05-22 21:33:53 GMT 53.693584 -2.189914 34,000 337 450 0
2022-05-22 21:33:50 GMT 53.683411 -2.182356 34,000 337 450 0
2022-05-22 21:33:48 GMT 53.683411 -2.182356 34,000 337 450 0
2022-05-22 21:33:45 GMT 53.672562 -2.174273 34,000 337 450 0
2022-05-22 21:33:42 GMT 53.672562 -2.174273 34,000 337 450 0
2022-05-22 21:33:39 GMT 53.667801 -2.170741 34,000 337 450 0
2022-05-22 21:33:37 GMT 53.664001 -2.167916 34,000 337 450 0
2022-05-22 21:33:34 GMT 53.658096 -2.163522 34,000 337 450 0
2022-05-22 21:33:32 GMT 53.656109 -2.162045 34,000 337 450 0
2022-05-22 21:33:30 GMT 53.650314 -2.157715 34,000 336 449 0
2022-05-22 21:33:28 GMT 53.646881 -2.155125 34,000 336 449 0
2022-05-22 21:33:25 GMT 53.641388 -2.151045 34,000 336 449 0
2022-05-22 21:33:22 GMT 53.635529 -2.146650 34,000 337 449 0
2022-05-22 21:33:20 GMT 53.628342 -2.141235 34,000 337 449 0
2022-05-22 21:33:18 GMT 53.628342 -2.141235 34,000 337 449 0
2022-05-22 21:33:16 GMT 53.624454 -2.138376 34,000 337 449 0
2022-05-22 21:33:13 GMT 53.616493 -2.132398 34,000 336 449 0
2022-05-22 21:33:10 GMT 53.612045 -2.129072 34,000 336 448 0
2022-05-22 21:33:07 GMT 53.607285 -2.125541 34,000 336 448 0
2022-05-22 21:33:04 GMT 53.601608 -2.121303 34,000 337 448 0
2022-05-22 21:33:01 GMT 53.594334 -2.115838 34,000 337 448 0
2022-05-22 21:32:58 GMT 53.590439 -2.112985 34,000 337 448 0
2022-05-22 21:32:56 GMT 53.586933 -2.110344 34,000 337 448 0
2022-05-22 21:32:54 GMT 53.581440 -2.106225 34,000 337 449 0
2022-05-22 21:32:51 GMT 53.577667 -2.103397 34,000 337 449 0
2022-05-22 21:32:49 GMT 53.573292 -2.100166 34,000 337 449 0
2022-05-22 21:32:46 GMT 53.568100 -2.096348 34,000 337 449 -64
2022-05-22 21:32:44 GMT 53.564117 -2.093366 34,000 337 449 -64
2022-05-22 21:32:42 GMT 53.560398 -2.090634 34,000 337 449 -64
2022-05-22 21:32:40 GMT 53.555740 -2.087167 34,000 337 450 0
2022-05-22 21:32:38 GMT 53.550797 -2.083557 34,000 337 450 0
2022-05-22 21:32:35 GMT 53.546154 -2.080051 34,000 337 450 0
2022-05-22 21:32:32 GMT 53.541321 -2.076494 34,000 337 450 0
2022-05-22 21:32:30 GMT 53.536743 -2.073120 34,000 337 451 0
2022-05-22 21:32:28 GMT 53.532761 -2.070138 34,000 337 450 0
2022-05-22 21:32:25 GMT 53.526260 -2.065351 34,000 337 451 0
2022-05-22 21:32:22 GMT 53.522644 -2.062683 34,000 337 451 0
2022-05-22 21:32:20 GMT 53.517883 -2.059152 34,000 337 451 0
2022-05-22 21:32:18 GMT 53.512161 -2.054914 34,000 337 450 0
2022-05-22 21:32:15 GMT 53.507034 -2.051147 34,000 337 450 0
2022-05-22 21:32:12 GMT 53.502346 -2.047738 34,000 337 450 0
2022-05-22 21:32:10 GMT 53.498657 -2.044948 34,000 337 450 0
2022-05-22 21:32:08 GMT 53.494759 -2.042084 34,000 337 451 0
2022-05-22 21:32:05 GMT 53.487682 -2.036914 34,000 337 451 0
2022-05-22 21:32:02 GMT 53.483780 -2.034040 34,000 337 451 0
2022-05-22 21:32:00 GMT 53.478973 -2.030587 34,000 337 451 0
2022-05-22 21:31:58 GMT 53.475357 -2.027919 34,000 337 451 -64
2022-05-22 21:31:55 GMT 53.469715 -2.023827 34,000 337 450 0
2022-05-22 21:31:52 GMT 53.464779 -2.020192 34,000 337 451 0
2022-05-22 21:31:50 GMT 53.460777 -2.017203 34,000 337 451 0
2022-05-22 21:31:47 GMT 53.454304 -2.012437 34,000 337 448 0
2022-05-22 21:31:44 GMT 53.448074 -2.007908 34,000 337 448 64
2022-05-22 21:31:41 GMT 53.444202 -2.005005 33,975 337 449 0
2022-05-22 21:31:39 GMT 53.441437 -2.002965 34,000 337 449 0
2022-05-22 21:31:37 GMT 53.436241 -1.999108 34,000 337 447 128
2022-05-22 21:31:34 GMT 53.425003 -1.990801 33,975 337 443 192
2022-05-22 21:31:31 GMT 53.425003 -1.990801 33,975 337 443 192
2022-05-22 21:31:29 GMT 53.418133 -1.985698 33,950 337 442 64
2022-05-22 21:31:27 GMT 53.418133 -1.985698 33,975 337 445 192
2022-05-22 21:31:25 GMT 53.413330 -1.982169 33,950 337 442 0
2022-05-22 21:31:22 GMT 53.406124 -1.976812 33,950 337 442 128
2022-05-22 21:31:19 GMT 53.401520 -1.973458 33,950 337 442 0
2022-05-22 21:31:16 GMT 53.396767 -1.969946 33,950 337 442 0
2022-05-22 21:31:13 GMT 53.386780 -1.962629 33,950 337 442 0
2022-05-22 21:31:11 GMT 53.386780 -1.962629 33,950 337 442 0
2022-05-22 21:31:09 GMT 53.384060 -1.960575 33,950 337 442 0
2022-05-22 21:31:07 GMT 53.378471 -1.956455 33,950 337 442 0
2022-05-22 21:31:04 GMT 53.369114 -1.949589 33,950 337 442 0
2022-05-22 21:31:01 GMT 53.369114 -1.949589 33,950 337 442 0
2022-05-22 21:30:59 GMT 53.365204 -1.946680 33,950 337 442 0
2022-05-22 21:30:57 GMT 53.357010 -1.940622 33,950 337 442 -64
2022-05-22 21:30:55 GMT 53.357010 -1.940622 33,950 337 442 -64
2022-05-22 21:30:52 GMT 53.351379 -1.936502 33,950 337 442 -64
2022-05-22 21:30:49 GMT 53.345123 -1.931946 33,950 337 442 -64
2022-05-22 21:30:46 GMT 53.339787 -1.928020 33,975 337 442 -64
2022-05-22 21:30:43 GMT 53.335133 -1.924546 33,975 337 443 -64
2022-05-22 21:30:40 GMT 53.329685 -1.920588 33,975 337 443 -64
2022-05-22 21:30:37 GMT 53.323727 -1.916145 33,975 337 443 -64
2022-05-22 21:30:34 GMT 53.319023 -1.912752 33,975 337 443 -64
2022-05-22 21:30:32 GMT 53.309555 -1.905814 33,975 337 443 -64
2022-05-22 21:30:29 GMT 53.309555 -1.905814 33,975 337 443 -64
2022-05-22 21:30:27 GMT 53.304035 -1.901766 33,975 337 444 -64
2022-05-22 21:30:24 GMT 53.298111 -1.897417 33,975 337 444 0
2022-05-22 21:30:21 GMT 53.293514 -1.894011 33,975 337 444 0
2022-05-22 21:30:19 GMT 53.290054 -1.891532 33,975 337 444 0
2022-05-22 21:30:17 GMT 53.285275 -1.887952 34,000 337 444 0
2022-05-22 21:30:14 GMT 53.280758 -1.884721 34,000 337 445 0
2022-05-22 21:30:11 GMT 53.275223 -1.880624 34,000 337 445 -64
2022-05-22 21:30:09 GMT 53.266342 -1.874111 34,000 337 445 -64
2022-05-22 21:30:07 GMT 53.266342 -1.874111 34,000 337 445 -64
2022-05-22 21:30:04 GMT 53.262695 -1.871473 34,000 337 446 0
2022-05-22 21:30:02 GMT 53.256912 -1.867283 34,000 337 446 0
2022-05-22 21:29:59 GMT 53.248917 -1.861456 34,000 337 446 0
2022-05-22 21:29:57 GMT 53.248917 -1.861456 34,000 337 446 0
2022-05-22 21:29:55 GMT 53.245422 -1.858887 34,000 337 447 0
2022-05-22 21:29:52 GMT 53.238602 -1.853943 34,000 337 447 0
2022-05-22 21:29:49 GMT 53.233154 -1.849941 34,000 337 447 0
2022-05-22 21:29:47 GMT 53.228294 -1.846430 34,000 337 448 0
2022-05-22 21:29:44 GMT 53.223358 -1.842876 34,000 337 447 0
2022-05-22 21:29:41 GMT 53.216934 -1.838110 34,000 337 447 0
2022-05-22 21:29:38 GMT 53.207016 -1.830872 34,000 337 447 0
2022-05-22 21:29:36 GMT 53.207016 -1.830872 34,000 337 447 0
2022-05-22 21:29:33 GMT 53.202179 -1.827366 34,000 337 448 0
2022-05-22 21:29:30 GMT 53.197060 -1.823569 34,000 337 448 0
2022-05-22 21:29:28 GMT 53.192867 -1.820580 34,000 337 448 0
2022-05-22 21:29:26 GMT 53.191269 -1.819414 34,000 337 448 0
2022-05-22 21:29:24 GMT 53.182625 -1.813067 34,000 337 448 0
2022-05-22 21:29:22 GMT 53.182625 -1.813067 34,000 337 448 0
2022-05-22 21:29:19 GMT 53.175037 -1.807574 34,000 337 448 0
2022-05-22 21:29:16 GMT 53.171173 -1.804740 34,000 337 448 0
2022-05-22 21:29:13 GMT 53.165680 -1.800816 34,000 337 448 0
2022-05-22 21:29:10 GMT 53.159225 -1.796108 34,000 337 448 0
2022-05-22 21:29:08 GMT 53.156277 -1.794003 34,000 337 448 0
2022-05-22 21:29:06 GMT 53.152359 -1.791164 34,000 337 448 0
2022-05-22 21:29:04 GMT 53.147644 -1.787711 34,000 337 448 0
2022-05-22 21:29:02 GMT 53.143383 -1.784551 34,000 337 448 0
2022-05-22 21:28:59 GMT 53.138535 -1.781041 34,000 337 448 0
2022-05-22 21:28:57 GMT 53.134552 -1.778137 34,000 337 448 0
2022-05-22 21:28:55 GMT 53.131790 -1.776150 34,000 337 448 0
2022-05-22 21:28:53 GMT 53.126297 -1.772192 34,000 337 448 0
2022-05-22 21:28:50 GMT 53.122421 -1.769348 34,000 337 448 0
2022-05-22 21:28:48 GMT 53.118523 -1.766537 34,000 337 448 0
2022-05-22 21:28:46 GMT 53.109329 -1.759853 34,000 337 449 -64
2022-05-22 21:28:44 GMT 53.109329 -1.759853 34,000 337 448 0
2022-05-22 21:28:41 GMT 53.104885 -1.756601 34,000 337 449 0
2022-05-22 21:28:38 GMT 53.095642 -1.749965 34,000 337 449 -64
2022-05-22 21:28:36 GMT 53.095642 -1.749965 34,000 337 449 -64
2022-05-22 21:28:34 GMT 53.091011 -1.746591 34,000 337 450 0
2022-05-22 21:28:31 GMT 53.084911 -1.742196 34,000 337 450 0
2022-05-22 21:28:28 GMT 53.078156 -1.737289 34,000 337 450 0
2022-05-22 21:28:25 GMT 53.073395 -1.733780 34,000 337 450 64
2022-05-22 21:28:22 GMT 53.067596 -1.729562 34,000 337 450 64
2022-05-22 21:28:19 GMT 53.061951 -1.725540 34,000 337 450 64
2022-05-22 21:28:16 GMT 53.057121 -1.722028 34,000 337 450 64
2022-05-22 21:28:14 GMT 53.051395 -1.717869 34,000 337 451 64
2022-05-22 21:28:11 GMT 53.045856 -1.713867 33,975 337 451 64
2022-05-22 21:28:08 GMT 53.041248 -1.710571 33,975 337 451 64
2022-05-22 21:28:06 GMT 53.037430 -1.707825 33,975 337 451 64
2022-05-22 21:28:04 GMT 53.025604 -1.699271 33,975 337 451 64
2022-05-22 21:28:01 GMT 53.025604 -1.699271 33,975 337 451 64
2022-05-22 21:27:58 GMT 53.021851 -1.696625 33,975 337 450 128
2022-05-22 21:27:55 GMT 53.017971 -1.693778 33,975 337 450 128
2022-05-22 21:27:53 GMT 53.012329 -1.689682 33,950 337 450 256
2022-05-22 21:27:50 GMT 53.006145 -1.685224 33,950 337 449 384
2022-05-22 21:27:48 GMT 53.003262 -1.683184 33,800 337 449 832
2022-05-22 21:27:45 GMT 52.996605 -1.678319 33,875 337 449 960
2022-05-22 21:27:42 GMT 52.992088 -1.675023 33,850 337 449 1024
2022-05-22 21:27:40 GMT 52.987427 -1.671677 33,825 337 449 1152
2022-05-22 21:27:37 GMT 52.982594 -1.668195 33,675 337 449 1408
2022-05-22 21:27:34 GMT 52.975800 -1.663361 33,700 337 450 1536
2022-05-22 21:27:31 GMT 52.971085 -1.659927 33,575 337 450 1536
2022-05-22 21:27:28 GMT 52.959045 -1.651306 33,350 337 451 1472
2022-05-22 21:27:25 GMT 52.959045 -1.651306 33,450 337 451 1472
2022-05-22 21:27:22 GMT 52.952957 -1.646881 33,175 337 452 1472
2022-05-22 21:27:19 GMT 52.948841 -1.643947 33,325 337 452 1472
2022-05-22 21:27:17 GMT 52.943573 -1.640167 33,150 337 453 1408
2022-05-22 21:27:14 GMT 52.939438 -1.637198 32,950 337 453 1408
2022-05-22 21:27:12 GMT 52.934555 -1.633682 33,125 337 453 1408
2022-05-22 21:27:10 GMT 52.930710 -1.630936 33,100 337 453 1408
2022-05-22 21:27:08 GMT 52.926777 -1.628095 32,975 337 453 1344
2022-05-22 21:27:05 GMT 52.922169 -1.624799 32,925 337 453 1408
2022-05-22 21:27:03 GMT 52.917557 -1.621504 32,900 337 454 1408
2022-05-22 21:27:00 GMT 52.911785 -1.617344 32,625 337 454 1472
2022-05-22 21:26:57 GMT 52.904984 -1.612473 32,775 337 454 1472
2022-05-22 21:26:54 GMT 52.894699 -1.605024 32,500 337 454 1408
2022-05-22 21:26:51 GMT 52.894699 -1.605024 32,650 337 454 1408
2022-05-22 21:26:48 GMT 52.887863 -1.600113 32,550 337 455 1408
2022-05-22 21:26:45 GMT 52.884201 -1.597443 32,525 337 455 1408
2022-05-22 21:26:43 GMT 52.878315 -1.593253 32,450 337 455 1408
2022-05-22 21:26:41 GMT 52.868958 -1.586533 32,400 337 455 1408
2022-05-22 21:26:38 GMT 52.868958 -1.586533 32,325 337 456 1408
2022-05-22 21:26:35 GMT 52.862183 -1.581650 32,250 337 456 1344
2022-05-22 21:26:32 GMT 52.855690 -1.577087 32,175 337 456 1344
2022-05-22 21:26:29 GMT 52.852802 -1.574969 32,125 337 456 1344
2022-05-22 21:26:27 GMT 52.848148 -1.571673 32,075 337 457 1344
2022-05-22 21:26:24 GMT 52.840118 -1.565933 32,000 337 457 1344
2022-05-22 21:26:21 GMT 52.836140 -1.563119 31,825 337 458 1472
2022-05-22 21:26:18 GMT 52.830132 -1.558803 31,825 337 458 1472
2022-05-22 21:26:15 GMT 52.825562 -1.555557 31,850 337 458 1536
2022-05-22 21:26:13 GMT 52.820824 -1.552211 31,750 337 459 1600
2022-05-22 21:26:11 GMT 52.816818 -1.549301 31,725 337 459 1728
2022-05-22 21:26:08 GMT 52.810673 -1.544992 31,525 337 461 2048
2022-05-22 21:26:05 GMT 52.804916 -1.540833 31,375 337 462 2176
2022-05-22 21:26:02 GMT 52.793610 -1.532822 31,375 337 462 2176
2022-05-22 21:25:59 GMT 52.793610 -1.532822 31,325 337 462 2176
2022-05-22 21:25:57 GMT 52.787704 -1.528625 31,275 337 463 2176
2022-05-22 21:25:54 GMT 52.781719 -1.524353 31,175 337 464 2112
2022-05-22 21:25:51 GMT 52.777496 -1.521301 30,925 337 465 1408
2022-05-22 21:25:48 GMT 52.771545 -1.517105 30,950 337 465 1600
2022-05-22 21:25:46 GMT 52.765823 -1.513062 30,850 337 465 1344
2022-05-22 21:25:43 GMT 52.761421 -1.509914 30,825 337 465 1280
2022-05-22 21:25:40 GMT 52.755569 -1.505737 30,775 337 465 1216
2022-05-22 21:25:38 GMT 52.752457 -1.503525 30,750 337 465 1216
2022-05-22 21:25:36 GMT 52.749481 -1.501389 30,725 337 465 1216
2022-05-22 21:25:34 GMT 52.743874 -1.497358 30,650 337 464 1216
2022-05-22 21:25:32 GMT 52.739914 -1.494533 30,550 337 464 1280
2022-05-22 21:25:29 GMT 52.733917 -1.490326 30,525 337 464 1280
2022-05-22 21:25:26 GMT 52.728012 -1.486053 30,475 337 464 1280
2022-05-22 21:25:24 GMT 52.724178 -1.483311 30,450 337 464 1280
2022-05-22 21:25:21 GMT 52.718399 -1.479187 30,250 337 464 1408
2022-05-22 21:25:18 GMT 52.712589 -1.475071 30,325 337 464 1408
2022-05-22 21:25:16 GMT 52.707596 -1.471481 30,175 337 464 1472
2022-05-22 21:25:13 GMT 52.704350 -1.469186 30,175 337 464 1472
2022-05-22 21:25:11 GMT 52.699413 -1.465733 29,375 337 463 1152
2022-05-22 21:25:08 GMT 52.693550 -1.461574 30,050 337 463 1664
2022-05-22 21:25:06 GMT 52.689514 -1.458664 29,825 337 464 1856
2022-05-22 21:25:04 GMT 52.684704 -1.455296 29,875 337 464 1984
2022-05-22 21:25:01 GMT 52.679585 -1.451686 29,850 337 464 2048
2022-05-22 21:24:58 GMT 52.673672 -1.447449 29,725 337 465 2112
2022-05-22 21:24:56 GMT 52.665154 -1.441485 29,650 337 466 1856
2022-05-22 21:24:53 GMT 52.665154 -1.441485 29,500 337 466 1792
2022-05-22 21:24:51 GMT 52.661011 -1.438503 29,500 337 466 1664
2022-05-22 21:24:49 GMT 52.655048 -1.434344 29,450 337 466 1600
2022-05-22 21:24:47 GMT 52.645660 -1.427689 29,375 337 466 1536
2022-05-22 21:24:44 GMT 52.645660 -1.427689 29,175 337 466 1472
2022-05-22 21:24:41 GMT 52.633682 -1.419277 29,225 337 466 1408
2022-05-22 21:24:38 GMT 52.633682 -1.419277 29,175 337 466 1472
2022-05-22 21:24:36 GMT 52.629639 -1.416397 29,125 337 466 1472
2022-05-22 21:24:33 GMT 52.623688 -1.412201 28,975 337 466 1408
2022-05-22 21:24:30 GMT 52.619808 -1.409467 28,975 337 466 1408
2022-05-22 21:24:28 GMT 52.608261 -1.401291 28,900 337 465 1216
2022-05-22 21:24:25 GMT 52.602631 -1.397304 28,875 337 465 1216
2022-05-22 21:24:23 GMT 52.602631 -1.397304 28,825 337 465 1216
2022-05-22 21:24:20 GMT 52.592949 -1.390477 28,750 337 464 1216
2022-05-22 21:24:17 GMT 52.592949 -1.390477 28,725 337 464 1152
2022-05-22 21:24:15 GMT 52.582706 -1.383257 28,475 337 464 1536
2022-05-22 21:24:12 GMT 52.582706 -1.383257 28,550 337 464 1344
2022-05-22 21:24:09 GMT 52.574795 -1.377686 28,500 337 464 1536
2022-05-22 21:24:06 GMT 52.570770 -1.374817 28,450 337 464 1664
2022-05-22 21:24:03 GMT 52.559921 -1.367188 28,250 337 464 1664
2022-05-22 21:24:00 GMT 52.559921 -1.367188 28,250 337 464 1664
2022-05-22 21:23:58 GMT 52.555023 -1.363678 28,250 337 464 1600
2022-05-22 21:23:55 GMT 52.549191 -1.359558 28,175 337 464 1536
2022-05-22 21:23:53 GMT 52.543579 -1.355591 28,025 337 464 1344
2022-05-22 21:23:50 GMT 52.537598 -1.351397 27,950 337 463 1152
2022-05-22 21:23:47 GMT 52.534744 -1.349335 28,025 337 463 1152
2022-05-22 21:23:45 GMT 52.530708 -1.346531 28,000 337 462 1216
2022-05-22 21:23:43 GMT 52.525497 -1.342850 27,925 337 461 1408
2022-05-22 21:23:41 GMT 52.513809 -1.334603 27,875 337 462 1216
2022-05-22 21:23:38 GMT 52.513809 -1.334603 27,800 337 462 1344
2022-05-22 21:23:35 GMT 52.509384 -1.331482 27,750 337 461 1344
2022-05-22 21:23:33 GMT 52.500496 -1.325265 27,600 337 461 1984
2022-05-22 21:23:30 GMT 52.500496 -1.325265 27,650 337 461 1728
2022-05-22 21:23:28 GMT 52.495514 -1.321793 27,525 337 461 2048
2022-05-22 21:23:25 GMT 52.484249 -1.313886 27,425 337 462 1728
2022-05-22 21:23:22 GMT 52.479919 -1.310904 26,975 337 461 2048
2022-05-22 21:23:20 GMT 52.479919 -1.310904 27,250 337 462 1856
2022-05-22 21:23:17 GMT 52.475281 -1.307678 27,150 337 462 1792
2022-05-22 21:23:15 GMT 52.462738 -1.298904 26,625 337 460 1088
2022-05-22 21:23:12 GMT 52.462738 -1.298904 27,000 337 462 1728
2022-05-22 21:23:09 GMT 52.458923 -1.296230 26,900 337 459 832
2022-05-22 21:23:07 GMT 52.450378 -1.290207 26,900 337 461 1216
2022-05-22 21:23:04 GMT 52.450378 -1.290207 26,900 337 460 1024
2022-05-22 21:23:02 GMT 52.444820 -1.286342 26,800 337 458 768
2022-05-22 21:22:59 GMT 52.438766 -1.282104 26,800 337 457 832
2022-05-22 21:22:57 GMT 52.428955 -1.275177 26,750 337 456 896
2022-05-22 21:22:54 GMT 52.428955 -1.275177 26,725 337 455 832
2022-05-22 21:22:51 GMT 52.423035 -1.271040 26,675 337 452 1024
2022-05-22 21:22:48 GMT 52.417740 -1.267319 26,650 337 452 960
2022-05-22 21:22:46 GMT 52.414001 -1.264683 26,600 337 452 1024
2022-05-22 21:22:43 GMT 52.408043 -1.260524 26,550 337 451 1280
2022-05-22 21:22:40 GMT 52.396866 -1.252594 26,450 337 450 1408
2022-05-22 21:22:37 GMT 52.396866 -1.252594 26,375 337 449 1280
2022-05-22 21:22:34 GMT 52.391052 -1.248518 26,350 337 449 1280
2022-05-22 21:22:32 GMT 52.388855 -1.247025 26,225 337 447 960
2022-05-22 21:22:30 GMT 52.383499 -1.243210 26,275 337 446 1024
2022-05-22 21:22:27 GMT 52.377823 -1.239243 26,225 337 446 960
2022-05-22 21:22:25 GMT 52.373920 -1.236511 26,200 337 444 1216
2022-05-22 21:22:23 GMT 52.362747 -1.228664 26,125 337 444 1152
2022-05-22 21:22:20 GMT 52.362747 -1.228664 26,025 337 443 1344
2022-05-22 21:22:17 GMT 52.357674 -1.225133 26,025 337 442 1408
2022-05-22 21:22:14 GMT 52.352787 -1.221680 25,950 337 442 1536
2022-05-22 21:22:12 GMT 52.350082 -1.219788 25,825 337 441 1792
2022-05-22 21:22:09 GMT 52.339661 -1.212577 25,800 337 441 1984
2022-05-22 21:22:06 GMT 52.339661 -1.212577 25,750 337 441 2112
2022-05-22 21:22:04 GMT 52.333923 -1.208572 25,625 337 442 2304
2022-05-22 21:22:01 GMT 52.324623 -1.202140 25,500 337 442 2304
2022-05-22 21:21:59 GMT 52.324623 -1.202140 25,425 337 442 2240
2022-05-22 21:21:57 GMT 52.316151 -1.196176 25,225 337 443 2176
2022-05-22 21:21:54 GMT 52.316151 -1.196176 25,125 337 443 2176
2022-05-22 21:21:51 GMT 52.305630 -1.188878 25,125 337 443 2112
2022-05-22 21:21:49 GMT 52.305630 -1.188878 25,000 337 443 1920
2022-05-22 21:21:46 GMT 52.301193 -1.185837 24,950 337 442 1664
2022-05-22 21:21:43 GMT 52.295620 -1.181972 24,900 337 442 1664
2022-05-22 21:21:41 GMT 52.286030 -1.175302 24,775 337 440 1536
2022-05-22 21:21:38 GMT 52.286030 -1.175302 24,775 337 441 1600
2022-05-22 21:21:36 GMT 52.282120 -1.172555 24,725 337 441 1600
2022-05-22 21:21:34 GMT 52.278534 -1.170044 24,650 337 440 1600
2022-05-22 21:21:31 GMT 52.270981 -1.164780 24,550 337 439 1600
2022-05-22 21:21:28 GMT 52.267132 -1.162118 24,500 337 439 1728
2022-05-22 21:21:26 GMT 52.261276 -1.158066 24,200 337 438 1856
2022-05-22 21:21:23 GMT 52.258484 -1.156082 24,200 337 438 1856
2022-05-22 21:21:21 GMT 52.252792 -1.152152 23,950 337 436 2048
2022-05-22 21:21:18 GMT 52.248413 -1.149139 24,150 338 437 2176
2022-05-22 21:21:16 GMT 52.243790 -1.145935 24,075 338 437 2176
2022-05-22 21:21:13 GMT 52.238937 -1.142578 24,000 338 437 2176
2022-05-22 21:21:11 GMT 52.234314 -1.139374 23,625 337 436 1920
2022-05-22 21:21:08 GMT 52.229828 -1.136246 23,825 337 436 1920
2022-05-22 21:21:06 GMT 52.225204 -1.133041 23,725 337 435 1856
2022-05-22 21:21:03 GMT 52.215179 -1.126099 23,625 337 435 1792
2022-05-22 21:21:01 GMT 52.215179 -1.126099 23,575 337 434 1664
2022-05-22 21:20:58 GMT 52.211151 -1.123276 23,500 337 434 1664
2022-05-22 21:20:56 GMT 52.207260 -1.120605 23,425 337 433 1600
2022-05-22 21:20:53 GMT 52.197208 -1.113621 23,350 337 432 1472
2022-05-22 21:20:51 GMT 52.197208 -1.113621 23,250 337 431 1472
2022-05-22 21:20:48 GMT 52.192703 -1.110535 23,250 337 431 1408
2022-05-22 21:20:46 GMT 52.188782 -1.107814 23,200 337 428 1408
2022-05-22 21:20:43 GMT 52.183182 -1.103973 23,150 337 428 1344
2022-05-22 21:20:41 GMT 52.179932 -1.101685 23,100 337 427 1408
2022-05-22 21:20:38 GMT 52.172653 -1.096649 23,000 337 426 1536
2022-05-22 21:20:35 GMT 52.167389 -1.092987 22,900 337 422 1920
2022-05-22 21:20:32 GMT 52.162170 -1.089401 22,775 337 421 2432
2022-05-22 21:20:29 GMT 52.158554 -1.086884 22,775 337 422 1728
2022-05-22 21:20:26 GMT 52.150192 -1.081055 22,400 337 421 2624
2022-05-22 21:20:23 GMT 52.142212 -1.075592 22,500 337 421 2560
2022-05-22 21:20:21 GMT 52.142212 -1.075592 22,375 338 422 2560
2022-05-22 21:20:18 GMT 52.139439 -1.073678 22,375 337 421 2624
2022-05-22 21:20:16 GMT 52.135853 -1.071167 22,300 338 422 2688
2022-05-22 21:20:14 GMT 52.131821 -1.068344 22,175 338 422 2560
2022-05-22 21:20:11 GMT 52.126354 -1.064575 21,625 337 417 1856
2022-05-22 21:20:08 GMT 52.120399 -1.060495 21,975 337 421 1792
2022-05-22 21:20:06 GMT 52.116028 -1.057434 21,875 337 419 1792
2022-05-22 21:20:03 GMT 52.110855 -1.053848 21,800 337 419 1792
2022-05-22 21:20:01 GMT 52.107178 -1.051313 21,700 337 418 1920
2022-05-22 21:19:58 GMT 52.102478 -1.048050 21,675 337 417 1920
2022-05-22 21:19:56 GMT 52.094467 -1.042557 21,575 337 417 1856
2022-05-22 21:19:53 GMT 52.094467 -1.042557 21,525 337 416 1856
2022-05-22 21:19:51 GMT 52.089069 -1.038836 21,300 337 414 1856
2022-05-22 21:19:48 GMT 52.084690 -1.035775 21,350 337 414 1856
2022-05-22 21:19:45 GMT 52.079315 -1.032104 21,250 338 412 1920
2022-05-22 21:19:43 GMT 52.069794 -1.025543 21,175 337 411 2176
2022-05-22 21:19:40 GMT 52.066315 -1.023102 21,050 337 411 2240
2022-05-22 21:19:37 GMT 52.066315 -1.023102 20,975 338 411 2688
2022-05-22 21:19:35 GMT 52.061234 -1.019669 20,875 338 411 2752
2022-05-22 21:19:32 GMT 52.056946 -1.016706 20,650 338 411 2752
2022-05-22 21:19:30 GMT 52.053360 -1.014252 20,650 338 411 2752
2022-05-22 21:19:28 GMT 52.050476 -1.012233 20,625 338 411 2816
2022-05-22 21:19:26 GMT 52.041027 -1.005798 20,325 337 411 2496
2022-05-22 21:19:23 GMT 52.041027 -1.005798 20,350 337 411 2624
2022-05-22 21:19:21 GMT 52.036377 -1.002579 20,125 337 410 2176
2022-05-22 21:19:18 GMT 52.031799 -0.999451 20,125 337 410 2304
2022-05-22 21:19:15 GMT 52.026398 -0.995712 20,025 337 409 2112
2022-05-22 21:19:12 GMT 52.021938 -0.992693 19,925 337 409 2048
2022-05-22 21:19:10 GMT 52.017937 -0.989868 19,850 337 409 2048
2022-05-22 21:19:07 GMT 52.013535 -0.986862 19,775 337 408 2048
2022-05-22 21:19:05 GMT 52.009003 -0.983658 19,625 337 406 2112
2022-05-22 21:19:02 GMT 52.004108 -0.980294 19,575 337 405 2176
2022-05-22 21:19:00 GMT 52.000580 -0.977783 19,150 337 404 2304
2022-05-22 21:18:57 GMT 51.996460 -0.974960 19,400 337 404 2304
2022-05-22 21:18:55 GMT 51.987030 -0.968323 19,275 337 402 2048
2022-05-22 21:18:52 GMT 51.987030 -0.968323 19,200 337 402 2048
2022-05-22 21:18:50 GMT 51.983349 -0.965777 19,075 337 401 2048
2022-05-22 21:18:47 GMT 51.979156 -0.962830 19,075 337 401 2048
2022-05-22 21:18:45 GMT 51.975853 -0.960519 18,975 337 400 2048
2022-05-22 21:18:43 GMT 51.972198 -0.957947 18,800 337 398 2560
2022-05-22 21:18:40 GMT 51.965469 -0.953140 18,750 337 398 2624
2022-05-22 21:18:37 GMT 51.961979 -0.950710 18,700 337 398 2624
2022-05-22 21:18:34 GMT 51.953041 -0.944353 18,450 337 398 2688
2022-05-22 21:18:31 GMT 51.953041 -0.944353 18,425 337 398 2688
2022-05-22 21:18:29 GMT 51.948761 -0.941391 18,300 338 397 2496
2022-05-22 21:18:27 GMT 51.945316 -0.939017 18,200 338 397 2496
2022-05-22 21:18:25 GMT 51.942940 -0.937369 18,175 338 397 2432
2022-05-22 21:18:23 GMT 51.938095 -0.934143 18,025 339 396 2496
2022-05-22 21:18:21 GMT 51.934708 -0.931854 17,975 339 396 2496
2022-05-22 21:18:18 GMT 51.930267 -0.929031 17,850 339 396 2560
2022-05-22 21:18:16 GMT 51.923527 -0.924735 17,725 340 395 2560
2022-05-22 21:18:14 GMT 51.923527 -0.924735 17,550 340 395 2560
2022-05-22 21:18:11 GMT 51.914886 -0.919418 17,100 339 393 2496
2022-05-22 21:18:09 GMT 51.908352 -0.915397 17,100 339 393 2496
2022-05-22 21:18:06 GMT 51.908352 -0.915397 17,250 340 394 2496
2022-05-22 21:18:03 GMT 51.904068 -0.912728 17,200 340 394 2496
2022-05-22 21:18:01 GMT 51.900158 -0.910296 17,100 339 393 2496
2022-05-22 21:17:59 GMT 51.898483 -0.909276 17,100 340 391 2432
2022-05-22 21:17:57 GMT 51.890259 -0.904145 16,875 340 391 2432
2022-05-22 21:17:55 GMT 51.890259 -0.904145 16,875 340 390 2432
2022-05-22 21:17:53 GMT 51.886688 -0.901992 16,775 340 390 2432
2022-05-22 21:17:50 GMT 51.877121 -0.896054 16,625 339 389 2432
2022-05-22 21:17:47 GMT 51.877121 -0.896054 16,550 340 388 2432
2022-05-22 21:17:45 GMT 51.873917 -0.894050 15,925 340 384 2176
2022-05-22 21:17:42 GMT 51.868130 -0.890503 16,350 340 387 2240
2022-05-22 21:17:39 GMT 51.863846 -0.887814 16,150 340 384 2176
2022-05-22 21:17:36 GMT 51.858673 -0.884622 16,175 340 385 2176
2022-05-22 21:17:33 GMT 51.853043 -0.881133 16,000 340 382 2176
2022-05-22 21:17:30 GMT 51.848999 -0.878677 15,800 340 379 2176
2022-05-22 21:17:27 GMT 51.843292 -0.875120 15,800 340 379 2176
2022-05-22 21:17:25 GMT 51.839905 -0.873042 15,675 340 379 2176
2022-05-22 21:17:22 GMT 51.834824 -0.869924 15,550 340 377 2624
2022-05-22 21:17:19 GMT 51.831390 -0.867846 15,475 340 377 3072
2022-05-22 21:17:17 GMT 51.827396 -0.865402 15,350 340 377 3072
2022-05-22 21:17:15 GMT 51.818024 -0.859680 15,000 340 378 3520
2022-05-22 21:17:12 GMT 51.818024 -0.859680 14,400 340 378 3520
2022-05-22 21:17:09 GMT 51.810059 -0.854781 14,850 340 377 3584
2022-05-22 21:17:06 GMT 51.810059 -0.854781 14,725 340 378 3520
2022-05-22 21:17:03 GMT 51.804337 -0.851292 12,875 339 367 1600
2022-05-22 21:17:01 GMT 51.800350 -0.848846 14,400 339 378 3008
2022-05-22 21:16:58 GMT 51.792755 -0.844091 14,275 339 378 2880
2022-05-22 21:16:56 GMT 51.792755 -0.844091 14,175 340 377 2752
2022-05-22 21:16:53 GMT 51.788013 -0.841217 14,100 340 377 2688
2022-05-22 21:16:51 GMT 51.784012 -0.838747 13,600 340 376 2688
2022-05-22 21:16:48 GMT 51.775406 -0.833476 13,775 340 375 2752
2022-05-22 21:16:45 GMT 51.769161 -0.829620 13,625 340 375 2944
2022-05-22 21:16:42 GMT 51.765297 -0.827255 13,350 340 374 3136
2022-05-22 21:16:39 GMT 51.765297 -0.827255 13,000 340 372 2752
2022-05-22 21:16:36 GMT 51.761307 -0.824865 13,225 340 373 3008
2022-05-22 21:16:34 GMT 51.756317 -0.821748 13,125 340 373 2816
2022-05-22 21:16:31 GMT 51.752216 -0.819244 12,975 339 370 2240
2022-05-22 21:16:28 GMT 51.748901 -0.817220 12,950 340 371 2624
2022-05-22 21:16:26 GMT 51.743557 -0.813904 12,750 339 366 1536
2022-05-22 21:16:23 GMT 51.739609 -0.811429 12,750 339 366 1536
2022-05-22 21:16:21 GMT 51.737179 -0.809937 12,700 339 366 1536
2022-05-22 21:16:19 GMT 51.733223 -0.807419 12,675 339 363 1472
2022-05-22 21:16:16 GMT 51.729355 -0.805045 12,550 339 362 1472
2022-05-22 21:16:14 GMT 51.725601 -0.802744 12,475 340 357 1664
2022-05-22 21:16:11 GMT 51.721817 -0.800400 12,375 340 356 2048
2022-05-22 21:16:08 GMT 51.717022 -0.797424 12,300 340 354 2304
2022-05-22 21:16:06 GMT 51.713287 -0.795173 11,950 340 352 4288
2022-05-22 21:16:03 GMT 51.708527 -0.792203 12,000 340 353 4544
2022-05-22 21:16:00 GMT 51.704220 -0.789566 11,875 340 352 3840
2022-05-22 21:15:58 GMT 51.702080 -0.788269 11,750 340 352 4096
2022-05-22 21:15:56 GMT 51.698261 -0.785980 11,650 340 357 4672
2022-05-22 21:15:54 GMT 51.693924 -0.783370 11,525 340 354 4800
2022-05-22 21:15:51 GMT 51.690163 -0.781097 11,225 340 357 4736
2022-05-22 21:15:48 GMT 51.686344 -0.778732 11,050 340 358 4352
2022-05-22 21:15:46 GMT 51.682526 -0.776392 10,775 340 359 3392
2022-05-22 21:15:43 GMT 51.679176 -0.774384 10,750 340 359 3264
2022-05-22 21:15:41 GMT 51.673691 -0.770973 10,525 340 358 3072
2022-05-22 21:15:38 GMT 51.669800 -0.768598 10,425 340 358 3072
2022-05-22 21:15:36 GMT 51.667583 -0.767212 10,350 340 357 3008
2022-05-22 21:15:34 GMT 51.664398 -0.765331 10,200 340 357 3008
2022-05-22 21:15:32 GMT 51.661285 -0.763401 10,075 340 356 2944
2022-05-22 21:15:29 GMT 51.656597 -0.760498 10,025 340 355 2880
2022-05-22 21:15:26 GMT 51.651245 -0.757217 9,800 340 353 2752
2022-05-22 21:15:23 GMT 51.641609 -0.751343 9,575 340 352 2880
2022-05-22 21:15:20 GMT 51.641609 -0.751343 9,525 340 351 3072
2022-05-22 21:15:17 GMT 51.638580 -0.749512 9,475 340 351 3200
2022-05-22 21:15:15 GMT 51.634670 -0.747070 9,275 340 349 3392
2022-05-22 21:15:13 GMT 51.631508 -0.745163 9,050 340 349 3520
2022-05-22 21:15:10 GMT 51.627045 -0.742394 8,975 340 349 3712
2022-05-22 21:15:07 GMT 51.622513 -0.739647 8,800 340 349 3776
2022-05-22 21:15:05 GMT 51.619450 -0.737762 8,675 340 349 3712
2022-05-22 21:15:03 GMT 51.616096 -0.735703 8,550 340 349 3456
2022-05-22 21:15:00 GMT 51.613258 -0.733948 8,450 340 349 3392
2022-05-22 21:14:58 GMT 51.609486 -0.731659 8,350 339 348 3200
2022-05-22 21:14:56 GMT 51.602966 -0.727547 7,750 339 346 2944
2022-05-22 21:14:53 GMT 51.602966 -0.727547 8,075 339 346 2880
2022-05-22 21:14:51 GMT 51.599712 -0.725555 7,825 339 344 3072
2022-05-22 21:14:48 GMT 51.594452 -0.722277 7,800 339 343 3008
2022-05-22 21:14:46 GMT 51.588501 -0.718491 7,500 339 342 2816
2022-05-22 21:14:44 GMT 51.588501 -0.718491 7,500 339 342 2816
2022-05-22 21:14:41 GMT 51.583744 -0.715561 7,450 339 341 2752
2022-05-22 21:14:38 GMT 51.579987 -0.713146 7,325 339 337 2624
2022-05-22 21:14:36 GMT 51.573780 -0.709305 7,150 340 335 2560
2022-05-22 21:14:34 GMT 51.573780 -0.709305 7,150 340 335 2560
2022-05-22 21:14:32 GMT 51.570923 -0.707579 7,050 340 332 2368
2022-05-22 21:14:29 GMT 51.566574 -0.704907 6,950 340 331 2368
2022-05-22 21:14:26 GMT 51.562191 -0.702286 6,825 340 329 2432
2022-05-22 21:14:24 GMT 51.558605 -0.700226 6,675 341 326 2944
2022-05-22 21:14:21 GMT 51.555679 -0.698523 6,575 341 325 3008
2022-05-22 21:14:19 GMT 51.551559 -0.696147 6,300 340 323 2880
2022-05-22 21:14:16 GMT 51.544594 -0.692062 6,300 340 323 2880
2022-05-22 21:14:14 GMT 51.544594 -0.692062 6,225 340 322 2816
2022-05-22 21:14:12 GMT 51.542542 -0.690877 5,800 331 313 1664
2022-05-22 21:14:09 GMT 51.537098 -0.687561 6,000 335 318 2112
2022-05-22 21:14:06 GMT 51.535191 -0.686264 5,875 333 315 1792
2022-05-22 21:14:04 GMT 51.529835 -0.681992 5,875 328 310 1536
2022-05-22 21:14:02 GMT 51.525101 -0.677144 5,825 326 308 1472
2022-05-22 21:13:59 GMT 51.525101 -0.677144 5,750 315 295 1344
2022-05-22 21:13:57 GMT 51.522804 -0.674362 5,700 320 301 1408
2022-05-22 21:13:55 GMT 51.521164 -0.672245 5,675 309 287 1408
2022-05-22 21:13:53 GMT 51.519733 -0.670013 5,625 314 292 1344
2022-05-22 21:13:51 GMT 51.517044 -0.665638 5,575 309 287 1408
2022-05-22 21:13:48 GMT 51.514519 -0.660629 5,475 304 281 1664
2022-05-22 21:13:45 GMT 51.512844 -0.656662 5,375 299 272 2112
2022-05-22 21:13:43 GMT 51.511822 -0.654068 5,350 300 274 1984
2022-05-22 21:13:41 GMT 51.509949 -0.648861 5,200 298 267 2368
2022-05-22 21:13:38 GMT 51.506744 -0.639063 4,625 298 262 3776
2022-05-22 21:13:35 GMT 51.506744 -0.639063 5,000 298 264 3392
2022-05-22 21:13:33 GMT 51.505859 -0.636368 4,925 298 263 3584
2022-05-22 21:13:31 GMT 51.502487 -0.626072 4,525 298 261 3776
2022-05-22 21:13:28 GMT 51.502487 -0.626072 4,500 298 261 3712
2022-05-22 21:13:25 GMT 51.499996 -0.618439 4,075 298 261 3520
2022-05-22 21:13:23 GMT 51.499996 -0.618439 4,325 298 261 3392
2022-05-22 21:13:20 GMT 51.498230 -0.613007 4,000 298 257 2688
2022-05-22 21:13:17 GMT 51.496086 -0.606461 3,750 298 254 2432
2022-05-22 21:13:14 GMT 51.494640 -0.602188 3,850 298 253 2304
2022-05-22 21:13:11 GMT 51.493332 -0.598087 3,700 299 240 1984
2022-05-22 21:13:08 GMT 51.489754 -0.587311 3,600 299 243 1984
2022-05-22 21:13:05 GMT 51.489754 -0.587311 3,525 299 240 1984
2022-05-22 21:13:03 GMT 51.488708 -0.584205 3,425 299 235 2176
2022-05-22 21:13:00 GMT 51.486649 -0.577970 3,325 299 232 2240
2022-05-22 21:12:57 GMT 51.485870 -0.575669 3,250 299 229 2112
2022-05-22 21:12:55 GMT 51.484772 -0.572328 3,200 299 226 1984
2022-05-22 21:12:53 GMT 51.483006 -0.567017 3,000 299 212 1728
2022-05-22 21:12:51 GMT 51.483006 -0.567017 3,050 299 220 1728
2022-05-22 21:12:49 GMT 51.482025 -0.564117 3,000 299 216 1600
2022-05-22 21:12:47 GMT 51.480835 -0.560600 2,950 299 216 1600
2022-05-22 21:12:44 GMT 51.479187 -0.555700 2,850 299 209 1728
2022-05-22 21:12:42 GMT 51.478226 -0.552954 2,775 300 205 1728
2022-05-22 21:12:39 GMT 51.477264 -0.550133 2,725 300 203 1728
2022-05-22 21:12:37 GMT 51.476120 -0.546867 2,675 300 201 1664
2022-05-22 21:12:34 GMT 51.474609 -0.542487 2,575 300 196 1728
2022-05-22 21:12:32 GMT 51.472412 -0.536252 2,400 300 192 1664
2022-05-22 21:12:29 GMT 51.470993 -0.532150 2,400 299 188 1728
2022-05-22 21:12:26 GMT 51.470993 -0.532150 2,325 298 184 1664
2022-05-22 21:12:23 GMT 51.469849 -0.528680 2,225 297 180 1600
2022-05-22 21:12:20 GMT 51.468807 -0.525589 2,200 294 173 1408
2022-05-22 21:12:18 GMT 51.468292 -0.523929 2,075 294 173 1408
2022-05-22 21:12:15 GMT 51.466991 -0.519562 2,075 292 171 1472
2022-05-22 21:12:13 GMT 51.466339 -0.517273 2,000 290 170 1472
2022-05-22 21:12:11 GMT 51.465733 -0.514908 1,975 289 168 1472
2022-05-22 21:12:09 GMT 51.465271 -0.512720 1,925 285 166 1536
2022-05-22 21:12:08 GMT 51.465034 -0.511627 1,900 280 163 1728
2022-05-22 21:12:06 GMT 51.464722 -0.509157 1,800 277 161 1856
2022-05-22 21:12:04 GMT 51.464523 -0.506821 1,725 274 159 1856
2022-05-22 21:12:01 GMT 51.464355 -0.503218 1,675 270 157 1920
2022-05-22 21:12:00 GMT 51.464355 -0.500546 1,600 269 155 1984
2022-05-22 21:11:58 GMT 51.464382 -0.499344 1,550 269 154 1984
2022-05-22 21:11:56 GMT 51.464432 -0.497055 1,500 269 153 2176
2022-05-22 21:11:55 GMT 51.464447 -0.495869 1,450 269 153 2304
2022-05-22 21:11:53 GMT 51.464493 -0.493568 1,350 269 154 2624
2022-05-22 21:11:52 GMT 51.464539 -0.492306 1,300 269 154 2688
2022-05-22 21:11:51 GMT 51.464584 -0.490302 1,225 269 154 2688
2022-05-22 21:11:48 GMT 51.464569 -0.487976 1,125 269 155 2752
2022-05-22 21:11:46 GMT 51.464630 -0.485625 1,050 269 156 2688
2022-05-22 21:11:45 GMT 51.464664 -0.483398 950 269 157 2752
2022-05-22 21:11:43 GMT 51.464664 -0.482330 900 269 157 2752
2022-05-22 21:11:42 GMT 51.464710 -0.480042 800 269 158 2688
2022-05-22 21:11:40 GMT 51.464722 -0.478796 750 269 158 2624
2022-05-22 21:11:39 GMT 51.464756 -0.477829 725 269 158 2624
2022-05-22 21:11:38 GMT 51.464802 -0.475006 625 269 159 2624
2022-05-22 21:11:36 GMT 51.464813 -0.473897 575 269 160 2624
2022-05-22 21:11:35 GMT 51.464848 -0.471573 500 270 161 2624
2022-05-22 21:11:33 GMT 51.464859 -0.470334 450 270 162 2624
2022-05-22 21:11:32 GMT 51.464859 -0.469294 425 270 163 2560
2022-05-22 21:11:30 GMT 51.464848 -0.466843 325 270 164 2304
2022-05-22 21:11:21 GMT 51.464859 -0.458234 225 270 112 64
2022-05-22 21:11:20 GMT 51.464859 -0.456081 250 270 112 64
2022-05-22 21:11:13 GMT 51.464905 -0.449103 250 270 112 64
2022-05-22 21:11:12 GMT 51.464905 -0.448138 250 270 91 64
2022-05-22 21:11:08 GMT 51.464905 -0.445021 250 270 91 64
2022-05-22 21:11:05 GMT 51.464920 -0.443039 0 270 78
2022-05-22 21:11:03 GMT 51.464920 -0.441875 0 270 68
2022-05-22 21:11:00 GMT 51.464931 -0.440121 0 270 53
2022-05-22 21:10:50 GMT 51.464943 -0.437412 0 267 15
2022-05-22 21:10:40 GMT 51.465008 -0.436391 0 219 13
2022-05-22 21:10:34 GMT 51.465294 -0.436076 0 185 13
2022-05-22 21:10:30 GMT 51.465466 -0.436020 0 180 12
2022-05-22 21:10:18 GMT 51.466084 -0.436039 0 171 11
2022-05-22 21:10:10 GMT 51.466496 -0.436168 0 129 10
2022-05-22 21:10:09 GMT 51.466526 -0.436211 0 120 11
2022-05-22 21:10:08 GMT 51.466564 -0.436261 0 115 11
2022-05-22 21:10:02 GMT 51.466675 -0.436687 0 90 13
2022-05-22 21:09:59 GMT 51.466679 -0.436948 0 90 13
2022-05-22 21:09:58 GMT 51.466675 -0.437031 0 90 14
2022-05-22 21:09:54 GMT 51.466675 -0.437622 0 90 17
2022-05-22 21:09:51 GMT 51.466675 -0.437927 0 90 18
2022-05-22 21:09:47 GMT 51.466667 -0.438098 0 90 18
2022-05-22 21:09:42 GMT 51.466663 -0.438862 0 90 20
2022-05-22 21:09:39 GMT 51.466667 -0.439286 0 90 21
2022-05-22 21:09:37 GMT 51.466667 -0.439527 0 90 22
2022-05-22 21:09:36 GMT 51.466667 -0.439750 0 90 22
2022-05-22 21:09:35 GMT 51.466663 -0.439911 0 90 21
2022-05-22 21:09:34 GMT 51.466663 -0.440083 0 90 21
2022-05-22 21:09:33 GMT 51.466663 -0.440388 0 90 21
2022-05-22 21:09:31 GMT 51.466663 -0.440559 0 90 21
2022-05-22 21:09:30 GMT 51.466663 -0.440712 0 90 21
2022-05-22 21:09:28 GMT 51.466663 -0.440979 0 90 20
2022-05-22 21:09:26 GMT 51.466663 -0.441418 0 90 20
2022-05-22 21:09:24 GMT 51.466652 -0.441570 0 90 20
2022-05-22 21:09:23 GMT 51.466656 -0.441717 0 90 21
2022-05-22 21:09:21 GMT 51.466656 -0.442070 0 90 21
2022-05-22 21:09:18 GMT 51.466652 -0.442810 0 90 22
2022-05-22 21:09:16 GMT 51.466652 -0.442810 0 90 22
2022-05-22 21:09:12 GMT 51.466656 -0.443462 0 90 21
2022-05-22 21:09:08 GMT 51.466652 -0.443993 0 90 21
2022-05-22 21:09:07 GMT 51.466656 -0.444223 0 90 21
2022-05-22 21:09:03 GMT 51.466640 -0.444832 0 90 20
2022-05-22 21:09:01 GMT 51.466640 -0.445137 0 90 20
2022-05-22 21:09:00 GMT 51.466640 -0.445557 0 90 20
2022-05-22 21:08:58 GMT 51.466640 -0.445557 0 90 20
2022-05-22 21:08:57 GMT 51.466640 -0.445881 0 90 20
2022-05-22 21:08:55 GMT 51.466644 -0.446041 0 90 20
2022-05-22 21:08:53 GMT 51.466644 -0.446598 0 90 20
2022-05-22 21:08:51 GMT 51.466644 -0.446598 0 90 20
2022-05-22 21:08:47 GMT 51.466644 -0.447210 0 90 20
2022-05-22 21:08:43 GMT 51.466644 -0.447730 0 90 19
2022-05-22 21:08:41 GMT 51.466640 -0.448074 0 90 19
2022-05-22 21:08:39 GMT 51.466640 -0.448265 0 90 19
2022-05-22 21:08:36 GMT 51.466640 -0.448666 0 90 18
2022-05-22 21:08:33 GMT 51.466640 -0.449219 0 90 17
2022-05-22 21:08:28 GMT 51.466633 -0.449697 0 90 16
2022-05-22 21:08:24 GMT 51.466629 -0.450211 0 90 16
2022-05-22 21:08:13 GMT 51.466629 -0.451355 0 90 16
2022-05-22 21:08:09 GMT 51.466621 -0.451850 0 90 15
2022-05-22 21:07:57 GMT 51.466621 -0.453167 0 90 16
2022-05-22 21:07:48 GMT 51.466621 -0.454337 0 90 19
2022-05-22 21:07:45 GMT 51.466621 -0.454671 0 90 20
2022-05-22 21:07:42 GMT 51.466610 -0.455227 0 90 19
2022-05-22 21:07:39 GMT 51.466618 -0.455513 0 90 19
2022-05-22 21:07:34 GMT 51.466610 -0.456471 0 90 18
2022-05-22 21:07:32 GMT 51.466610 -0.456471 0 90 18
2022-05-22 21:07:30 GMT 51.466606 -0.456657 0 90 17
2022-05-22 21:07:25 GMT 51.466610 -0.457343 0 90 17
2022-05-22 21:07:17 GMT 51.466606 -0.458317 0 90 19
2022-05-22 21:07:11 GMT 51.466606 -0.459156 0 90 21
2022-05-22 21:07:10 GMT 51.466606 -0.459366 0 90 22
2022-05-22 21:07:05 GMT 51.466599 -0.460108 0 90 24
2022-05-22 21:07:01 GMT 51.466595 -0.460873 0 90 25
2022-05-22 21:06:57 GMT 51.466595 -0.461540 0 90 25
2022-05-22 21:06:56 GMT 51.466595 -0.461807 0 90 25
2022-05-22 21:06:55 GMT 51.466599 -0.461983 0 90 25
2022-05-22 21:06:53 GMT 51.466595 -0.462322 0 90 24
2022-05-22 21:06:52 GMT 51.466587 -0.462502 0 90 24
2022-05-22 21:06:45 GMT 51.466583 -0.463600 0 90 24
2022-05-22 21:06:42 GMT 51.466583 -0.464020 0 90 23
2022-05-22 21:06:41 GMT 51.466576 -0.464247 0 90 23
2022-05-22 21:06:39 GMT 51.466583 -0.464535 0 90 23
2022-05-22 21:06:35 GMT 51.466583 -0.465565 0 90 22
2022-05-22 21:06:32 GMT 51.466572 -0.467491 0 90 20
2022-05-22 21:06:21 GMT 51.466572 -0.467491 0 90 20
2022-05-22 21:06:19 GMT 51.466572 -0.467777 0 90 20
2022-05-22 21:06:17 GMT 51.466572 -0.468140 0 90 20
2022-05-22 21:06:15 GMT 51.466572 -0.468426 0 90 20
2022-05-22 21:06:13 GMT 51.466572 -0.468655 0 90 20
2022-05-22 21:06:11 GMT 51.466576 -0.468997 0 90 20
2022-05-22 21:06:08 GMT 51.466572 -0.469456 0 90 20
2022-05-22 21:06:05 GMT 51.466564 -0.469870 0 90 19
2022-05-22 21:06:00 GMT 51.466564 -0.470593 0 90 19
2022-05-22 21:05:55 GMT 51.466560 -0.471306 0 90 19
2022-05-22 21:05:53 GMT 51.466560 -0.471592 0 90 20
2022-05-22 21:05:49 GMT 51.466560 -0.472126 0 90 20
2022-05-22 21:05:48 GMT 51.466564 -0.472282 0 90 20
2022-05-22 21:05:46 GMT 51.466553 -0.472579 0 90 20
2022-05-22 21:05:44 GMT 51.466553 -0.472876 0 90 20
2022-05-22 21:05:40 GMT 51.466553 -0.473414 0 90 20
2022-05-22 21:05:38 GMT 51.466549 -0.473709 0 90 20
2022-05-22 21:05:36 GMT 51.466549 -0.474358 0 90 20
2022-05-22 21:05:34 GMT 51.466549 -0.474358 0 90 20
2022-05-22 21:05:32 GMT 51.466549 -0.474491 0 90 20
2022-05-22 21:05:30 GMT 51.466553 -0.474732 0 90 20
2022-05-22 21:05:28 GMT 51.466549 -0.475044 0 90 20
2022-05-22 21:05:26 GMT 51.466549 -0.475254 0 90 19
2022-05-22 21:05:25 GMT 51.466549 -0.475807 0 90 19
2022-05-22 21:05:17 GMT 51.466537 -0.476570 0 90 18
2022-05-22 21:05:13 GMT 51.466537 -0.477085 0 90 18
2022-05-22 21:05:12 GMT 51.466541 -0.477274 0 90 18
2022-05-22 21:05:10 GMT 51.466537 -0.477543 0 90 18
2022-05-22 21:05:05 GMT 51.466537 -0.478134 0 90 18
2022-05-22 21:05:02 GMT 51.466530 -0.478648 0 90 18
2022-05-22 21:05:00 GMT 51.466530 -0.479037 0 90 18
2022-05-22 21:04:59 GMT 51.466530 -0.479037 0 90 18
2022-05-22 21:04:56 GMT 51.466530 -0.479446 0 90 18
2022-05-22 21:04:55 GMT 51.466526 -0.479698 0 90 17
2022-05-22 21:04:53 GMT 51.466530 -0.479817 0 90 17
2022-05-22 21:04:52 GMT 51.466526 -0.480213 0 90 16
2022-05-22 21:04:50 GMT 51.466526 -0.480213 0 90 16
2022-05-22 21:04:49 GMT 51.466530 -0.480318 0 90 15
2022-05-22 21:04:47 GMT 51.466526 -0.480537 0 90 15
2022-05-22 21:04:45 GMT 51.466526 -0.480747 0 90 14
2022-05-22 21:04:40 GMT 51.466530 -0.481227 0 90 13
2022-05-22 21:04:38 GMT 51.466530 -0.481468 0 90 13
2022-05-22 21:04:36 GMT 51.466518 -0.481654 0 90 12
2022-05-22 21:04:34 GMT 51.466526 -0.481815 0 90 12
2022-05-22 21:04:32 GMT 51.466518 -0.482099 0 90 12
2022-05-22 21:04:30 GMT 51.466518 -0.482192 0 90 11
2022-05-22 21:04:23 GMT 51.466530 -0.484122 0 120 10
2022-05-22 21:04:03 GMT 51.466530 -0.484122 0 120 10
2022-05-22 21:04:02 GMT 51.466537 -0.484238 0 129 10
2022-05-22 21:03:53 GMT 51.466827 -0.484660 0 174 10
2022-05-22 21:03:51 GMT 51.466976 -0.484679 0 180 10
2022-05-22 21:03:48 GMT 51.467060 -0.484695 0 180 11
2022-05-22 21:03:46 GMT 51.467159 -0.484697 0 180 11
2022-05-22 21:03:44 GMT 51.467258 -0.484695 0 180 12
2022-05-22 21:03:36 GMT 51.467686 -0.484697 0 180 13
2022-05-22 21:03:29 GMT 51.468109 -0.484697 0 180 13
2022-05-22 21:03:27 GMT 51.468178 -0.484697 0 180 13
2022-05-22 21:03:19 GMT 51.468658 -0.484697 0 180 12
2022-05-22 21:03:15 GMT 51.468853 -0.484697 0 180 12
2022-05-22 21:03:13 GMT 51.468990 -0.484697 0 180 12
2022-05-22 21:03:12 GMT 51.469040 -0.484695 0 180 12
2022-05-22 21:03:10 GMT 51.469151 -0.484697 0 180 12
2022-05-22 21:03:08 GMT 51.469318 -0.484695 0 180 12
2022-05-22 21:03:06 GMT 51.469353 -0.484715 0 180 12
2022-05-22 21:03:04 GMT 51.469437 -0.484716 0 180 12
2022-05-22 21:03:03 GMT 51.469505 -0.484716 0 180 12
2022-05-22 21:03:01 GMT 51.469608 -0.484716 0 180 11
2022-05-22 21:03:00 GMT 51.469666 -0.484715 0 180 11
2022-05-22 21:02:58 GMT 51.469818 -0.484715 0 180 11
2022-05-22 21:02:55 GMT 51.469982 -0.484715 0 180 11
2022-05-22 21:02:52 GMT 51.470055 -0.484716 0 180 11
2022-05-22 21:02:51 GMT 51.470238 -0.484716 0 180 11
2022-05-22 21:02:49 GMT 51.470238 -0.484716 0 180 11
2022-05-22 21:02:47 GMT 51.470329 -0.484715 0 180 11
2022-05-22 21:02:46 GMT 51.470379 -0.484715 0 180 11
2022-05-22 21:02:44 GMT 51.470524 -0.484716 0 180 11
2022-05-22 21:02:41 GMT 51.470570 -0.484716 0 180 11
2022-05-22 21:02:39 GMT 51.470657 -0.484715 0 180 10
2022-05-22 21:02:38 GMT 51.470703 -0.484715 0 180 10
2022-05-22 21:02:37 GMT 51.470749 -0.484715 0 180 10
2022-05-22 21:02:34 GMT 51.470867 -0.484716 0 180 10
2022-05-22 21:02:33 GMT 51.470924 -0.484716 0 180 10
2022-05-22 21:02:32 GMT 51.471050 -0.484716 0 180 10
2022-05-22 21:02:30 GMT 51.471050 -0.484716 0 180 10
2022-05-22 21:02:29 GMT 51.471123 -0.484715 0 180 9
2022-05-22 21:02:28 GMT 51.471157 -0.484715 0 180 9
2022-05-22 21:02:27 GMT 51.471233 -0.484716 0 180 9
2022-05-22 21:02:24 GMT 51.471313 -0.484716 0 180 9
2022-05-22 21:02:22 GMT 51.471394 -0.484716 0 180 8
2022-05-22 21:02:21 GMT 51.471439 -0.484716 0 180 8
2022-05-22 21:02:12 GMT 51.471714 -0.484734 0 180 7
2022-05-22 21:02:09 GMT 51.471817 -0.484735 0 180 7
2022-05-22 21:01:58 GMT 51.472111 -0.484734 0 182 6
2022-05-22 20:58:45 GMT 51.472462 -0.484715 0 180 0
2022-05-22 20:58:39 GMT 51.472469 -0.484697 0 180 0
2022-05-22 20:58:27 GMT 51.472401 -0.484638 0 168 2
2022-05-22 20:58:16 GMT 51.472332 -0.484638 0 171 2
2022-05-22 20:58:12 GMT 51.472309 -0.484657 0 177 2
2022-05-22 20:58:09 GMT 51.472286 -0.484695 0 185 2
2022-05-22 20:58:07 GMT 51.472286 -0.484734 0 191 2
2022-05-22 20:57:58 GMT 51.472263 -0.484827 0 210 2
2022-05-22 20:57:56 GMT 51.472263 -0.484865 0 216 2
2022-05-22 20:57:54 GMT 51.472263 -0.484883 0 219 2
2022-05-22 20:57:51 GMT 51.472263 -0.484920 0 227 2
2022-05-22 20:57:50 GMT 51.472263 -0.484939 0 230 2
2022-05-22 20:57:47 GMT 51.472263 -0.484976 0 233 2
2022-05-22 20:57:36 GMT 51.472298 -0.485106 0 255 2
2022-05-22 20:57:34 GMT 51.472298 -0.485124 0 261 2
2022-05-22 20:57:31 GMT 51.472309 -0.485172 0 267 2
2022-05-22 20:57:30 GMT 51.472321 -0.485180 0 267 2
2022-05-22 20:57:28 GMT 51.472321 -0.485199 0 270 2
2022-05-22 20:57:26 GMT 51.472332 -0.485229 0 272 2
2022-05-22 20:57:25 GMT 51.472332 -0.485236 0 272 2
2022-05-22 20:57:23 GMT 51.472332 -0.485273 0 272 2
2022-05-22 20:57:22 GMT 51.472343 -0.485287 0 272 2
2022-05-22 20:57:20 GMT 51.472343 -0.485306 0 272 2
2022-05-22 20:57:18 GMT 51.472343 -0.485328 0 272 2
2022-05-22 20:57:16 GMT 51.472343 -0.485347 0 272 2
2022-05-22 20:57:14 GMT 51.472343 -0.485382 0 272 2
2022-05-22 20:57:13 GMT 51.472343 -0.485401 0 272 2
2022-05-22 20:57:12 GMT 51.472343 -0.485420 0 272 2
2022-05-22 20:57:10 GMT 51.472343 -0.485420 0 272 2
2022-05-22 20:57:08 GMT 51.472343 -0.485458 0 272 2
2022-05-22 20:57:06 GMT 51.472343 -0.485495 0 272 2
2022-05-22 20:57:02 GMT 51.472343 -0.485514 0 272 2
2022-05-22 20:57:01 GMT 51.472343 -0.485535 0 272 2
2022-05-22 20:57:00 GMT 51.472343 -0.485551 0 272 2
2022-05-22 20:56:58 GMT 51.472343 -0.485607 0 270 2
2022-05-22 20:56:56 GMT 51.472343 -0.485630 0 270 2
2022-05-22 20:56:53 GMT 51.472343 -0.485630 0 270 2
2022-05-22 20:56:51 GMT 51.472343 -0.485644 0 270 2
2022-05-22 20:56:50 GMT 51.472332 -0.485668 0 270 2
2022-05-22 20:56:49 GMT 51.472343 -0.485681 0 270 2
2022-05-22 20:56:47 GMT 51.472332 -0.485737 0 270 2
2022-05-22 20:56:39 GMT 51.472332 -0.485821 0 270 0
2022-05-22 20:56:34 GMT 51.472332 -0.485897 0 270 0
2022-05-22 20:56:31 GMT 51.472332 -0.485922 0 270 1
2022-05-22 20:56:28 GMT 51.472332 -0.485941 0 270 0
2022-05-22 20:56:26 GMT 51.472332 -0.485954 0 270 0
2022-05-22 20:56:25 GMT 51.472332 -0.485959 0 270 0
2022-05-22 20:56:24 GMT 51.472332 -0.485973 0 270 0
2022-05-22 20:56:21 GMT 51.472275 -0.485997 0 270 0
2022-05-22 20:56:19 GMT 51.472275 -0.486015 0 270 0

Making use of Plane Finder data

You are free to use the raw flight data, aircraft information and images provided in this report for your own purposes provided the data is correctly attributed to Plane Finder. We ask that you please credit Plane Finder and link to planefinder.net in close proximity to the content.

Optionally one of the following logos (no smaller then 150x24px) can be used and must link to planefinder.net

Embedding the Plane Finder map

You are welcome to embed the Plane Finder playback map on your website to offer visitors a more interactive experience. We suggest using the following HTML code:

<iframe src="//planefinder.net/data/report/BA1496-G-NEOY-7700-squawk-2022-05-22/map" width="800" height="600" seamless="seamless"></iframe>

Where our data comes from

Plane Finder has a global network of data feeds and antenna radars that receive data broadcast directly from aircraft. The primary technologies used are ADS-B and MLAT. We also show feeds from the FAA and a FLARM glider feed.

Click here to find out more about the Plane Finder network.

How we collect our data